<?xml version="1.0" encoding="UTF-8" standalone="no" ?>
<gpx xmlns="http://www.topografix.com/GPX/1/1" xmlns:xsi="http://www.w3.org/2001/XMLSchema-instance" xsi:schemaLocation="http://www.topografix.com/GPX/1/1 http://www.topografix.com/GPX/1/1/gpx.xsd" version="1.1" creator="VisuGPX - https://www.visugpx.com">
  <metadata>
    <name>Course à pied le midi</name>
  </metadata>
  <trk>
    <name><![CDATA[Course à pied le midi_1]]></name>
    <trkseg>
      <trkpt lat="43.64405" lon="1.39313">
        <ele>127</ele>
        <time>2025-04-16T10:24:53Z</time>
      </trkpt>
      <trkpt lat="43.64407" lon="1.39312">
        <ele>127</ele>
        <time>2025-04-16T10:24:54Z</time>
      </trkpt>
      <trkpt lat="43.6441" lon="1.39312">
        <ele>127</ele>
        <time>2025-04-16T10:24:55Z</time>
      </trkpt>
      <trkpt lat="43.64414" lon="1.39311">
        <ele>127</ele>
        <time>2025-04-16T10:24:56Z</time>
      </trkpt>
      <trkpt lat="43.64418" lon="1.3931">
        <ele>127</ele>
        <time>2025-04-16T10:24:57Z</time>
      </trkpt>
      <trkpt lat="43.64421" lon="1.39309">
        <ele>127</ele>
        <time>2025-04-16T10:24:58Z</time>
      </trkpt>
      <trkpt lat="43.64425" lon="1.39308">
        <ele>128</ele>
        <time>2025-04-16T10:24:59Z</time>
      </trkpt>
      <trkpt lat="43.64429" lon="1.39307">
        <ele>128</ele>
        <time>2025-04-16T10:25:00Z</time>
      </trkpt>
      <trkpt lat="43.64433" lon="1.39307">
        <ele>127</ele>
        <time>2025-04-16T10:25:01Z</time>
      </trkpt>
      <trkpt lat="43.64436" lon="1.39306">
        <ele>127</ele>
        <time>2025-04-16T10:25:02Z</time>
      </trkpt>
      <trkpt lat="43.64439" lon="1.39306">
        <ele>127</ele>
        <time>2025-04-16T10:25:03Z</time>
      </trkpt>
      <trkpt lat="43.64442" lon="1.39305">
        <ele>127</ele>
        <time>2025-04-16T10:25:04Z</time>
      </trkpt>
      <trkpt lat="43.64446" lon="1.39305">
        <ele>128</ele>
        <time>2025-04-16T10:25:05Z</time>
      </trkpt>
      <trkpt lat="43.64448" lon="1.39305">
        <ele>128</ele>
        <time>2025-04-16T10:25:06Z</time>
      </trkpt>
      <trkpt lat="43.6445" lon="1.39304">
        <ele>128</ele>
        <time>2025-04-16T10:25:07Z</time>
      </trkpt>
      <trkpt lat="43.64452" lon="1.39301">
        <ele>128</ele>
        <time>2025-04-16T10:25:08Z</time>
      </trkpt>
      <trkpt lat="43.64453" lon="1.39297">
        <ele>129</ele>
        <time>2025-04-16T10:25:09Z</time>
      </trkpt>
      <trkpt lat="43.64452" lon="1.39292">
        <ele>129</ele>
        <time>2025-04-16T10:25:10Z</time>
      </trkpt>
      <trkpt lat="43.64451" lon="1.39287">
        <ele>129</ele>
        <time>2025-04-16T10:25:11Z</time>
      </trkpt>
      <trkpt lat="43.64451" lon="1.39283">
        <ele>129</ele>
        <time>2025-04-16T10:25:12Z</time>
      </trkpt>
      <trkpt lat="43.6445" lon="1.39279">
        <ele>128</ele>
        <time>2025-04-16T10:25:13Z</time>
      </trkpt>
      <trkpt lat="43.64448" lon="1.39274">
        <ele>128</ele>
        <time>2025-04-16T10:25:14Z</time>
      </trkpt>
      <trkpt lat="43.64446" lon="1.3927">
        <ele>128</ele>
        <time>2025-04-16T10:25:15Z</time>
      </trkpt>
      <trkpt lat="43.64445" lon="1.39266">
        <ele>128</ele>
        <time>2025-04-16T10:25:16Z</time>
      </trkpt>
      <trkpt lat="43.64443" lon="1.39262">
        <ele>129</ele>
        <time>2025-04-16T10:25:17Z</time>
      </trkpt>
      <trkpt lat="43.64442" lon="1.39257">
        <ele>129</ele>
        <time>2025-04-16T10:25:18Z</time>
      </trkpt>
      <trkpt lat="43.6444" lon="1.39253">
        <ele>129</ele>
        <time>2025-04-16T10:25:19Z</time>
      </trkpt>
      <trkpt lat="43.64437" lon="1.39248">
        <ele>129</ele>
        <time>2025-04-16T10:25:20Z</time>
      </trkpt>
      <trkpt lat="43.64435" lon="1.39244">
        <ele>128</ele>
        <time>2025-04-16T10:25:21Z</time>
      </trkpt>
      <trkpt lat="43.64433" lon="1.3924">
        <ele>128</ele>
        <time>2025-04-16T10:25:22Z</time>
      </trkpt>
      <trkpt lat="43.6443" lon="1.39236">
        <ele>128</ele>
        <time>2025-04-16T10:25:23Z</time>
      </trkpt>
      <trkpt lat="43.64428" lon="1.39232">
        <ele>128</ele>
        <time>2025-04-16T10:25:24Z</time>
      </trkpt>
      <trkpt lat="43.64426" lon="1.39228">
        <ele>129</ele>
        <time>2025-04-16T10:25:25Z</time>
      </trkpt>
      <trkpt lat="43.64424" lon="1.39223">
        <ele>129</ele>
        <time>2025-04-16T10:25:26Z</time>
      </trkpt>
      <trkpt lat="43.64422" lon="1.39219">
        <ele>129</ele>
        <time>2025-04-16T10:25:27Z</time>
      </trkpt>
      <trkpt lat="43.64419" lon="1.39215">
        <ele>129</ele>
        <time>2025-04-16T10:25:28Z</time>
      </trkpt>
      <trkpt lat="43.64417" lon="1.39212">
        <ele>129</ele>
        <time>2025-04-16T10:25:29Z</time>
      </trkpt>
      <trkpt lat="43.64415" lon="1.39208">
        <ele>130</ele>
        <time>2025-04-16T10:25:30Z</time>
      </trkpt>
      <trkpt lat="43.64413" lon="1.39203">
        <ele>130</ele>
        <time>2025-04-16T10:25:31Z</time>
      </trkpt>
      <trkpt lat="43.64412" lon="1.39199">
        <ele>130</ele>
        <time>2025-04-16T10:25:32Z</time>
      </trkpt>
      <trkpt lat="43.6441" lon="1.39194">
        <ele>131</ele>
        <time>2025-04-16T10:25:33Z</time>
      </trkpt>
      <trkpt lat="43.64408" lon="1.3919">
        <ele>132</ele>
        <time>2025-04-16T10:25:34Z</time>
      </trkpt>
      <trkpt lat="43.64407" lon="1.39185">
        <ele>133</ele>
        <time>2025-04-16T10:25:35Z</time>
      </trkpt>
      <trkpt lat="43.64406" lon="1.3918">
        <ele>133</ele>
        <time>2025-04-16T10:25:36Z</time>
      </trkpt>
      <trkpt lat="43.64406" lon="1.39176">
        <ele>134</ele>
        <time>2025-04-16T10:25:37Z</time>
      </trkpt>
      <trkpt lat="43.64406" lon="1.39171">
        <ele>134</ele>
        <time>2025-04-16T10:25:38Z</time>
      </trkpt>
      <trkpt lat="43.64405" lon="1.39166">
        <ele>134</ele>
        <time>2025-04-16T10:25:39Z</time>
      </trkpt>
      <trkpt lat="43.64406" lon="1.39161">
        <ele>134</ele>
        <time>2025-04-16T10:25:40Z</time>
      </trkpt>
      <trkpt lat="43.64407" lon="1.39157">
        <ele>135</ele>
        <time>2025-04-16T10:25:41Z</time>
      </trkpt>
      <trkpt lat="43.64408" lon="1.39153">
        <ele>135</ele>
        <time>2025-04-16T10:25:42Z</time>
      </trkpt>
      <trkpt lat="43.64409" lon="1.39148">
        <ele>135</ele>
        <time>2025-04-16T10:25:43Z</time>
      </trkpt>
      <trkpt lat="43.64411" lon="1.39143">
        <ele>135</ele>
        <time>2025-04-16T10:25:44Z</time>
      </trkpt>
      <trkpt lat="43.64412" lon="1.39139">
        <ele>136</ele>
        <time>2025-04-16T10:25:45Z</time>
      </trkpt>
      <trkpt lat="43.64414" lon="1.39135">
        <ele>136</ele>
        <time>2025-04-16T10:25:46Z</time>
      </trkpt>
      <trkpt lat="43.64415" lon="1.39131">
        <ele>136</ele>
        <time>2025-04-16T10:25:47Z</time>
      </trkpt>
      <trkpt lat="43.64416" lon="1.39127">
        <ele>137</ele>
        <time>2025-04-16T10:25:48Z</time>
      </trkpt>
      <trkpt lat="43.64417" lon="1.39123">
        <ele>137</ele>
        <time>2025-04-16T10:25:49Z</time>
      </trkpt>
      <trkpt lat="43.64418" lon="1.39119">
        <ele>137</ele>
        <time>2025-04-16T10:25:50Z</time>
      </trkpt>
      <trkpt lat="43.64418" lon="1.39119">
        <ele>138</ele>
        <time>2025-04-16T10:25:51Z</time>
      </trkpt>
      <trkpt lat="43.64418" lon="1.39119">
        <ele>139</ele>
        <time>2025-04-16T10:25:52Z</time>
      </trkpt>
      <trkpt lat="43.64418" lon="1.39119">
        <ele>139</ele>
        <time>2025-04-16T10:25:53Z</time>
      </trkpt>
      <trkpt lat="43.64417" lon="1.39121">
        <ele>139</ele>
        <time>2025-04-16T10:25:54Z</time>
      </trkpt>
      <trkpt lat="43.64417" lon="1.39121">
        <ele>139</ele>
        <time>2025-04-16T10:25:55Z</time>
      </trkpt>
      <trkpt lat="43.64416" lon="1.39125">
        <ele>139</ele>
        <time>2025-04-16T10:25:56Z</time>
      </trkpt>
      <trkpt lat="43.64416" lon="1.39125">
        <ele>139</ele>
        <time>2025-04-16T10:25:57Z</time>
      </trkpt>
      <trkpt lat="43.64415" lon="1.39126">
        <ele>139</ele>
        <time>2025-04-16T10:25:58Z</time>
      </trkpt>
      <trkpt lat="43.64401" lon="1.39315">
        <ele>127</ele>
        <time>2025-04-16T10:27:23Z</time>
      </trkpt>
      <trkpt lat="43.64403" lon="1.39315">
        <ele>127</ele>
        <time>2025-04-16T10:27:24Z</time>
      </trkpt>
      <trkpt lat="43.64403" lon="1.39315">
        <ele>127</ele>
        <time>2025-04-16T10:27:25Z</time>
      </trkpt>
      <trkpt lat="43.64409" lon="1.39314">
        <ele>127</ele>
        <time>2025-04-16T10:27:26Z</time>
      </trkpt>
      <trkpt lat="43.64411" lon="1.39313">
        <ele>126</ele>
        <time>2025-04-16T10:27:27Z</time>
      </trkpt>
      <trkpt lat="43.64415" lon="1.39312">
        <ele>126</ele>
        <time>2025-04-16T10:27:28Z</time>
      </trkpt>
      <trkpt lat="43.64419" lon="1.3931">
        <ele>126</ele>
        <time>2025-04-16T10:27:29Z</time>
      </trkpt>
      <trkpt lat="43.64423" lon="1.39309">
        <ele>126</ele>
        <time>2025-04-16T10:27:30Z</time>
      </trkpt>
      <trkpt lat="43.64427" lon="1.39308">
        <ele>126</ele>
        <time>2025-04-16T10:27:31Z</time>
      </trkpt>
      <trkpt lat="43.64431" lon="1.39308">
        <ele>126</ele>
        <time>2025-04-16T10:27:32Z</time>
      </trkpt>
      <trkpt lat="43.64434" lon="1.39308">
        <ele>127</ele>
        <time>2025-04-16T10:27:33Z</time>
      </trkpt>
      <trkpt lat="43.64437" lon="1.39307">
        <ele>127</ele>
        <time>2025-04-16T10:27:34Z</time>
      </trkpt>
      <trkpt lat="43.64441" lon="1.39307">
        <ele>127</ele>
        <time>2025-04-16T10:27:35Z</time>
      </trkpt>
      <trkpt lat="43.64444" lon="1.39307">
        <ele>128</ele>
        <time>2025-04-16T10:27:36Z</time>
      </trkpt>
      <trkpt lat="43.64447" lon="1.39307">
        <ele>128</ele>
        <time>2025-04-16T10:27:37Z</time>
      </trkpt>
      <trkpt lat="43.64449" lon="1.39305">
        <ele>128</ele>
        <time>2025-04-16T10:27:38Z</time>
      </trkpt>
      <trkpt lat="43.64452" lon="1.39302">
        <ele>129</ele>
        <time>2025-04-16T10:27:39Z</time>
      </trkpt>
      <trkpt lat="43.64453" lon="1.39298">
        <ele>129</ele>
        <time>2025-04-16T10:27:40Z</time>
      </trkpt>
      <trkpt lat="43.64453" lon="1.39293">
        <ele>129</ele>
        <time>2025-04-16T10:27:41Z</time>
      </trkpt>
      <trkpt lat="43.64452" lon="1.39288">
        <ele>128</ele>
        <time>2025-04-16T10:27:42Z</time>
      </trkpt>
      <trkpt lat="43.6445" lon="1.39283">
        <ele>128</ele>
        <time>2025-04-16T10:27:43Z</time>
      </trkpt>
      <trkpt lat="43.64449" lon="1.39278">
        <ele>128</ele>
        <time>2025-04-16T10:27:44Z</time>
      </trkpt>
      <trkpt lat="43.64447" lon="1.39273">
        <ele>128</ele>
        <time>2025-04-16T10:27:45Z</time>
      </trkpt>
      <trkpt lat="43.64446" lon="1.39268">
        <ele>129</ele>
        <time>2025-04-16T10:27:46Z</time>
      </trkpt>
      <trkpt lat="43.64444" lon="1.39264">
        <ele>129</ele>
        <time>2025-04-16T10:27:47Z</time>
      </trkpt>
      <trkpt lat="43.64442" lon="1.39259">
        <ele>129</ele>
        <time>2025-04-16T10:27:48Z</time>
      </trkpt>
      <trkpt lat="43.6444" lon="1.39254">
        <ele>129</ele>
        <time>2025-04-16T10:27:49Z</time>
      </trkpt>
      <trkpt lat="43.64438" lon="1.3925">
        <ele>129</ele>
        <time>2025-04-16T10:27:50Z</time>
      </trkpt>
      <trkpt lat="43.64436" lon="1.39246">
        <ele>129</ele>
        <time>2025-04-16T10:27:51Z</time>
      </trkpt>
      <trkpt lat="43.64434" lon="1.39242">
        <ele>128</ele>
        <time>2025-04-16T10:27:52Z</time>
      </trkpt>
      <trkpt lat="43.64432" lon="1.39237">
        <ele>128</ele>
        <time>2025-04-16T10:27:53Z</time>
      </trkpt>
      <trkpt lat="43.6443" lon="1.39233">
        <ele>128</ele>
        <time>2025-04-16T10:27:54Z</time>
      </trkpt>
      <trkpt lat="43.64428" lon="1.39229">
        <ele>129</ele>
        <time>2025-04-16T10:27:55Z</time>
      </trkpt>
      <trkpt lat="43.64426" lon="1.39224">
        <ele>129</ele>
        <time>2025-04-16T10:27:56Z</time>
      </trkpt>
      <trkpt lat="43.64424" lon="1.3922">
        <ele>129</ele>
        <time>2025-04-16T10:27:57Z</time>
      </trkpt>
      <trkpt lat="43.64422" lon="1.39216">
        <ele>129</ele>
        <time>2025-04-16T10:27:58Z</time>
      </trkpt>
      <trkpt lat="43.6442" lon="1.39212">
        <ele>129</ele>
        <time>2025-04-16T10:27:59Z</time>
      </trkpt>
      <trkpt lat="43.64418" lon="1.39207">
        <ele>130</ele>
        <time>2025-04-16T10:28:00Z</time>
      </trkpt>
      <trkpt lat="43.64415" lon="1.39203">
        <ele>130</ele>
        <time>2025-04-16T10:28:01Z</time>
      </trkpt>
      <trkpt lat="43.64413" lon="1.39199">
        <ele>130</ele>
        <time>2025-04-16T10:28:02Z</time>
      </trkpt>
      <trkpt lat="43.64412" lon="1.39195">
        <ele>130</ele>
        <time>2025-04-16T10:28:03Z</time>
      </trkpt>
      <trkpt lat="43.6441" lon="1.39191">
        <ele>130</ele>
        <time>2025-04-16T10:28:04Z</time>
      </trkpt>
      <trkpt lat="43.64409" lon="1.39186">
        <ele>131</ele>
        <time>2025-04-16T10:28:05Z</time>
      </trkpt>
      <trkpt lat="43.64408" lon="1.39181">
        <ele>131</ele>
        <time>2025-04-16T10:28:06Z</time>
      </trkpt>
      <trkpt lat="43.64408" lon="1.39176">
        <ele>132</ele>
        <time>2025-04-16T10:28:07Z</time>
      </trkpt>
      <trkpt lat="43.64408" lon="1.39172">
        <ele>133</ele>
        <time>2025-04-16T10:28:08Z</time>
      </trkpt>
      <trkpt lat="43.64407" lon="1.39167">
        <ele>134</ele>
        <time>2025-04-16T10:28:09Z</time>
      </trkpt>
      <trkpt lat="43.64407" lon="1.39162">
        <ele>134</ele>
        <time>2025-04-16T10:28:10Z</time>
      </trkpt>
      <trkpt lat="43.64408" lon="1.39158">
        <ele>134</ele>
        <time>2025-04-16T10:28:11Z</time>
      </trkpt>
      <trkpt lat="43.64408" lon="1.39153">
        <ele>135</ele>
        <time>2025-04-16T10:28:12Z</time>
      </trkpt>
      <trkpt lat="43.64409" lon="1.39149">
        <ele>135</ele>
        <time>2025-04-16T10:28:13Z</time>
      </trkpt>
      <trkpt lat="43.6441" lon="1.39145">
        <ele>135</ele>
        <time>2025-04-16T10:28:14Z</time>
      </trkpt>
      <trkpt lat="43.64412" lon="1.3914">
        <ele>135</ele>
        <time>2025-04-16T10:28:15Z</time>
      </trkpt>
      <trkpt lat="43.64413" lon="1.39135">
        <ele>136</ele>
        <time>2025-04-16T10:28:16Z</time>
      </trkpt>
      <trkpt lat="43.64414" lon="1.39131">
        <ele>136</ele>
        <time>2025-04-16T10:28:17Z</time>
      </trkpt>
      <trkpt lat="43.64415" lon="1.39127">
        <ele>137</ele>
        <time>2025-04-16T10:28:18Z</time>
      </trkpt>
      <trkpt lat="43.64417" lon="1.39123">
        <ele>137</ele>
        <time>2025-04-16T10:28:19Z</time>
      </trkpt>
      <trkpt lat="43.64418" lon="1.3912">
        <ele>138</ele>
        <time>2025-04-16T10:28:20Z</time>
      </trkpt>
      <trkpt lat="43.64418" lon="1.39118">
        <ele>138</ele>
        <time>2025-04-16T10:28:21Z</time>
      </trkpt>
      <trkpt lat="43.64418" lon="1.39118">
        <ele>139</ele>
        <time>2025-04-16T10:28:22Z</time>
      </trkpt>
      <trkpt lat="43.64418" lon="1.39118">
        <ele>139</ele>
        <time>2025-04-16T10:28:23Z</time>
      </trkpt>
      <trkpt lat="43.64418" lon="1.39118">
        <ele>139</ele>
        <time>2025-04-16T10:28:24Z</time>
      </trkpt>
      <trkpt lat="43.64418" lon="1.39118">
        <ele>139</ele>
        <time>2025-04-16T10:28:25Z</time>
      </trkpt>
      <trkpt lat="43.64419" lon="1.3912">
        <ele>139</ele>
        <time>2025-04-16T10:28:26Z</time>
      </trkpt>
      <trkpt lat="43.64419" lon="1.3912">
        <ele>139</ele>
        <time>2025-04-16T10:28:27Z</time>
      </trkpt>
      <trkpt lat="43.64419" lon="1.3912">
        <ele>139</ele>
        <time>2025-04-16T10:28:28Z</time>
      </trkpt>
      <trkpt lat="43.64419" lon="1.3912">
        <ele>139</ele>
        <time>2025-04-16T10:28:29Z</time>
      </trkpt>
      <trkpt lat="43.64401" lon="1.39315">
        <ele>126</ele>
        <time>2025-04-16T10:29:57Z</time>
      </trkpt>
      <trkpt lat="43.64401" lon="1.39315">
        <ele>126</ele>
        <time>2025-04-16T10:29:58Z</time>
      </trkpt>
      <trkpt lat="43.64401" lon="1.39315">
        <ele>126</ele>
        <time>2025-04-16T10:29:59Z</time>
      </trkpt>
      <trkpt lat="43.64401" lon="1.39315">
        <ele>126</ele>
        <time>2025-04-16T10:30:00Z</time>
      </trkpt>
      <trkpt lat="43.64401" lon="1.39315">
        <ele>126</ele>
        <time>2025-04-16T10:30:01Z</time>
      </trkpt>
      <trkpt lat="43.64401" lon="1.39315">
        <ele>126</ele>
        <time>2025-04-16T10:30:02Z</time>
      </trkpt>
      <trkpt lat="43.64403" lon="1.39313">
        <ele>126</ele>
        <time>2025-04-16T10:30:08Z</time>
      </trkpt>
      <trkpt lat="43.64403" lon="1.39313">
        <ele>126</ele>
        <time>2025-04-16T10:30:09Z</time>
      </trkpt>
      <trkpt lat="43.64403" lon="1.39313">
        <ele>126</ele>
        <time>2025-04-16T10:30:10Z</time>
      </trkpt>
      <trkpt lat="43.64403" lon="1.39313">
        <ele>126</ele>
        <time>2025-04-16T10:30:11Z</time>
      </trkpt>
      <trkpt lat="43.64405" lon="1.39313">
        <ele>126</ele>
        <time>2025-04-16T10:30:12Z</time>
      </trkpt>
      <trkpt lat="43.64407" lon="1.39313">
        <ele>126</ele>
        <time>2025-04-16T10:30:13Z</time>
      </trkpt>
      <trkpt lat="43.64412" lon="1.39311">
        <ele>126</ele>
        <time>2025-04-16T10:30:14Z</time>
      </trkpt>
      <trkpt lat="43.64416" lon="1.3931">
        <ele>126</ele>
        <time>2025-04-16T10:30:15Z</time>
      </trkpt>
      <trkpt lat="43.64421" lon="1.39309">
        <ele>126</ele>
        <time>2025-04-16T10:30:16Z</time>
      </trkpt>
      <trkpt lat="43.64425" lon="1.39308">
        <ele>126</ele>
        <time>2025-04-16T10:30:17Z</time>
      </trkpt>
      <trkpt lat="43.64429" lon="1.39308">
        <ele>126</ele>
        <time>2025-04-16T10:30:18Z</time>
      </trkpt>
      <trkpt lat="43.64433" lon="1.39307">
        <ele>126</ele>
        <time>2025-04-16T10:30:19Z</time>
      </trkpt>
      <trkpt lat="43.64437" lon="1.39307">
        <ele>126</ele>
        <time>2025-04-16T10:30:20Z</time>
      </trkpt>
      <trkpt lat="43.6444" lon="1.39307">
        <ele>126</ele>
        <time>2025-04-16T10:30:21Z</time>
      </trkpt>
      <trkpt lat="43.64443" lon="1.39307">
        <ele>126</ele>
        <time>2025-04-16T10:30:22Z</time>
      </trkpt>
      <trkpt lat="43.64446" lon="1.39307">
        <ele>127</ele>
        <time>2025-04-16T10:30:23Z</time>
      </trkpt>
      <trkpt lat="43.64449" lon="1.39305">
        <ele>127</ele>
        <time>2025-04-16T10:30:24Z</time>
      </trkpt>
      <trkpt lat="43.64449" lon="1.39305">
        <ele>127</ele>
        <time>2025-04-16T10:30:25Z</time>
      </trkpt>
      <trkpt lat="43.64452" lon="1.39296">
        <ele>127</ele>
        <time>2025-04-16T10:30:26Z</time>
      </trkpt>
      <trkpt lat="43.64452" lon="1.39293">
        <ele>127</ele>
        <time>2025-04-16T10:30:27Z</time>
      </trkpt>
      <trkpt lat="43.64451" lon="1.39288">
        <ele>127</ele>
        <time>2025-04-16T10:30:28Z</time>
      </trkpt>
      <trkpt lat="43.6445" lon="1.39283">
        <ele>127</ele>
        <time>2025-04-16T10:30:29Z</time>
      </trkpt>
      <trkpt lat="43.64449" lon="1.39278">
        <ele>127</ele>
        <time>2025-04-16T10:30:30Z</time>
      </trkpt>
      <trkpt lat="43.64448" lon="1.39273">
        <ele>128</ele>
        <time>2025-04-16T10:30:31Z</time>
      </trkpt>
      <trkpt lat="43.64447" lon="1.39268">
        <ele>128</ele>
        <time>2025-04-16T10:30:32Z</time>
      </trkpt>
      <trkpt lat="43.64445" lon="1.39262">
        <ele>128</ele>
        <time>2025-04-16T10:30:33Z</time>
      </trkpt>
      <trkpt lat="43.64443" lon="1.39257">
        <ele>128</ele>
        <time>2025-04-16T10:30:34Z</time>
      </trkpt>
      <trkpt lat="43.6444" lon="1.39253">
        <ele>128</ele>
        <time>2025-04-16T10:30:35Z</time>
      </trkpt>
      <trkpt lat="43.64438" lon="1.39248">
        <ele>128</ele>
        <time>2025-04-16T10:30:36Z</time>
      </trkpt>
      <trkpt lat="43.64436" lon="1.39243">
        <ele>128</ele>
        <time>2025-04-16T10:30:37Z</time>
      </trkpt>
      <trkpt lat="43.64434" lon="1.39238">
        <ele>129</ele>
        <time>2025-04-16T10:30:38Z</time>
      </trkpt>
      <trkpt lat="43.64431" lon="1.39233">
        <ele>129</ele>
        <time>2025-04-16T10:30:39Z</time>
      </trkpt>
      <trkpt lat="43.64429" lon="1.39228">
        <ele>129</ele>
        <time>2025-04-16T10:30:40Z</time>
      </trkpt>
      <trkpt lat="43.64426" lon="1.39223">
        <ele>130</ele>
        <time>2025-04-16T10:30:41Z</time>
      </trkpt>
      <trkpt lat="43.64423" lon="1.39219">
        <ele>130</ele>
        <time>2025-04-16T10:30:42Z</time>
      </trkpt>
      <trkpt lat="43.64421" lon="1.39214">
        <ele>130</ele>
        <time>2025-04-16T10:30:43Z</time>
      </trkpt>
      <trkpt lat="43.64419" lon="1.39209">
        <ele>130</ele>
        <time>2025-04-16T10:30:44Z</time>
      </trkpt>
      <trkpt lat="43.64417" lon="1.39205">
        <ele>129</ele>
        <time>2025-04-16T10:30:45Z</time>
      </trkpt>
      <trkpt lat="43.64415" lon="1.392">
        <ele>130</ele>
        <time>2025-04-16T10:30:46Z</time>
      </trkpt>
      <trkpt lat="43.64413" lon="1.39195">
        <ele>130</ele>
        <time>2025-04-16T10:30:47Z</time>
      </trkpt>
      <trkpt lat="43.64412" lon="1.39191">
        <ele>130</ele>
        <time>2025-04-16T10:30:48Z</time>
      </trkpt>
      <trkpt lat="43.6441" lon="1.39186">
        <ele>131</ele>
        <time>2025-04-16T10:30:49Z</time>
      </trkpt>
      <trkpt lat="43.64409" lon="1.39181">
        <ele>132</ele>
        <time>2025-04-16T10:30:50Z</time>
      </trkpt>
      <trkpt lat="43.64409" lon="1.39176">
        <ele>132</ele>
        <time>2025-04-16T10:30:51Z</time>
      </trkpt>
      <trkpt lat="43.64409" lon="1.39171">
        <ele>132</ele>
        <time>2025-04-16T10:30:52Z</time>
      </trkpt>
      <trkpt lat="43.64409" lon="1.39166">
        <ele>132</ele>
        <time>2025-04-16T10:30:53Z</time>
      </trkpt>
      <trkpt lat="43.64409" lon="1.39161">
        <ele>132</ele>
        <time>2025-04-16T10:30:54Z</time>
      </trkpt>
      <trkpt lat="43.64409" lon="1.39156">
        <ele>133</ele>
        <time>2025-04-16T10:30:55Z</time>
      </trkpt>
      <trkpt lat="43.6441" lon="1.39152">
        <ele>133</ele>
        <time>2025-04-16T10:30:56Z</time>
      </trkpt>
      <trkpt lat="43.6441" lon="1.39147">
        <ele>134</ele>
        <time>2025-04-16T10:30:57Z</time>
      </trkpt>
      <trkpt lat="43.64411" lon="1.39143">
        <ele>134</ele>
        <time>2025-04-16T10:30:58Z</time>
      </trkpt>
      <trkpt lat="43.64412" lon="1.39138">
        <ele>134</ele>
        <time>2025-04-16T10:30:59Z</time>
      </trkpt>
      <trkpt lat="43.64413" lon="1.39134">
        <ele>135</ele>
        <time>2025-04-16T10:31:00Z</time>
      </trkpt>
      <trkpt lat="43.64415" lon="1.3913">
        <ele>135</ele>
        <time>2025-04-16T10:31:01Z</time>
      </trkpt>
      <trkpt lat="43.64416" lon="1.39126">
        <ele>136</ele>
        <time>2025-04-16T10:31:02Z</time>
      </trkpt>
      <trkpt lat="43.64417" lon="1.39122">
        <ele>137</ele>
        <time>2025-04-16T10:31:03Z</time>
      </trkpt>
      <trkpt lat="43.64418" lon="1.3912">
        <ele>138</ele>
        <time>2025-04-16T10:31:04Z</time>
      </trkpt>
      <trkpt lat="43.64418" lon="1.3912">
        <ele>138</ele>
        <time>2025-04-16T10:31:05Z</time>
      </trkpt>
      <trkpt lat="43.64418" lon="1.3912">
        <ele>138</ele>
        <time>2025-04-16T10:31:06Z</time>
      </trkpt>
      <trkpt lat="43.64418" lon="1.3912">
        <ele>138</ele>
        <time>2025-04-16T10:31:07Z</time>
      </trkpt>
      <trkpt lat="43.64418" lon="1.3912">
        <ele>138</ele>
        <time>2025-04-16T10:31:08Z</time>
      </trkpt>
      <trkpt lat="43.64418" lon="1.3912">
        <ele>138</ele>
        <time>2025-04-16T10:31:09Z</time>
      </trkpt>
      <trkpt lat="43.64418" lon="1.3912">
        <ele>138</ele>
        <time>2025-04-16T10:31:10Z</time>
      </trkpt>
      <trkpt lat="43.64415" lon="1.39124">
        <ele>138</ele>
        <time>2025-04-16T10:31:13Z</time>
      </trkpt>
      <trkpt lat="43.64415" lon="1.39124">
        <ele>138</ele>
        <time>2025-04-16T10:31:14Z</time>
      </trkpt>
      <trkpt lat="43.64415" lon="1.39128">
        <ele>138</ele>
        <time>2025-04-16T10:31:15Z</time>
      </trkpt>
      <trkpt lat="43.64415" lon="1.39128">
        <ele>138</ele>
        <time>2025-04-16T10:31:16Z</time>
      </trkpt>
      <trkpt lat="43.64415" lon="1.39132">
        <ele>138</ele>
        <time>2025-04-16T10:31:17Z</time>
      </trkpt>
      <trkpt lat="43.64415" lon="1.39135">
        <ele>138</ele>
        <time>2025-04-16T10:31:18Z</time>
      </trkpt>
      <trkpt lat="43.64415" lon="1.39138">
        <ele>137</ele>
        <time>2025-04-16T10:31:19Z</time>
      </trkpt>
      <trkpt lat="43.64416" lon="1.39141">
        <ele>136</ele>
        <time>2025-04-16T10:31:20Z</time>
      </trkpt>
      <trkpt lat="43.64415" lon="1.39145">
        <ele>136</ele>
        <time>2025-04-16T10:31:21Z</time>
      </trkpt>
      <trkpt lat="43.64414" lon="1.39149">
        <ele>136</ele>
        <time>2025-04-16T10:31:22Z</time>
      </trkpt>
      <trkpt lat="43.64413" lon="1.39152">
        <ele>135</ele>
        <time>2025-04-16T10:31:23Z</time>
      </trkpt>
      <trkpt lat="43.64413" lon="1.39156">
        <ele>135</ele>
        <time>2025-04-16T10:31:24Z</time>
      </trkpt>
      <trkpt lat="43.64412" lon="1.39159">
        <ele>135</ele>
        <time>2025-04-16T10:31:25Z</time>
      </trkpt>
      <trkpt lat="43.64412" lon="1.39163">
        <ele>135</ele>
        <time>2025-04-16T10:31:26Z</time>
      </trkpt>
      <trkpt lat="43.64412" lon="1.39166">
        <ele>135</ele>
        <time>2025-04-16T10:31:27Z</time>
      </trkpt>
      <trkpt lat="43.64411" lon="1.3917">
        <ele>134</ele>
        <time>2025-04-16T10:31:28Z</time>
      </trkpt>
      <trkpt lat="43.64412" lon="1.39173">
        <ele>134</ele>
        <time>2025-04-16T10:31:29Z</time>
      </trkpt>
      <trkpt lat="43.64412" lon="1.39177">
        <ele>134</ele>
        <time>2025-04-16T10:31:30Z</time>
      </trkpt>
      <trkpt lat="43.64412" lon="1.39181">
        <ele>134</ele>
        <time>2025-04-16T10:31:31Z</time>
      </trkpt>
      <trkpt lat="43.64412" lon="1.39184">
        <ele>133</ele>
        <time>2025-04-16T10:31:32Z</time>
      </trkpt>
      <trkpt lat="43.64412" lon="1.39187">
        <ele>133</ele>
        <time>2025-04-16T10:31:33Z</time>
      </trkpt>
      <trkpt lat="43.64412" lon="1.39189">
        <ele>133</ele>
        <time>2025-04-16T10:31:34Z</time>
      </trkpt>
      <trkpt lat="43.64413" lon="1.39192">
        <ele>133</ele>
        <time>2025-04-16T10:31:35Z</time>
      </trkpt>
      <trkpt lat="43.64414" lon="1.39195">
        <ele>133</ele>
        <time>2025-04-16T10:31:36Z</time>
      </trkpt>
      <trkpt lat="43.64415" lon="1.39197">
        <ele>132</ele>
        <time>2025-04-16T10:31:37Z</time>
      </trkpt>
      <trkpt lat="43.64416" lon="1.39199">
        <ele>132</ele>
        <time>2025-04-16T10:31:38Z</time>
      </trkpt>
      <trkpt lat="43.64418" lon="1.39202">
        <ele>132</ele>
        <time>2025-04-16T10:31:39Z</time>
      </trkpt>
      <trkpt lat="43.64419" lon="1.39204">
        <ele>132</ele>
        <time>2025-04-16T10:31:40Z</time>
      </trkpt>
      <trkpt lat="43.64421" lon="1.39207">
        <ele>131</ele>
        <time>2025-04-16T10:31:41Z</time>
      </trkpt>
      <trkpt lat="43.64422" lon="1.39209">
        <ele>131</ele>
        <time>2025-04-16T10:31:42Z</time>
      </trkpt>
      <trkpt lat="43.64423" lon="1.39212">
        <ele>130</ele>
        <time>2025-04-16T10:31:43Z</time>
      </trkpt>
      <trkpt lat="43.64424" lon="1.39214">
        <ele>130</ele>
        <time>2025-04-16T10:31:44Z</time>
      </trkpt>
      <trkpt lat="43.64426" lon="1.39216">
        <ele>130</ele>
        <time>2025-04-16T10:31:45Z</time>
      </trkpt>
      <trkpt lat="43.64427" lon="1.39218">
        <ele>129</ele>
        <time>2025-04-16T10:31:46Z</time>
      </trkpt>
      <trkpt lat="43.64429" lon="1.39221">
        <ele>129</ele>
        <time>2025-04-16T10:31:47Z</time>
      </trkpt>
      <trkpt lat="43.64431" lon="1.39222">
        <ele>129</ele>
        <time>2025-04-16T10:31:48Z</time>
      </trkpt>
      <trkpt lat="43.64432" lon="1.39224">
        <ele>129</ele>
        <time>2025-04-16T10:31:49Z</time>
      </trkpt>
      <trkpt lat="43.64433" lon="1.39226">
        <ele>129</ele>
        <time>2025-04-16T10:31:50Z</time>
      </trkpt>
      <trkpt lat="43.64435" lon="1.39229">
        <ele>129</ele>
        <time>2025-04-16T10:31:51Z</time>
      </trkpt>
      <trkpt lat="43.64436" lon="1.39232">
        <ele>129</ele>
        <time>2025-04-16T10:31:52Z</time>
      </trkpt>
      <trkpt lat="43.64437" lon="1.39235">
        <ele>129</ele>
        <time>2025-04-16T10:31:53Z</time>
      </trkpt>
      <trkpt lat="43.64438" lon="1.39238">
        <ele>129</ele>
        <time>2025-04-16T10:31:54Z</time>
      </trkpt>
      <trkpt lat="43.6444" lon="1.39241">
        <ele>129</ele>
        <time>2025-04-16T10:31:55Z</time>
      </trkpt>
      <trkpt lat="43.64441" lon="1.39244">
        <ele>129</ele>
        <time>2025-04-16T10:31:56Z</time>
      </trkpt>
      <trkpt lat="43.64443" lon="1.39246">
        <ele>129</ele>
        <time>2025-04-16T10:31:57Z</time>
      </trkpt>
      <trkpt lat="43.64445" lon="1.39249">
        <ele>129</ele>
        <time>2025-04-16T10:31:58Z</time>
      </trkpt>
      <trkpt lat="43.64446" lon="1.39251">
        <ele>128</ele>
        <time>2025-04-16T10:31:59Z</time>
      </trkpt>
      <trkpt lat="43.64448" lon="1.39254">
        <ele>128</ele>
        <time>2025-04-16T10:32:00Z</time>
      </trkpt>
      <trkpt lat="43.64449" lon="1.39257">
        <ele>128</ele>
        <time>2025-04-16T10:32:01Z</time>
      </trkpt>
      <trkpt lat="43.64451" lon="1.3926">
        <ele>128</ele>
        <time>2025-04-16T10:32:02Z</time>
      </trkpt>
      <trkpt lat="43.64452" lon="1.39263">
        <ele>128</ele>
        <time>2025-04-16T10:32:03Z</time>
      </trkpt>
      <trkpt lat="43.64453" lon="1.39267">
        <ele>128</ele>
        <time>2025-04-16T10:32:04Z</time>
      </trkpt>
      <trkpt lat="43.64454" lon="1.3927">
        <ele>128</ele>
        <time>2025-04-16T10:32:05Z</time>
      </trkpt>
      <trkpt lat="43.64455" lon="1.39274">
        <ele>127</ele>
        <time>2025-04-16T10:32:06Z</time>
      </trkpt>
      <trkpt lat="43.64456" lon="1.39277">
        <ele>127</ele>
        <time>2025-04-16T10:32:07Z</time>
      </trkpt>
      <trkpt lat="43.64456" lon="1.3928">
        <ele>127</ele>
        <time>2025-04-16T10:32:08Z</time>
      </trkpt>
      <trkpt lat="43.64457" lon="1.39283">
        <ele>128</ele>
        <time>2025-04-16T10:32:09Z</time>
      </trkpt>
      <trkpt lat="43.64458" lon="1.39286">
        <ele>128</ele>
        <time>2025-04-16T10:32:10Z</time>
      </trkpt>
      <trkpt lat="43.64458" lon="1.39289">
        <ele>128</ele>
        <time>2025-04-16T10:32:11Z</time>
      </trkpt>
      <trkpt lat="43.64459" lon="1.39292">
        <ele>128</ele>
        <time>2025-04-16T10:32:12Z</time>
      </trkpt>
      <trkpt lat="43.64459" lon="1.39295">
        <ele>128</ele>
        <time>2025-04-16T10:32:13Z</time>
      </trkpt>
      <trkpt lat="43.6446" lon="1.39299">
        <ele>128</ele>
        <time>2025-04-16T10:32:14Z</time>
      </trkpt>
      <trkpt lat="43.64459" lon="1.39303">
        <ele>128</ele>
        <time>2025-04-16T10:32:15Z</time>
      </trkpt>
      <trkpt lat="43.64458" lon="1.39307">
        <ele>128</ele>
        <time>2025-04-16T10:32:16Z</time>
      </trkpt>
      <trkpt lat="43.64455" lon="1.3931">
        <ele>128</ele>
        <time>2025-04-16T10:32:17Z</time>
      </trkpt>
      <trkpt lat="43.64452" lon="1.39312">
        <ele>128</ele>
        <time>2025-04-16T10:32:18Z</time>
      </trkpt>
      <trkpt lat="43.64449" lon="1.39314">
        <ele>128</ele>
        <time>2025-04-16T10:32:19Z</time>
      </trkpt>
      <trkpt lat="43.64446" lon="1.39315">
        <ele>127</ele>
        <time>2025-04-16T10:32:20Z</time>
      </trkpt>
      <trkpt lat="43.64443" lon="1.39315">
        <ele>127</ele>
        <time>2025-04-16T10:32:21Z</time>
      </trkpt>
      <trkpt lat="43.6444" lon="1.39315">
        <ele>127</ele>
        <time>2025-04-16T10:32:22Z</time>
      </trkpt>
      <trkpt lat="43.64438" lon="1.39315">
        <ele>127</ele>
        <time>2025-04-16T10:32:23Z</time>
      </trkpt>
      <trkpt lat="43.64435" lon="1.39315">
        <ele>127</ele>
        <time>2025-04-16T10:32:24Z</time>
      </trkpt>
      <trkpt lat="43.64432" lon="1.39315">
        <ele>127</ele>
        <time>2025-04-16T10:32:25Z</time>
      </trkpt>
      <trkpt lat="43.64429" lon="1.39314">
        <ele>127</ele>
        <time>2025-04-16T10:32:26Z</time>
      </trkpt>
      <trkpt lat="43.64426" lon="1.39314">
        <ele>126</ele>
        <time>2025-04-16T10:32:27Z</time>
      </trkpt>
      <trkpt lat="43.64424" lon="1.39314">
        <ele>126</ele>
        <time>2025-04-16T10:32:28Z</time>
      </trkpt>
      <trkpt lat="43.64421" lon="1.39314">
        <ele>126</ele>
        <time>2025-04-16T10:32:29Z</time>
      </trkpt>
      <trkpt lat="43.64419" lon="1.39314">
        <ele>126</ele>
        <time>2025-04-16T10:32:30Z</time>
      </trkpt>
      <trkpt lat="43.64416" lon="1.39314">
        <ele>126</ele>
        <time>2025-04-16T10:32:31Z</time>
      </trkpt>
      <trkpt lat="43.64414" lon="1.39314">
        <ele>126</ele>
        <time>2025-04-16T10:32:32Z</time>
      </trkpt>
      <trkpt lat="43.64412" lon="1.39315">
        <ele>126</ele>
        <time>2025-04-16T10:32:33Z</time>
      </trkpt>
      <trkpt lat="43.64409" lon="1.39315">
        <ele>126</ele>
        <time>2025-04-16T10:32:34Z</time>
      </trkpt>
      <trkpt lat="43.64407" lon="1.39314">
        <ele>126</ele>
        <time>2025-04-16T10:32:35Z</time>
      </trkpt>
      <trkpt lat="43.64404" lon="1.39314">
        <ele>126</ele>
        <time>2025-04-16T10:32:36Z</time>
      </trkpt>
      <trkpt lat="43.64404" lon="1.39314">
        <ele>126</ele>
        <time>2025-04-16T10:32:37Z</time>
      </trkpt>
      <trkpt lat="43.64402" lon="1.39314">
        <ele>126</ele>
        <time>2025-04-16T10:32:38Z</time>
      </trkpt>
      <trkpt lat="43.64402" lon="1.39314">
        <ele>126</ele>
        <time>2025-04-16T10:32:39Z</time>
      </trkpt>
      <trkpt lat="43.64402" lon="1.39314">
        <ele>126</ele>
        <time>2025-04-16T10:32:40Z</time>
      </trkpt>
      <trkpt lat="43.64402" lon="1.39314">
        <ele>126</ele>
        <time>2025-04-16T10:32:41Z</time>
      </trkpt>
      <trkpt lat="43.64404" lon="1.39313">
        <ele>126</ele>
        <time>2025-04-16T10:32:42Z</time>
      </trkpt>
      <trkpt lat="43.64404" lon="1.39313">
        <ele>126</ele>
        <time>2025-04-16T10:32:43Z</time>
      </trkpt>
      <trkpt lat="43.64408" lon="1.39312">
        <ele>126</ele>
        <time>2025-04-16T10:32:44Z</time>
      </trkpt>
      <trkpt lat="43.64411" lon="1.39311">
        <ele>126</ele>
        <time>2025-04-16T10:32:45Z</time>
      </trkpt>
      <trkpt lat="43.64415" lon="1.39309">
        <ele>126</ele>
        <time>2025-04-16T10:32:46Z</time>
      </trkpt>
      <trkpt lat="43.64419" lon="1.39309">
        <ele>126</ele>
        <time>2025-04-16T10:32:47Z</time>
      </trkpt>
      <trkpt lat="43.64424" lon="1.39308">
        <ele>126</ele>
        <time>2025-04-16T10:32:48Z</time>
      </trkpt>
      <trkpt lat="43.64428" lon="1.39307">
        <ele>126</ele>
        <time>2025-04-16T10:32:49Z</time>
      </trkpt>
      <trkpt lat="43.64432" lon="1.39307">
        <ele>126</ele>
        <time>2025-04-16T10:32:50Z</time>
      </trkpt>
      <trkpt lat="43.64436" lon="1.39306">
        <ele>126</ele>
        <time>2025-04-16T10:32:51Z</time>
      </trkpt>
      <trkpt lat="43.6444" lon="1.39306">
        <ele>126</ele>
        <time>2025-04-16T10:32:52Z</time>
      </trkpt>
      <trkpt lat="43.64443" lon="1.39306">
        <ele>126</ele>
        <time>2025-04-16T10:32:53Z</time>
      </trkpt>
      <trkpt lat="43.64446" lon="1.39305">
        <ele>126</ele>
        <time>2025-04-16T10:32:54Z</time>
      </trkpt>
      <trkpt lat="43.64449" lon="1.39305">
        <ele>126</ele>
        <time>2025-04-16T10:32:55Z</time>
      </trkpt>
      <trkpt lat="43.64449" lon="1.39305">
        <ele>127</ele>
        <time>2025-04-16T10:32:56Z</time>
      </trkpt>
      <trkpt lat="43.64453" lon="1.39296">
        <ele>127</ele>
        <time>2025-04-16T10:32:57Z</time>
      </trkpt>
      <trkpt lat="43.64453" lon="1.39294">
        <ele>127</ele>
        <time>2025-04-16T10:32:58Z</time>
      </trkpt>
      <trkpt lat="43.64453" lon="1.3929">
        <ele>127</ele>
        <time>2025-04-16T10:32:59Z</time>
      </trkpt>
      <trkpt lat="43.64452" lon="1.39285">
        <ele>127</ele>
        <time>2025-04-16T10:33:00Z</time>
      </trkpt>
      <trkpt lat="43.64451" lon="1.3928">
        <ele>127</ele>
        <time>2025-04-16T10:33:01Z</time>
      </trkpt>
      <trkpt lat="43.6445" lon="1.39274">
        <ele>127</ele>
        <time>2025-04-16T10:33:02Z</time>
      </trkpt>
      <trkpt lat="43.64449" lon="1.39269">
        <ele>128</ele>
        <time>2025-04-16T10:33:03Z</time>
      </trkpt>
      <trkpt lat="43.64447" lon="1.39264">
        <ele>128</ele>
        <time>2025-04-16T10:33:04Z</time>
      </trkpt>
      <trkpt lat="43.64445" lon="1.39259">
        <ele>129</ele>
        <time>2025-04-16T10:33:05Z</time>
      </trkpt>
      <trkpt lat="43.64442" lon="1.39255">
        <ele>129</ele>
        <time>2025-04-16T10:33:06Z</time>
      </trkpt>
      <trkpt lat="43.6444" lon="1.39251">
        <ele>128</ele>
        <time>2025-04-16T10:33:07Z</time>
      </trkpt>
      <trkpt lat="43.64438" lon="1.39247">
        <ele>128</ele>
        <time>2025-04-16T10:33:08Z</time>
      </trkpt>
      <trkpt lat="43.64436" lon="1.39243">
        <ele>128</ele>
        <time>2025-04-16T10:33:09Z</time>
      </trkpt>
      <trkpt lat="43.64433" lon="1.39238">
        <ele>128</ele>
        <time>2025-04-16T10:33:10Z</time>
      </trkpt>
      <trkpt lat="43.64431" lon="1.39234">
        <ele>129</ele>
        <time>2025-04-16T10:33:11Z</time>
      </trkpt>
      <trkpt lat="43.64429" lon="1.39229">
        <ele>129</ele>
        <time>2025-04-16T10:33:12Z</time>
      </trkpt>
      <trkpt lat="43.64427" lon="1.39225">
        <ele>129</ele>
        <time>2025-04-16T10:33:13Z</time>
      </trkpt>
      <trkpt lat="43.64424" lon="1.3922">
        <ele>128</ele>
        <time>2025-04-16T10:33:14Z</time>
      </trkpt>
      <trkpt lat="43.64422" lon="1.39215">
        <ele>129</ele>
        <time>2025-04-16T10:33:15Z</time>
      </trkpt>
      <trkpt lat="43.6442" lon="1.3921">
        <ele>129</ele>
        <time>2025-04-16T10:33:16Z</time>
      </trkpt>
      <trkpt lat="43.64418" lon="1.39205">
        <ele>129</ele>
        <time>2025-04-16T10:33:17Z</time>
      </trkpt>
      <trkpt lat="43.64416" lon="1.39201">
        <ele>129</ele>
        <time>2025-04-16T10:33:18Z</time>
      </trkpt>
      <trkpt lat="43.64413" lon="1.39197">
        <ele>130</ele>
        <time>2025-04-16T10:33:19Z</time>
      </trkpt>
      <trkpt lat="43.64412" lon="1.39193">
        <ele>130</ele>
        <time>2025-04-16T10:33:20Z</time>
      </trkpt>
      <trkpt lat="43.6441" lon="1.39188">
        <ele>131</ele>
        <time>2025-04-16T10:33:21Z</time>
      </trkpt>
      <trkpt lat="43.64409" lon="1.39183">
        <ele>131</ele>
        <time>2025-04-16T10:33:22Z</time>
      </trkpt>
      <trkpt lat="43.64409" lon="1.39179">
        <ele>131</ele>
        <time>2025-04-16T10:33:23Z</time>
      </trkpt>
      <trkpt lat="43.64408" lon="1.39174">
        <ele>132</ele>
        <time>2025-04-16T10:33:24Z</time>
      </trkpt>
      <trkpt lat="43.64408" lon="1.39168">
        <ele>132</ele>
        <time>2025-04-16T10:33:25Z</time>
      </trkpt>
      <trkpt lat="43.64408" lon="1.39163">
        <ele>132</ele>
        <time>2025-04-16T10:33:26Z</time>
      </trkpt>
      <trkpt lat="43.64409" lon="1.39158">
        <ele>132</ele>
        <time>2025-04-16T10:33:27Z</time>
      </trkpt>
      <trkpt lat="43.64409" lon="1.39154">
        <ele>132</ele>
        <time>2025-04-16T10:33:28Z</time>
      </trkpt>
      <trkpt lat="43.6441" lon="1.3915">
        <ele>132</ele>
        <time>2025-04-16T10:33:29Z</time>
      </trkpt>
      <trkpt lat="43.6441" lon="1.39145">
        <ele>133</ele>
        <time>2025-04-16T10:33:30Z</time>
      </trkpt>
      <trkpt lat="43.64411" lon="1.3914">
        <ele>134</ele>
        <time>2025-04-16T10:33:31Z</time>
      </trkpt>
      <trkpt lat="43.64412" lon="1.39136">
        <ele>135</ele>
        <time>2025-04-16T10:33:32Z</time>
      </trkpt>
      <trkpt lat="43.64413" lon="1.39132">
        <ele>135</ele>
        <time>2025-04-16T10:33:33Z</time>
      </trkpt>
      <trkpt lat="43.64414" lon="1.39128">
        <ele>136</ele>
        <time>2025-04-16T10:33:34Z</time>
      </trkpt>
      <trkpt lat="43.64415" lon="1.39124">
        <ele>136</ele>
        <time>2025-04-16T10:33:35Z</time>
      </trkpt>
      <trkpt lat="43.64416" lon="1.39121">
        <ele>137</ele>
        <time>2025-04-16T10:33:36Z</time>
      </trkpt>
      <trkpt lat="43.64417" lon="1.39119">
        <ele>138</ele>
        <time>2025-04-16T10:33:37Z</time>
      </trkpt>
      <trkpt lat="43.64417" lon="1.39119">
        <ele>138</ele>
        <time>2025-04-16T10:33:38Z</time>
      </trkpt>
      <trkpt lat="43.64417" lon="1.39119">
        <ele>138</ele>
        <time>2025-04-16T10:33:39Z</time>
      </trkpt>
      <trkpt lat="43.64417" lon="1.39119">
        <ele>138</ele>
        <time>2025-04-16T10:33:40Z</time>
      </trkpt>
      <trkpt lat="43.64417" lon="1.39119">
        <ele>138</ele>
        <time>2025-04-16T10:33:41Z</time>
      </trkpt>
      <trkpt lat="43.64416" lon="1.39122">
        <ele>138</ele>
        <time>2025-04-16T10:33:42Z</time>
      </trkpt>
      <trkpt lat="43.64416" lon="1.39122">
        <ele>138</ele>
        <time>2025-04-16T10:33:43Z</time>
      </trkpt>
      <trkpt lat="43.64416" lon="1.39122">
        <ele>138</ele>
        <time>2025-04-16T10:33:44Z</time>
      </trkpt>
      <trkpt lat="43.64416" lon="1.39125">
        <ele>138</ele>
        <time>2025-04-16T10:33:45Z</time>
      </trkpt>
      <trkpt lat="43.64416" lon="1.39125">
        <ele>138</ele>
        <time>2025-04-16T10:33:46Z</time>
      </trkpt>
      <trkpt lat="43.64415" lon="1.39128">
        <ele>138</ele>
        <time>2025-04-16T10:33:47Z</time>
      </trkpt>
      <trkpt lat="43.64415" lon="1.39128">
        <ele>138</ele>
        <time>2025-04-16T10:33:48Z</time>
      </trkpt>
      <trkpt lat="43.64415" lon="1.39131">
        <ele>138</ele>
        <time>2025-04-16T10:33:49Z</time>
      </trkpt>
      <trkpt lat="43.64415" lon="1.39131">
        <ele>138</ele>
        <time>2025-04-16T10:33:50Z</time>
      </trkpt>
      <trkpt lat="43.64415" lon="1.39131">
        <ele>138</ele>
        <time>2025-04-16T10:33:51Z</time>
      </trkpt>
      <trkpt lat="43.64415" lon="1.39134">
        <ele>138</ele>
        <time>2025-04-16T10:33:52Z</time>
      </trkpt>
      <trkpt lat="43.64415" lon="1.39134">
        <ele>138</ele>
        <time>2025-04-16T10:33:53Z</time>
      </trkpt>
      <trkpt lat="43.64415" lon="1.39134">
        <ele>138</ele>
        <time>2025-04-16T10:33:54Z</time>
      </trkpt>
      <trkpt lat="43.64414" lon="1.39137">
        <ele>138</ele>
        <time>2025-04-16T10:33:55Z</time>
      </trkpt>
      <trkpt lat="43.64414" lon="1.39137">
        <ele>138</ele>
        <time>2025-04-16T10:33:56Z</time>
      </trkpt>
      <trkpt lat="43.64414" lon="1.39137">
        <ele>138</ele>
        <time>2025-04-16T10:33:57Z</time>
      </trkpt>
      <trkpt lat="43.64413" lon="1.39141">
        <ele>138</ele>
        <time>2025-04-16T10:33:58Z</time>
      </trkpt>
      <trkpt lat="43.64413" lon="1.39141">
        <ele>138</ele>
        <time>2025-04-16T10:33:59Z</time>
      </trkpt>
      <trkpt lat="43.64413" lon="1.39145">
        <ele>138</ele>
        <time>2025-04-16T10:34:01Z</time>
      </trkpt>
      <trkpt lat="43.64412" lon="1.39148">
        <ele>138</ele>
        <time>2025-04-16T10:34:02Z</time>
      </trkpt>
      <trkpt lat="43.64412" lon="1.39148">
        <ele>137</ele>
        <time>2025-04-16T10:34:03Z</time>
      </trkpt>
      <trkpt lat="43.64412" lon="1.39153">
        <ele>137</ele>
        <time>2025-04-16T10:34:04Z</time>
      </trkpt>
      <trkpt lat="43.64411" lon="1.39155">
        <ele>137</ele>
        <time>2025-04-16T10:34:05Z</time>
      </trkpt>
      <trkpt lat="43.64411" lon="1.39158">
        <ele>136</ele>
        <time>2025-04-16T10:34:06Z</time>
      </trkpt>
      <trkpt lat="43.64411" lon="1.3916">
        <ele>135</ele>
        <time>2025-04-16T10:34:07Z</time>
      </trkpt>
      <trkpt lat="43.64411" lon="1.39163">
        <ele>135</ele>
        <time>2025-04-16T10:34:08Z</time>
      </trkpt>
      <trkpt lat="43.64411" lon="1.39166">
        <ele>135</ele>
        <time>2025-04-16T10:34:09Z</time>
      </trkpt>
      <trkpt lat="43.64412" lon="1.3917">
        <ele>134</ele>
        <time>2025-04-16T10:34:10Z</time>
      </trkpt>
      <trkpt lat="43.64412" lon="1.39173">
        <ele>133</ele>
        <time>2025-04-16T10:34:11Z</time>
      </trkpt>
      <trkpt lat="43.64413" lon="1.39176">
        <ele>133</ele>
        <time>2025-04-16T10:34:12Z</time>
      </trkpt>
      <trkpt lat="43.64413" lon="1.39179">
        <ele>133</ele>
        <time>2025-04-16T10:34:13Z</time>
      </trkpt>
      <trkpt lat="43.64414" lon="1.39182">
        <ele>132</ele>
        <time>2025-04-16T10:34:14Z</time>
      </trkpt>
      <trkpt lat="43.64415" lon="1.39186">
        <ele>132</ele>
        <time>2025-04-16T10:34:15Z</time>
      </trkpt>
      <trkpt lat="43.64415" lon="1.39189">
        <ele>132</ele>
        <time>2025-04-16T10:34:16Z</time>
      </trkpt>
      <trkpt lat="43.64416" lon="1.39192">
        <ele>132</ele>
        <time>2025-04-16T10:34:17Z</time>
      </trkpt>
      <trkpt lat="43.64417" lon="1.39194">
        <ele>132</ele>
        <time>2025-04-16T10:34:18Z</time>
      </trkpt>
      <trkpt lat="43.64419" lon="1.39197">
        <ele>132</ele>
        <time>2025-04-16T10:34:19Z</time>
      </trkpt>
      <trkpt lat="43.6442" lon="1.392">
        <ele>132</ele>
        <time>2025-04-16T10:34:20Z</time>
      </trkpt>
      <trkpt lat="43.64421" lon="1.39202">
        <ele>132</ele>
        <time>2025-04-16T10:34:21Z</time>
      </trkpt>
      <trkpt lat="43.64423" lon="1.39205">
        <ele>131</ele>
        <time>2025-04-16T10:34:22Z</time>
      </trkpt>
      <trkpt lat="43.64424" lon="1.39207">
        <ele>131</ele>
        <time>2025-04-16T10:34:23Z</time>
      </trkpt>
      <trkpt lat="43.64425" lon="1.39209">
        <ele>131</ele>
        <time>2025-04-16T10:34:24Z</time>
      </trkpt>
      <trkpt lat="43.64427" lon="1.39212">
        <ele>131</ele>
        <time>2025-04-16T10:34:25Z</time>
      </trkpt>
      <trkpt lat="43.64429" lon="1.39214">
        <ele>131</ele>
        <time>2025-04-16T10:34:26Z</time>
      </trkpt>
      <trkpt lat="43.64431" lon="1.39217">
        <ele>130</ele>
        <time>2025-04-16T10:34:27Z</time>
      </trkpt>
      <trkpt lat="43.64432" lon="1.39219">
        <ele>130</ele>
        <time>2025-04-16T10:34:28Z</time>
      </trkpt>
      <trkpt lat="43.64434" lon="1.39221">
        <ele>130</ele>
        <time>2025-04-16T10:34:29Z</time>
      </trkpt>
      <trkpt lat="43.64435" lon="1.39224">
        <ele>130</ele>
        <time>2025-04-16T10:34:30Z</time>
      </trkpt>
      <trkpt lat="43.64436" lon="1.39226">
        <ele>129</ele>
        <time>2025-04-16T10:34:31Z</time>
      </trkpt>
      <trkpt lat="43.64437" lon="1.39229">
        <ele>129</ele>
        <time>2025-04-16T10:34:32Z</time>
      </trkpt>
      <trkpt lat="43.64438" lon="1.39232">
        <ele>128</ele>
        <time>2025-04-16T10:34:33Z</time>
      </trkpt>
      <trkpt lat="43.6444" lon="1.39234">
        <ele>128</ele>
        <time>2025-04-16T10:34:34Z</time>
      </trkpt>
      <trkpt lat="43.64441" lon="1.39236">
        <ele>128</ele>
        <time>2025-04-16T10:34:35Z</time>
      </trkpt>
      <trkpt lat="43.64443" lon="1.39239">
        <ele>128</ele>
        <time>2025-04-16T10:34:36Z</time>
      </trkpt>
      <trkpt lat="43.64444" lon="1.39242">
        <ele>128</ele>
        <time>2025-04-16T10:34:37Z</time>
      </trkpt>
      <trkpt lat="43.64445" lon="1.39244">
        <ele>128</ele>
        <time>2025-04-16T10:34:38Z</time>
      </trkpt>
      <trkpt lat="43.64447" lon="1.39247">
        <ele>128</ele>
        <time>2025-04-16T10:34:39Z</time>
      </trkpt>
      <trkpt lat="43.64448" lon="1.3925">
        <ele>128</ele>
        <time>2025-04-16T10:34:40Z</time>
      </trkpt>
      <trkpt lat="43.64449" lon="1.39254">
        <ele>128</ele>
        <time>2025-04-16T10:34:41Z</time>
      </trkpt>
      <trkpt lat="43.64451" lon="1.39257">
        <ele>128</ele>
        <time>2025-04-16T10:34:42Z</time>
      </trkpt>
      <trkpt lat="43.64452" lon="1.39259">
        <ele>128</ele>
        <time>2025-04-16T10:34:43Z</time>
      </trkpt>
      <trkpt lat="43.64453" lon="1.39263">
        <ele>128</ele>
        <time>2025-04-16T10:34:44Z</time>
      </trkpt>
      <trkpt lat="43.64454" lon="1.39266">
        <ele>128</ele>
        <time>2025-04-16T10:34:45Z</time>
      </trkpt>
      <trkpt lat="43.64454" lon="1.3927">
        <ele>128</ele>
        <time>2025-04-16T10:34:46Z</time>
      </trkpt>
      <trkpt lat="43.64455" lon="1.39273">
        <ele>128</ele>
        <time>2025-04-16T10:34:47Z</time>
      </trkpt>
      <trkpt lat="43.64456" lon="1.39276">
        <ele>128</ele>
        <time>2025-04-16T10:34:48Z</time>
      </trkpt>
      <trkpt lat="43.64456" lon="1.39279">
        <ele>128</ele>
        <time>2025-04-16T10:34:49Z</time>
      </trkpt>
      <trkpt lat="43.64457" lon="1.39282">
        <ele>128</ele>
        <time>2025-04-16T10:34:50Z</time>
      </trkpt>
      <trkpt lat="43.64458" lon="1.39286">
        <ele>128</ele>
        <time>2025-04-16T10:34:51Z</time>
      </trkpt>
      <trkpt lat="43.64458" lon="1.39289">
        <ele>128</ele>
        <time>2025-04-16T10:34:52Z</time>
      </trkpt>
      <trkpt lat="43.64459" lon="1.39292">
        <ele>128</ele>
        <time>2025-04-16T10:34:53Z</time>
      </trkpt>
      <trkpt lat="43.64459" lon="1.39295">
        <ele>127</ele>
        <time>2025-04-16T10:34:54Z</time>
      </trkpt>
      <trkpt lat="43.64459" lon="1.39298">
        <ele>127</ele>
        <time>2025-04-16T10:34:55Z</time>
      </trkpt>
      <trkpt lat="43.64459" lon="1.39302">
        <ele>127</ele>
        <time>2025-04-16T10:34:56Z</time>
      </trkpt>
      <trkpt lat="43.64458" lon="1.39306">
        <ele>127</ele>
        <time>2025-04-16T10:34:57Z</time>
      </trkpt>
      <trkpt lat="43.64456" lon="1.39309">
        <ele>127</ele>
        <time>2025-04-16T10:34:58Z</time>
      </trkpt>
      <trkpt lat="43.64453" lon="1.39311">
        <ele>128</ele>
        <time>2025-04-16T10:34:59Z</time>
      </trkpt>
      <trkpt lat="43.64451" lon="1.39312">
        <ele>128</ele>
        <time>2025-04-16T10:35:00Z</time>
      </trkpt>
      <trkpt lat="43.64448" lon="1.39313">
        <ele>128</ele>
        <time>2025-04-16T10:35:01Z</time>
      </trkpt>
      <trkpt lat="43.64445" lon="1.39314">
        <ele>128</ele>
        <time>2025-04-16T10:35:02Z</time>
      </trkpt>
      <trkpt lat="43.64443" lon="1.39314">
        <ele>127</ele>
        <time>2025-04-16T10:35:03Z</time>
      </trkpt>
      <trkpt lat="43.64441" lon="1.39315">
        <ele>127</ele>
        <time>2025-04-16T10:35:04Z</time>
      </trkpt>
      <trkpt lat="43.64438" lon="1.39315">
        <ele>127</ele>
        <time>2025-04-16T10:35:05Z</time>
      </trkpt>
      <trkpt lat="43.64435" lon="1.39314">
        <ele>127</ele>
        <time>2025-04-16T10:35:06Z</time>
      </trkpt>
      <trkpt lat="43.64433" lon="1.39314">
        <ele>127</ele>
        <time>2025-04-16T10:35:07Z</time>
      </trkpt>
      <trkpt lat="43.6443" lon="1.39314">
        <ele>127</ele>
        <time>2025-04-16T10:35:08Z</time>
      </trkpt>
      <trkpt lat="43.64427" lon="1.39314">
        <ele>126</ele>
        <time>2025-04-16T10:35:09Z</time>
      </trkpt>
      <trkpt lat="43.64425" lon="1.39313">
        <ele>126</ele>
        <time>2025-04-16T10:35:10Z</time>
      </trkpt>
      <trkpt lat="43.64422" lon="1.39313">
        <ele>126</ele>
        <time>2025-04-16T10:35:11Z</time>
      </trkpt>
      <trkpt lat="43.6442" lon="1.39313">
        <ele>126</ele>
        <time>2025-04-16T10:35:12Z</time>
      </trkpt>
      <trkpt lat="43.64417" lon="1.39313">
        <ele>126</ele>
        <time>2025-04-16T10:35:13Z</time>
      </trkpt>
      <trkpt lat="43.64415" lon="1.39314">
        <ele>126</ele>
        <time>2025-04-16T10:35:14Z</time>
      </trkpt>
      <trkpt lat="43.64413" lon="1.39314">
        <ele>126</ele>
        <time>2025-04-16T10:35:15Z</time>
      </trkpt>
      <trkpt lat="43.6441" lon="1.39314">
        <ele>126</ele>
        <time>2025-04-16T10:35:16Z</time>
      </trkpt>
      <trkpt lat="43.64408" lon="1.39313">
        <ele>126</ele>
        <time>2025-04-16T10:35:17Z</time>
      </trkpt>
      <trkpt lat="43.64406" lon="1.39313">
        <ele>126</ele>
        <time>2025-04-16T10:35:18Z</time>
      </trkpt>
      <trkpt lat="43.64404" lon="1.39314">
        <ele>125</ele>
        <time>2025-04-16T10:35:19Z</time>
      </trkpt>
      <trkpt lat="43.64404" lon="1.39314">
        <ele>125</ele>
        <time>2025-04-16T10:35:20Z</time>
      </trkpt>
      <trkpt lat="43.64401" lon="1.39315">
        <ele>125</ele>
        <time>2025-04-16T10:35:21Z</time>
      </trkpt>
      <trkpt lat="43.64401" lon="1.39315">
        <ele>125</ele>
        <time>2025-04-16T10:35:22Z</time>
      </trkpt>
      <trkpt lat="43.64401" lon="1.39315">
        <ele>125</ele>
        <time>2025-04-16T10:35:23Z</time>
      </trkpt>
      <trkpt lat="43.64401" lon="1.39315">
        <ele>125</ele>
        <time>2025-04-16T10:35:24Z</time>
      </trkpt>
      <trkpt lat="43.64404" lon="1.39314">
        <ele>126</ele>
        <time>2025-04-16T10:35:25Z</time>
      </trkpt>
      <trkpt lat="43.64404" lon="1.39314">
        <ele>126</ele>
        <time>2025-04-16T10:35:26Z</time>
      </trkpt>
      <trkpt lat="43.64408" lon="1.39312">
        <ele>126</ele>
        <time>2025-04-16T10:35:27Z</time>
      </trkpt>
      <trkpt lat="43.64411" lon="1.39311">
        <ele>125</ele>
        <time>2025-04-16T10:35:28Z</time>
      </trkpt>
      <trkpt lat="43.64415" lon="1.3931">
        <ele>125</ele>
        <time>2025-04-16T10:35:29Z</time>
      </trkpt>
      <trkpt lat="43.64419" lon="1.39308">
        <ele>125</ele>
        <time>2025-04-16T10:35:30Z</time>
      </trkpt>
      <trkpt lat="43.64423" lon="1.39308">
        <ele>126</ele>
        <time>2025-04-16T10:35:31Z</time>
      </trkpt>
      <trkpt lat="43.64428" lon="1.39307">
        <ele>126</ele>
        <time>2025-04-16T10:35:32Z</time>
      </trkpt>
      <trkpt lat="43.64432" lon="1.39307">
        <ele>126</ele>
        <time>2025-04-16T10:35:33Z</time>
      </trkpt>
      <trkpt lat="43.64436" lon="1.39306">
        <ele>125</ele>
        <time>2025-04-16T10:35:34Z</time>
      </trkpt>
      <trkpt lat="43.64439" lon="1.39306">
        <ele>125</ele>
        <time>2025-04-16T10:35:35Z</time>
      </trkpt>
      <trkpt lat="43.64443" lon="1.39306">
        <ele>126</ele>
        <time>2025-04-16T10:35:36Z</time>
      </trkpt>
      <trkpt lat="43.64443" lon="1.39306">
        <ele>126</ele>
        <time>2025-04-16T10:35:37Z</time>
      </trkpt>
      <trkpt lat="43.64446" lon="1.39303">
        <ele>126</ele>
        <time>2025-04-16T10:35:38Z</time>
      </trkpt>
      <trkpt lat="43.64449" lon="1.39299">
        <ele>126</ele>
        <time>2025-04-16T10:35:39Z</time>
      </trkpt>
      <trkpt lat="43.64452" lon="1.39296">
        <ele>126</ele>
        <time>2025-04-16T10:35:40Z</time>
      </trkpt>
      <trkpt lat="43.64453" lon="1.39291">
        <ele>127</ele>
        <time>2025-04-16T10:35:41Z</time>
      </trkpt>
      <trkpt lat="43.64452" lon="1.39287">
        <ele>127</ele>
        <time>2025-04-16T10:35:42Z</time>
      </trkpt>
      <trkpt lat="43.64451" lon="1.39282">
        <ele>127</ele>
        <time>2025-04-16T10:35:43Z</time>
      </trkpt>
      <trkpt lat="43.6445" lon="1.39277">
        <ele>128</ele>
        <time>2025-04-16T10:35:44Z</time>
      </trkpt>
      <trkpt lat="43.64449" lon="1.39271">
        <ele>128</ele>
        <time>2025-04-16T10:35:45Z</time>
      </trkpt>
      <trkpt lat="43.64449" lon="1.39271">
        <ele>128</ele>
        <time>2025-04-16T10:35:46Z</time>
      </trkpt>
      <trkpt lat="43.64445" lon="1.39261">
        <ele>128</ele>
        <time>2025-04-16T10:35:47Z</time>
      </trkpt>
      <trkpt lat="43.64445" lon="1.39261">
        <ele>128</ele>
        <time>2025-04-16T10:35:48Z</time>
      </trkpt>
      <trkpt lat="43.64441" lon="1.39252">
        <ele>127</ele>
        <time>2025-04-16T10:35:49Z</time>
      </trkpt>
      <trkpt lat="43.64441" lon="1.39252">
        <ele>127</ele>
        <time>2025-04-16T10:35:50Z</time>
      </trkpt>
      <trkpt lat="43.64438" lon="1.39246">
        <ele>127</ele>
        <time>2025-04-16T10:35:51Z</time>
      </trkpt>
      <trkpt lat="43.64435" lon="1.3924">
        <ele>127</ele>
        <time>2025-04-16T10:35:52Z</time>
      </trkpt>
      <trkpt lat="43.64431" lon="1.39234">
        <ele>127</ele>
        <time>2025-04-16T10:35:53Z</time>
      </trkpt>
      <trkpt lat="43.64429" lon="1.39229">
        <ele>127</ele>
        <time>2025-04-16T10:35:54Z</time>
      </trkpt>
      <trkpt lat="43.64427" lon="1.39224">
        <ele>127</ele>
        <time>2025-04-16T10:35:55Z</time>
      </trkpt>
      <trkpt lat="43.64424" lon="1.3922">
        <ele>127</ele>
        <time>2025-04-16T10:35:56Z</time>
      </trkpt>
      <trkpt lat="43.64422" lon="1.39215">
        <ele>128</ele>
        <time>2025-04-16T10:35:57Z</time>
      </trkpt>
      <trkpt lat="43.6442" lon="1.3921">
        <ele>128</ele>
        <time>2025-04-16T10:35:58Z</time>
      </trkpt>
      <trkpt lat="43.64418" lon="1.39206">
        <ele>128</ele>
        <time>2025-04-16T10:35:59Z</time>
      </trkpt>
      <trkpt lat="43.64416" lon="1.39201">
        <ele>128</ele>
        <time>2025-04-16T10:36:00Z</time>
      </trkpt>
      <trkpt lat="43.64414" lon="1.39197">
        <ele>128</ele>
        <time>2025-04-16T10:36:01Z</time>
      </trkpt>
      <trkpt lat="43.64412" lon="1.39192">
        <ele>129</ele>
        <time>2025-04-16T10:36:02Z</time>
      </trkpt>
      <trkpt lat="43.6441" lon="1.39187">
        <ele>130</ele>
        <time>2025-04-16T10:36:03Z</time>
      </trkpt>
      <trkpt lat="43.64409" lon="1.39182">
        <ele>130</ele>
        <time>2025-04-16T10:36:04Z</time>
      </trkpt>
      <trkpt lat="43.64409" lon="1.39177">
        <ele>131</ele>
        <time>2025-04-16T10:36:05Z</time>
      </trkpt>
      <trkpt lat="43.64409" lon="1.39173">
        <ele>131</ele>
        <time>2025-04-16T10:36:06Z</time>
      </trkpt>
      <trkpt lat="43.64408" lon="1.39169">
        <ele>132</ele>
        <time>2025-04-16T10:36:07Z</time>
      </trkpt>
      <trkpt lat="43.64409" lon="1.39164">
        <ele>132</ele>
        <time>2025-04-16T10:36:08Z</time>
      </trkpt>
      <trkpt lat="43.64409" lon="1.39159">
        <ele>132</ele>
        <time>2025-04-16T10:36:09Z</time>
      </trkpt>
      <trkpt lat="43.6441" lon="1.39155">
        <ele>132</ele>
        <time>2025-04-16T10:36:10Z</time>
      </trkpt>
      <trkpt lat="43.64411" lon="1.39151">
        <ele>133</ele>
        <time>2025-04-16T10:36:11Z</time>
      </trkpt>
      <trkpt lat="43.64411" lon="1.39147">
        <ele>133</ele>
        <time>2025-04-16T10:36:12Z</time>
      </trkpt>
      <trkpt lat="43.64413" lon="1.39142">
        <ele>133</ele>
        <time>2025-04-16T10:36:13Z</time>
      </trkpt>
      <trkpt lat="43.64414" lon="1.39138">
        <ele>134</ele>
        <time>2025-04-16T10:36:14Z</time>
      </trkpt>
      <trkpt lat="43.64415" lon="1.39134">
        <ele>135</ele>
        <time>2025-04-16T10:36:15Z</time>
      </trkpt>
      <trkpt lat="43.64416" lon="1.39129">
        <ele>135</ele>
        <time>2025-04-16T10:36:16Z</time>
      </trkpt>
      <trkpt lat="43.64417" lon="1.39125">
        <ele>135</ele>
        <time>2025-04-16T10:36:17Z</time>
      </trkpt>
      <trkpt lat="43.64418" lon="1.39121">
        <ele>136</ele>
        <time>2025-04-16T10:36:18Z</time>
      </trkpt>
      <trkpt lat="43.64419" lon="1.39118">
        <ele>137</ele>
        <time>2025-04-16T10:36:19Z</time>
      </trkpt>
      <trkpt lat="43.64419" lon="1.39118">
        <ele>137</ele>
        <time>2025-04-16T10:36:20Z</time>
      </trkpt>
      <trkpt lat="43.64419" lon="1.39118">
        <ele>138</ele>
        <time>2025-04-16T10:36:21Z</time>
      </trkpt>
      <trkpt lat="43.64419" lon="1.39118">
        <ele>138</ele>
        <time>2025-04-16T10:36:22Z</time>
      </trkpt>
      <trkpt lat="43.64418" lon="1.39121">
        <ele>138</ele>
        <time>2025-04-16T10:36:23Z</time>
      </trkpt>
      <trkpt lat="43.64418" lon="1.39121">
        <ele>138</ele>
        <time>2025-04-16T10:36:24Z</time>
      </trkpt>
      <trkpt lat="43.64417" lon="1.39126">
        <ele>138</ele>
        <time>2025-04-16T10:36:25Z</time>
      </trkpt>
      <trkpt lat="43.64417" lon="1.39129">
        <ele>138</ele>
        <time>2025-04-16T10:36:26Z</time>
      </trkpt>
      <trkpt lat="43.64416" lon="1.39132">
        <ele>137</ele>
        <time>2025-04-16T10:36:27Z</time>
      </trkpt>
      <trkpt lat="43.64416" lon="1.39134">
        <ele>137</ele>
        <time>2025-04-16T10:36:28Z</time>
      </trkpt>
      <trkpt lat="43.64416" lon="1.39134">
        <ele>137</ele>
        <time>2025-04-16T10:36:29Z</time>
      </trkpt>
      <trkpt lat="43.64415" lon="1.39141">
        <ele>137</ele>
        <time>2025-04-16T10:36:30Z</time>
      </trkpt>
      <trkpt lat="43.64415" lon="1.39143">
        <ele>136</ele>
        <time>2025-04-16T10:36:31Z</time>
      </trkpt>
      <trkpt lat="43.64414" lon="1.39145">
        <ele>135</ele>
        <time>2025-04-16T10:36:32Z</time>
      </trkpt>
      <trkpt lat="43.64414" lon="1.39145">
        <ele>135</ele>
        <time>2025-04-16T10:36:33Z</time>
      </trkpt>
      <trkpt lat="43.64414" lon="1.3915">
        <ele>135</ele>
        <time>2025-04-16T10:36:34Z</time>
      </trkpt>
      <trkpt lat="43.64413" lon="1.39153">
        <ele>135</ele>
        <time>2025-04-16T10:36:35Z</time>
      </trkpt>
      <trkpt lat="43.64413" lon="1.39157">
        <ele>135</ele>
        <time>2025-04-16T10:36:36Z</time>
      </trkpt>
      <trkpt lat="43.64412" lon="1.3916">
        <ele>135</ele>
        <time>2025-04-16T10:36:37Z</time>
      </trkpt>
      <trkpt lat="43.64412" lon="1.39164">
        <ele>134</ele>
        <time>2025-04-16T10:36:38Z</time>
      </trkpt>
      <trkpt lat="43.64411" lon="1.39167">
        <ele>133</ele>
        <time>2025-04-16T10:36:39Z</time>
      </trkpt>
      <trkpt lat="43.64411" lon="1.3917">
        <ele>133</ele>
        <time>2025-04-16T10:36:40Z</time>
      </trkpt>
      <trkpt lat="43.64411" lon="1.39173">
        <ele>133</ele>
        <time>2025-04-16T10:36:41Z</time>
      </trkpt>
      <trkpt lat="43.64411" lon="1.39176">
        <ele>133</ele>
        <time>2025-04-16T10:36:42Z</time>
      </trkpt>
      <trkpt lat="43.64411" lon="1.39179">
        <ele>133</ele>
        <time>2025-04-16T10:36:43Z</time>
      </trkpt>
      <trkpt lat="43.64412" lon="1.39182">
        <ele>133</ele>
        <time>2025-04-16T10:36:44Z</time>
      </trkpt>
      <trkpt lat="43.64413" lon="1.39185">
        <ele>132</ele>
        <time>2025-04-16T10:36:45Z</time>
      </trkpt>
      <trkpt lat="43.64413" lon="1.39187">
        <ele>132</ele>
        <time>2025-04-16T10:36:46Z</time>
      </trkpt>
      <trkpt lat="43.64414" lon="1.3919">
        <ele>132</ele>
        <time>2025-04-16T10:36:47Z</time>
      </trkpt>
      <trkpt lat="43.64415" lon="1.39192">
        <ele>132</ele>
        <time>2025-04-16T10:36:48Z</time>
      </trkpt>
      <trkpt lat="43.64416" lon="1.39195">
        <ele>132</ele>
        <time>2025-04-16T10:36:49Z</time>
      </trkpt>
      <trkpt lat="43.64416" lon="1.39198">
        <ele>132</ele>
        <time>2025-04-16T10:36:50Z</time>
      </trkpt>
      <trkpt lat="43.64417" lon="1.392">
        <ele>132</ele>
        <time>2025-04-16T10:36:51Z</time>
      </trkpt>
      <trkpt lat="43.64419" lon="1.39202">
        <ele>132</ele>
        <time>2025-04-16T10:36:52Z</time>
      </trkpt>
      <trkpt lat="43.6442" lon="1.39204">
        <ele>131</ele>
        <time>2025-04-16T10:36:53Z</time>
      </trkpt>
      <trkpt lat="43.64422" lon="1.39206">
        <ele>131</ele>
        <time>2025-04-16T10:36:54Z</time>
      </trkpt>
      <trkpt lat="43.64423" lon="1.39208">
        <ele>131</ele>
        <time>2025-04-16T10:36:55Z</time>
      </trkpt>
      <trkpt lat="43.64424" lon="1.39211">
        <ele>131</ele>
        <time>2025-04-16T10:36:56Z</time>
      </trkpt>
      <trkpt lat="43.64426" lon="1.39213">
        <ele>131</ele>
        <time>2025-04-16T10:36:57Z</time>
      </trkpt>
      <trkpt lat="43.64427" lon="1.39216">
        <ele>131</ele>
        <time>2025-04-16T10:36:58Z</time>
      </trkpt>
      <trkpt lat="43.64429" lon="1.39218">
        <ele>130</ele>
        <time>2025-04-16T10:36:59Z</time>
      </trkpt>
      <trkpt lat="43.64431" lon="1.3922">
        <ele>130</ele>
        <time>2025-04-16T10:37:00Z</time>
      </trkpt>
      <trkpt lat="43.64433" lon="1.39223">
        <ele>130</ele>
        <time>2025-04-16T10:37:01Z</time>
      </trkpt>
      <trkpt lat="43.64434" lon="1.39226">
        <ele>130</ele>
        <time>2025-04-16T10:37:02Z</time>
      </trkpt>
      <trkpt lat="43.64435" lon="1.39228">
        <ele>130</ele>
        <time>2025-04-16T10:37:03Z</time>
      </trkpt>
      <trkpt lat="43.64436" lon="1.39231">
        <ele>130</ele>
        <time>2025-04-16T10:37:04Z</time>
      </trkpt>
      <trkpt lat="43.64436" lon="1.39234">
        <ele>129</ele>
        <time>2025-04-16T10:37:05Z</time>
      </trkpt>
      <trkpt lat="43.64438" lon="1.39236">
        <ele>129</ele>
        <time>2025-04-16T10:37:06Z</time>
      </trkpt>
      <trkpt lat="43.6444" lon="1.39238">
        <ele>129</ele>
        <time>2025-04-16T10:37:07Z</time>
      </trkpt>
      <trkpt lat="43.64441" lon="1.3924">
        <ele>129</ele>
        <time>2025-04-16T10:37:08Z</time>
      </trkpt>
      <trkpt lat="43.64442" lon="1.39243">
        <ele>128</ele>
        <time>2025-04-16T10:37:09Z</time>
      </trkpt>
      <trkpt lat="43.64444" lon="1.39245">
        <ele>128</ele>
        <time>2025-04-16T10:37:10Z</time>
      </trkpt>
      <trkpt lat="43.64445" lon="1.39248">
        <ele>128</ele>
        <time>2025-04-16T10:37:11Z</time>
      </trkpt>
      <trkpt lat="43.64447" lon="1.3925">
        <ele>128</ele>
        <time>2025-04-16T10:37:12Z</time>
      </trkpt>
      <trkpt lat="43.64448" lon="1.39253">
        <ele>128</ele>
        <time>2025-04-16T10:37:13Z</time>
      </trkpt>
      <trkpt lat="43.64449" lon="1.39256">
        <ele>128</ele>
        <time>2025-04-16T10:37:14Z</time>
      </trkpt>
      <trkpt lat="43.64449" lon="1.39259">
        <ele>128</ele>
        <time>2025-04-16T10:37:15Z</time>
      </trkpt>
      <trkpt lat="43.6445" lon="1.39262">
        <ele>128</ele>
        <time>2025-04-16T10:37:16Z</time>
      </trkpt>
      <trkpt lat="43.64451" lon="1.39265">
        <ele>128</ele>
        <time>2025-04-16T10:37:17Z</time>
      </trkpt>
      <trkpt lat="43.64452" lon="1.39268">
        <ele>128</ele>
        <time>2025-04-16T10:37:18Z</time>
      </trkpt>
      <trkpt lat="43.64452" lon="1.39271">
        <ele>128</ele>
        <time>2025-04-16T10:37:19Z</time>
      </trkpt>
      <trkpt lat="43.64453" lon="1.39274">
        <ele>128</ele>
        <time>2025-04-16T10:37:20Z</time>
      </trkpt>
      <trkpt lat="43.64454" lon="1.39277">
        <ele>128</ele>
        <time>2025-04-16T10:37:21Z</time>
      </trkpt>
      <trkpt lat="43.64454" lon="1.3928">
        <ele>128</ele>
        <time>2025-04-16T10:37:22Z</time>
      </trkpt>
      <trkpt lat="43.64454" lon="1.39283">
        <ele>128</ele>
        <time>2025-04-16T10:37:23Z</time>
      </trkpt>
      <trkpt lat="43.64455" lon="1.39286">
        <ele>127</ele>
        <time>2025-04-16T10:37:24Z</time>
      </trkpt>
      <trkpt lat="43.64455" lon="1.39289">
        <ele>127</ele>
        <time>2025-04-16T10:37:25Z</time>
      </trkpt>
      <trkpt lat="43.64456" lon="1.39291">
        <ele>127</ele>
        <time>2025-04-16T10:37:26Z</time>
      </trkpt>
      <trkpt lat="43.64456" lon="1.39294">
        <ele>127</ele>
        <time>2025-04-16T10:37:27Z</time>
      </trkpt>
      <trkpt lat="43.64457" lon="1.39297">
        <ele>127</ele>
        <time>2025-04-16T10:37:28Z</time>
      </trkpt>
      <trkpt lat="43.64457" lon="1.393">
        <ele>127</ele>
        <time>2025-04-16T10:37:29Z</time>
      </trkpt>
      <trkpt lat="43.64457" lon="1.39303">
        <ele>127</ele>
        <time>2025-04-16T10:37:30Z</time>
      </trkpt>
      <trkpt lat="43.64456" lon="1.39306">
        <ele>128</ele>
        <time>2025-04-16T10:37:31Z</time>
      </trkpt>
      <trkpt lat="43.64454" lon="1.39309">
        <ele>128</ele>
        <time>2025-04-16T10:37:32Z</time>
      </trkpt>
      <trkpt lat="43.64452" lon="1.39311">
        <ele>128</ele>
        <time>2025-04-16T10:37:33Z</time>
      </trkpt>
      <trkpt lat="43.64449" lon="1.39312">
        <ele>128</ele>
        <time>2025-04-16T10:37:34Z</time>
      </trkpt>
      <trkpt lat="43.64447" lon="1.39313">
        <ele>127</ele>
        <time>2025-04-16T10:37:35Z</time>
      </trkpt>
      <trkpt lat="43.64445" lon="1.39314">
        <ele>127</ele>
        <time>2025-04-16T10:37:36Z</time>
      </trkpt>
      <trkpt lat="43.64442" lon="1.39315">
        <ele>127</ele>
        <time>2025-04-16T10:37:37Z</time>
      </trkpt>
      <trkpt lat="43.64439" lon="1.39315">
        <ele>127</ele>
        <time>2025-04-16T10:37:38Z</time>
      </trkpt>
      <trkpt lat="43.64437" lon="1.39315">
        <ele>127</ele>
        <time>2025-04-16T10:37:39Z</time>
      </trkpt>
      <trkpt lat="43.64433" lon="1.39315">
        <ele>127</ele>
        <time>2025-04-16T10:37:40Z</time>
      </trkpt>
      <trkpt lat="43.6443" lon="1.39315">
        <ele>127</ele>
        <time>2025-04-16T10:37:41Z</time>
      </trkpt>
      <trkpt lat="43.64428" lon="1.39314">
        <ele>126</ele>
        <time>2025-04-16T10:37:42Z</time>
      </trkpt>
      <trkpt lat="43.64425" lon="1.39314">
        <ele>126</ele>
        <time>2025-04-16T10:37:43Z</time>
      </trkpt>
      <trkpt lat="43.64422" lon="1.39314">
        <ele>126</ele>
        <time>2025-04-16T10:37:44Z</time>
      </trkpt>
      <trkpt lat="43.6442" lon="1.39314">
        <ele>126</ele>
        <time>2025-04-16T10:37:45Z</time>
      </trkpt>
      <trkpt lat="43.64417" lon="1.39314">
        <ele>126</ele>
        <time>2025-04-16T10:37:46Z</time>
      </trkpt>
      <trkpt lat="43.64415" lon="1.39315">
        <ele>126</ele>
        <time>2025-04-16T10:37:47Z</time>
      </trkpt>
      <trkpt lat="43.64412" lon="1.39315">
        <ele>126</ele>
        <time>2025-04-16T10:37:48Z</time>
      </trkpt>
      <trkpt lat="43.6441" lon="1.39315">
        <ele>126</ele>
        <time>2025-04-16T10:37:49Z</time>
      </trkpt>
      <trkpt lat="43.64407" lon="1.39315">
        <ele>126</ele>
        <time>2025-04-16T10:37:50Z</time>
      </trkpt>
      <trkpt lat="43.64405" lon="1.39314">
        <ele>126</ele>
        <time>2025-04-16T10:37:51Z</time>
      </trkpt>
      <trkpt lat="43.64405" lon="1.39314">
        <ele>126</ele>
        <time>2025-04-16T10:37:52Z</time>
      </trkpt>
      <trkpt lat="43.64402" lon="1.39314">
        <ele>125</ele>
        <time>2025-04-16T10:37:53Z</time>
      </trkpt>
      <trkpt lat="43.64402" lon="1.39314">
        <ele>125</ele>
        <time>2025-04-16T10:37:54Z</time>
      </trkpt>
      <trkpt lat="43.64402" lon="1.39314">
        <ele>125</ele>
        <time>2025-04-16T10:37:55Z</time>
      </trkpt>
      <trkpt lat="43.64402" lon="1.39314">
        <ele>125</ele>
        <time>2025-04-16T10:37:56Z</time>
      </trkpt>
      <trkpt lat="43.64404" lon="1.39314">
        <ele>125</ele>
        <time>2025-04-16T10:37:57Z</time>
      </trkpt>
      <trkpt lat="43.64406" lon="1.39313">
        <ele>126</ele>
        <time>2025-04-16T10:37:58Z</time>
      </trkpt>
      <trkpt lat="43.64409" lon="1.39313">
        <ele>126</ele>
        <time>2025-04-16T10:37:59Z</time>
      </trkpt>
      <trkpt lat="43.64412" lon="1.39312">
        <ele>126</ele>
        <time>2025-04-16T10:38:00Z</time>
      </trkpt>
      <trkpt lat="43.64414" lon="1.39312">
        <ele>126</ele>
        <time>2025-04-16T10:38:01Z</time>
      </trkpt>
      <trkpt lat="43.64414" lon="1.39312">
        <ele>126</ele>
        <time>2025-04-16T10:38:02Z</time>
      </trkpt>
      <trkpt lat="43.64417" lon="1.39311">
        <ele>126</ele>
        <time>2025-04-16T10:38:03Z</time>
      </trkpt>
      <trkpt lat="43.64419" lon="1.39311">
        <ele>126</ele>
        <time>2025-04-16T10:38:04Z</time>
      </trkpt>
      <trkpt lat="43.64421" lon="1.3931">
        <ele>126</ele>
        <time>2025-04-16T10:38:08Z</time>
      </trkpt>
      <trkpt lat="43.64424" lon="1.3931">
        <ele>126</ele>
        <time>2025-04-16T10:38:09Z</time>
      </trkpt>
      <trkpt lat="43.64427" lon="1.39309">
        <ele>126</ele>
        <time>2025-04-16T10:38:10Z</time>
      </trkpt>
      <trkpt lat="43.64431" lon="1.39308">
        <ele>126</ele>
        <time>2025-04-16T10:38:11Z</time>
      </trkpt>
      <trkpt lat="43.64435" lon="1.39308">
        <ele>126</ele>
        <time>2025-04-16T10:38:12Z</time>
      </trkpt>
      <trkpt lat="43.64439" lon="1.39308">
        <ele>126</ele>
        <time>2025-04-16T10:38:13Z</time>
      </trkpt>
      <trkpt lat="43.64442" lon="1.39308">
        <ele>126</ele>
        <time>2025-04-16T10:38:14Z</time>
      </trkpt>
      <trkpt lat="43.64442" lon="1.39308">
        <ele>126</ele>
        <time>2025-04-16T10:38:15Z</time>
      </trkpt>
      <trkpt lat="43.64445" lon="1.39304">
        <ele>126</ele>
        <time>2025-04-16T10:38:16Z</time>
      </trkpt>
      <trkpt lat="43.64447" lon="1.39301">
        <ele>126</ele>
        <time>2025-04-16T10:38:17Z</time>
      </trkpt>
      <trkpt lat="43.6445" lon="1.39298">
        <ele>126</ele>
        <time>2025-04-16T10:38:18Z</time>
      </trkpt>
      <trkpt lat="43.64452" lon="1.39294">
        <ele>126</ele>
        <time>2025-04-16T10:38:19Z</time>
      </trkpt>
      <trkpt lat="43.64452" lon="1.3929">
        <ele>127</ele>
        <time>2025-04-16T10:38:20Z</time>
      </trkpt>
      <trkpt lat="43.64451" lon="1.39285">
        <ele>127</ele>
        <time>2025-04-16T10:38:21Z</time>
      </trkpt>
      <trkpt lat="43.6445" lon="1.39279">
        <ele>127</ele>
        <time>2025-04-16T10:38:22Z</time>
      </trkpt>
      <trkpt lat="43.64449" lon="1.39274">
        <ele>128</ele>
        <time>2025-04-16T10:38:23Z</time>
      </trkpt>
      <trkpt lat="43.64447" lon="1.39269">
        <ele>128</ele>
        <time>2025-04-16T10:38:24Z</time>
      </trkpt>
      <trkpt lat="43.64445" lon="1.39263">
        <ele>128</ele>
        <time>2025-04-16T10:38:25Z</time>
      </trkpt>
      <trkpt lat="43.64443" lon="1.39258">
        <ele>128</ele>
        <time>2025-04-16T10:38:26Z</time>
      </trkpt>
      <trkpt lat="43.64443" lon="1.39258">
        <ele>127</ele>
        <time>2025-04-16T10:38:27Z</time>
      </trkpt>
      <trkpt lat="43.6444" lon="1.39249">
        <ele>127</ele>
        <time>2025-04-16T10:38:28Z</time>
      </trkpt>
      <trkpt lat="43.64438" lon="1.39244">
        <ele>127</ele>
        <time>2025-04-16T10:38:29Z</time>
      </trkpt>
      <trkpt lat="43.64435" lon="1.39239">
        <ele>127</ele>
        <time>2025-04-16T10:38:30Z</time>
      </trkpt>
      <trkpt lat="43.64435" lon="1.39239">
        <ele>127</ele>
        <time>2025-04-16T10:38:31Z</time>
      </trkpt>
      <trkpt lat="43.64429" lon="1.39227">
        <ele>127</ele>
        <time>2025-04-16T10:38:32Z</time>
      </trkpt>
      <trkpt lat="43.64427" lon="1.39225">
        <ele>127</ele>
        <time>2025-04-16T10:38:33Z</time>
      </trkpt>
      <trkpt lat="43.64425" lon="1.39221">
        <ele>128</ele>
        <time>2025-04-16T10:38:34Z</time>
      </trkpt>
      <trkpt lat="43.64422" lon="1.39217">
        <ele>128</ele>
        <time>2025-04-16T10:38:35Z</time>
      </trkpt>
      <trkpt lat="43.64419" lon="1.39213">
        <ele>128</ele>
        <time>2025-04-16T10:38:36Z</time>
      </trkpt>
      <trkpt lat="43.64417" lon="1.39208">
        <ele>127</ele>
        <time>2025-04-16T10:38:37Z</time>
      </trkpt>
      <trkpt lat="43.64415" lon="1.39204">
        <ele>128</ele>
        <time>2025-04-16T10:38:38Z</time>
      </trkpt>
      <trkpt lat="43.64413" lon="1.39199">
        <ele>129</ele>
        <time>2025-04-16T10:38:39Z</time>
      </trkpt>
      <trkpt lat="43.64411" lon="1.39194">
        <ele>130</ele>
        <time>2025-04-16T10:38:40Z</time>
      </trkpt>
      <trkpt lat="43.6441" lon="1.39189">
        <ele>130</ele>
        <time>2025-04-16T10:38:41Z</time>
      </trkpt>
      <trkpt lat="43.64409" lon="1.39184">
        <ele>130</ele>
        <time>2025-04-16T10:38:42Z</time>
      </trkpt>
      <trkpt lat="43.64408" lon="1.39179">
        <ele>130</ele>
        <time>2025-04-16T10:38:43Z</time>
      </trkpt>
      <trkpt lat="43.64407" lon="1.39174">
        <ele>130</ele>
        <time>2025-04-16T10:38:44Z</time>
      </trkpt>
      <trkpt lat="43.64407" lon="1.39169">
        <ele>131</ele>
        <time>2025-04-16T10:38:45Z</time>
      </trkpt>
      <trkpt lat="43.64408" lon="1.39164">
        <ele>132</ele>
        <time>2025-04-16T10:38:46Z</time>
      </trkpt>
      <trkpt lat="43.64408" lon="1.3916">
        <ele>132</ele>
        <time>2025-04-16T10:38:47Z</time>
      </trkpt>
      <trkpt lat="43.64409" lon="1.39155">
        <ele>133</ele>
        <time>2025-04-16T10:38:48Z</time>
      </trkpt>
      <trkpt lat="43.64411" lon="1.39151">
        <ele>133</ele>
        <time>2025-04-16T10:38:49Z</time>
      </trkpt>
      <trkpt lat="43.64412" lon="1.39146">
        <ele>133</ele>
        <time>2025-04-16T10:38:50Z</time>
      </trkpt>
      <trkpt lat="43.64413" lon="1.39141">
        <ele>133</ele>
        <time>2025-04-16T10:38:51Z</time>
      </trkpt>
      <trkpt lat="43.64415" lon="1.39137">
        <ele>134</ele>
        <time>2025-04-16T10:38:52Z</time>
      </trkpt>
      <trkpt lat="43.64416" lon="1.39132">
        <ele>134</ele>
        <time>2025-04-16T10:38:53Z</time>
      </trkpt>
      <trkpt lat="43.64417" lon="1.39128">
        <ele>135</ele>
        <time>2025-04-16T10:38:54Z</time>
      </trkpt>
      <trkpt lat="43.64418" lon="1.39124">
        <ele>136</ele>
        <time>2025-04-16T10:38:55Z</time>
      </trkpt>
      <trkpt lat="43.64419" lon="1.39121">
        <ele>136</ele>
        <time>2025-04-16T10:38:56Z</time>
      </trkpt>
      <trkpt lat="43.6442" lon="1.39119">
        <ele>136</ele>
        <time>2025-04-16T10:38:57Z</time>
      </trkpt>
      <trkpt lat="43.6442" lon="1.39119">
        <ele>137</ele>
        <time>2025-04-16T10:38:58Z</time>
      </trkpt>
      <trkpt lat="43.6442" lon="1.39119">
        <ele>137</ele>
        <time>2025-04-16T10:38:59Z</time>
      </trkpt>
      <trkpt lat="43.6442" lon="1.39119">
        <ele>138</ele>
        <time>2025-04-16T10:39:00Z</time>
      </trkpt>
      <trkpt lat="43.64419" lon="1.39122">
        <ele>138</ele>
        <time>2025-04-16T10:39:01Z</time>
      </trkpt>
      <trkpt lat="43.64419" lon="1.39122">
        <ele>138</ele>
        <time>2025-04-16T10:39:02Z</time>
      </trkpt>
      <trkpt lat="43.64418" lon="1.39126">
        <ele>138</ele>
        <time>2025-04-16T10:39:03Z</time>
      </trkpt>
      <trkpt lat="43.64418" lon="1.39126">
        <ele>138</ele>
        <time>2025-04-16T10:39:04Z</time>
      </trkpt>
      <trkpt lat="43.64417" lon="1.39131">
        <ele>137</ele>
        <time>2025-04-16T10:39:05Z</time>
      </trkpt>
      <trkpt lat="43.64417" lon="1.39134">
        <ele>137</ele>
        <time>2025-04-16T10:39:06Z</time>
      </trkpt>
      <trkpt lat="43.64417" lon="1.39136">
        <ele>137</ele>
        <time>2025-04-16T10:39:07Z</time>
      </trkpt>
      <trkpt lat="43.64417" lon="1.39139">
        <ele>137</ele>
        <time>2025-04-16T10:39:08Z</time>
      </trkpt>
      <trkpt lat="43.64417" lon="1.39139">
        <ele>135</ele>
        <time>2025-04-16T10:39:09Z</time>
      </trkpt>
      <trkpt lat="43.64415" lon="1.39147">
        <ele>135</ele>
        <time>2025-04-16T10:39:10Z</time>
      </trkpt>
      <trkpt lat="43.64415" lon="1.39148">
        <ele>135</ele>
        <time>2025-04-16T10:39:11Z</time>
      </trkpt>
      <trkpt lat="43.64414" lon="1.39152">
        <ele>134</ele>
        <time>2025-04-16T10:39:12Z</time>
      </trkpt>
      <trkpt lat="43.64413" lon="1.39155">
        <ele>134</ele>
        <time>2025-04-16T10:39:13Z</time>
      </trkpt>
      <trkpt lat="43.64413" lon="1.39158">
        <ele>134</ele>
        <time>2025-04-16T10:39:14Z</time>
      </trkpt>
      <trkpt lat="43.64413" lon="1.39161">
        <ele>134</ele>
        <time>2025-04-16T10:39:15Z</time>
      </trkpt>
      <trkpt lat="43.64413" lon="1.39164">
        <ele>134</ele>
        <time>2025-04-16T10:39:16Z</time>
      </trkpt>
      <trkpt lat="43.64412" lon="1.39167">
        <ele>134</ele>
        <time>2025-04-16T10:39:17Z</time>
      </trkpt>
      <trkpt lat="43.64412" lon="1.3917">
        <ele>134</ele>
        <time>2025-04-16T10:39:18Z</time>
      </trkpt>
      <trkpt lat="43.64412" lon="1.39173">
        <ele>133</ele>
        <time>2025-04-16T10:39:19Z</time>
      </trkpt>
      <trkpt lat="43.64412" lon="1.39176">
        <ele>132</ele>
        <time>2025-04-16T10:39:20Z</time>
      </trkpt>
      <trkpt lat="43.64412" lon="1.39179">
        <ele>132</ele>
        <time>2025-04-16T10:39:21Z</time>
      </trkpt>
      <trkpt lat="43.64412" lon="1.39182">
        <ele>132</ele>
        <time>2025-04-16T10:39:22Z</time>
      </trkpt>
      <trkpt lat="43.64413" lon="1.39184">
        <ele>132</ele>
        <time>2025-04-16T10:39:23Z</time>
      </trkpt>
      <trkpt lat="43.64413" lon="1.39184">
        <ele>132</ele>
        <time>2025-04-16T10:39:24Z</time>
      </trkpt>
      <trkpt lat="43.64414" lon="1.39188">
        <ele>132</ele>
        <time>2025-04-16T10:39:25Z</time>
      </trkpt>
      <trkpt lat="43.64414" lon="1.39188">
        <ele>132</ele>
        <time>2025-04-16T10:39:26Z</time>
      </trkpt>
      <trkpt lat="43.64416" lon="1.39192">
        <ele>132</ele>
        <time>2025-04-16T10:39:27Z</time>
      </trkpt>
      <trkpt lat="43.64418" lon="1.39195">
        <ele>131</ele>
        <time>2025-04-16T10:39:28Z</time>
      </trkpt>
      <trkpt lat="43.64419" lon="1.39197">
        <ele>131</ele>
        <time>2025-04-16T10:39:29Z</time>
      </trkpt>
      <trkpt lat="43.64419" lon="1.39197">
        <ele>131</ele>
        <time>2025-04-16T10:39:30Z</time>
      </trkpt>
      <trkpt lat="43.64421" lon="1.39202">
        <ele>131</ele>
        <time>2025-04-16T10:39:31Z</time>
      </trkpt>
      <trkpt lat="43.64422" lon="1.39204">
        <ele>131</ele>
        <time>2025-04-16T10:39:32Z</time>
      </trkpt>
      <trkpt lat="43.64424" lon="1.39206">
        <ele>130</ele>
        <time>2025-04-16T10:39:33Z</time>
      </trkpt>
      <trkpt lat="43.64425" lon="1.39209">
        <ele>130</ele>
        <time>2025-04-16T10:39:34Z</time>
      </trkpt>
      <trkpt lat="43.64426" lon="1.39211">
        <ele>130</ele>
        <time>2025-04-16T10:39:35Z</time>
      </trkpt>
      <trkpt lat="43.64428" lon="1.39213">
        <ele>130</ele>
        <time>2025-04-16T10:39:36Z</time>
      </trkpt>
      <trkpt lat="43.64429" lon="1.39216">
        <ele>130</ele>
        <time>2025-04-16T10:39:37Z</time>
      </trkpt>
      <trkpt lat="43.6443" lon="1.39218">
        <ele>129</ele>
        <time>2025-04-16T10:39:38Z</time>
      </trkpt>
      <trkpt lat="43.64432" lon="1.3922">
        <ele>128</ele>
        <time>2025-04-16T10:39:39Z</time>
      </trkpt>
      <trkpt lat="43.64433" lon="1.39223">
        <ele>128</ele>
        <time>2025-04-16T10:39:40Z</time>
      </trkpt>
      <trkpt lat="43.64434" lon="1.39225">
        <ele>128</ele>
        <time>2025-04-16T10:39:41Z</time>
      </trkpt>
      <trkpt lat="43.64435" lon="1.39227">
        <ele>128</ele>
        <time>2025-04-16T10:39:42Z</time>
      </trkpt>
      <trkpt lat="43.64436" lon="1.3923">
        <ele>128</ele>
        <time>2025-04-16T10:39:43Z</time>
      </trkpt>
      <trkpt lat="43.64436" lon="1.3923">
        <ele>128</ele>
        <time>2025-04-16T10:39:44Z</time>
      </trkpt>
      <trkpt lat="43.64438" lon="1.39235">
        <ele>128</ele>
        <time>2025-04-16T10:39:45Z</time>
      </trkpt>
      <trkpt lat="43.64438" lon="1.39235">
        <ele>128</ele>
        <time>2025-04-16T10:39:46Z</time>
      </trkpt>
      <trkpt lat="43.6444" lon="1.39238">
        <ele>127</ele>
        <time>2025-04-16T10:39:47Z</time>
      </trkpt>
      <trkpt lat="43.64441" lon="1.39241">
        <ele>127</ele>
        <time>2025-04-16T10:39:48Z</time>
      </trkpt>
      <trkpt lat="43.64442" lon="1.39244">
        <ele>127</ele>
        <time>2025-04-16T10:39:49Z</time>
      </trkpt>
      <trkpt lat="43.64443" lon="1.39246">
        <ele>127</ele>
        <time>2025-04-16T10:39:50Z</time>
      </trkpt>
      <trkpt lat="43.64445" lon="1.39248">
        <ele>127</ele>
        <time>2025-04-16T10:39:51Z</time>
      </trkpt>
      <trkpt lat="43.64446" lon="1.39251">
        <ele>126</ele>
        <time>2025-04-16T10:39:52Z</time>
      </trkpt>
      <trkpt lat="43.64447" lon="1.39253">
        <ele>126</ele>
        <time>2025-04-16T10:39:53Z</time>
      </trkpt>
      <trkpt lat="43.64448" lon="1.39256">
        <ele>126</ele>
        <time>2025-04-16T10:39:54Z</time>
      </trkpt>
      <trkpt lat="43.6445" lon="1.39258">
        <ele>126</ele>
        <time>2025-04-16T10:39:55Z</time>
      </trkpt>
      <trkpt lat="43.64451" lon="1.3926">
        <ele>126</ele>
        <time>2025-04-16T10:39:56Z</time>
      </trkpt>
      <trkpt lat="43.64452" lon="1.39263">
        <ele>127</ele>
        <time>2025-04-16T10:39:57Z</time>
      </trkpt>
      <trkpt lat="43.64452" lon="1.39266">
        <ele>127</ele>
        <time>2025-04-16T10:39:58Z</time>
      </trkpt>
      <trkpt lat="43.64453" lon="1.39269">
        <ele>127</ele>
        <time>2025-04-16T10:39:59Z</time>
      </trkpt>
      <trkpt lat="43.64454" lon="1.39272">
        <ele>127</ele>
        <time>2025-04-16T10:40:00Z</time>
      </trkpt>
      <trkpt lat="43.64455" lon="1.39275">
        <ele>127</ele>
        <time>2025-04-16T10:40:01Z</time>
      </trkpt>
      <trkpt lat="43.64455" lon="1.39278">
        <ele>127</ele>
        <time>2025-04-16T10:40:02Z</time>
      </trkpt>
      <trkpt lat="43.64456" lon="1.39281">
        <ele>127</ele>
        <time>2025-04-16T10:40:03Z</time>
      </trkpt>
      <trkpt lat="43.64457" lon="1.39284">
        <ele>127</ele>
        <time>2025-04-16T10:40:04Z</time>
      </trkpt>
      <trkpt lat="43.64458" lon="1.39287">
        <ele>127</ele>
        <time>2025-04-16T10:40:05Z</time>
      </trkpt>
      <trkpt lat="43.64459" lon="1.3929">
        <ele>127</ele>
        <time>2025-04-16T10:40:06Z</time>
      </trkpt>
      <trkpt lat="43.6446" lon="1.39293">
        <ele>127</ele>
        <time>2025-04-16T10:40:07Z</time>
      </trkpt>
      <trkpt lat="43.6446" lon="1.39295">
        <ele>127</ele>
        <time>2025-04-16T10:40:08Z</time>
      </trkpt>
      <trkpt lat="43.64461" lon="1.39298">
        <ele>127</ele>
        <time>2025-04-16T10:40:09Z</time>
      </trkpt>
      <trkpt lat="43.64461" lon="1.39302">
        <ele>126</ele>
        <time>2025-04-16T10:40:10Z</time>
      </trkpt>
      <trkpt lat="43.6446" lon="1.39305">
        <ele>126</ele>
        <time>2025-04-16T10:40:11Z</time>
      </trkpt>
      <trkpt lat="43.64457" lon="1.39307">
        <ele>126</ele>
        <time>2025-04-16T10:40:12Z</time>
      </trkpt>
      <trkpt lat="43.64454" lon="1.39309">
        <ele>127</ele>
        <time>2025-04-16T10:40:13Z</time>
      </trkpt>
      <trkpt lat="43.64452" lon="1.3931">
        <ele>127</ele>
        <time>2025-04-16T10:40:14Z</time>
      </trkpt>
      <trkpt lat="43.6445" lon="1.39311">
        <ele>127</ele>
        <time>2025-04-16T10:40:15Z</time>
      </trkpt>
      <trkpt lat="43.64448" lon="1.39312">
        <ele>127</ele>
        <time>2025-04-16T10:40:16Z</time>
      </trkpt>
      <trkpt lat="43.64447" lon="1.39312">
        <ele>127</ele>
        <time>2025-04-16T10:40:17Z</time>
      </trkpt>
      <trkpt lat="43.64445" lon="1.39312">
        <ele>126</ele>
        <time>2025-04-16T10:40:18Z</time>
      </trkpt>
      <trkpt lat="43.64443" lon="1.39312">
        <ele>126</ele>
        <time>2025-04-16T10:40:19Z</time>
      </trkpt>
      <trkpt lat="43.64443" lon="1.39312">
        <ele>126</ele>
        <time>2025-04-16T10:40:20Z</time>
      </trkpt>
      <trkpt lat="43.64435" lon="1.39313">
        <ele>126</ele>
        <time>2025-04-16T10:40:21Z</time>
      </trkpt>
      <trkpt lat="43.64433" lon="1.39313">
        <ele>126</ele>
        <time>2025-04-16T10:40:22Z</time>
      </trkpt>
      <trkpt lat="43.64431" lon="1.39313">
        <ele>126</ele>
        <time>2025-04-16T10:40:23Z</time>
      </trkpt>
      <trkpt lat="43.64428" lon="1.39313">
        <ele>126</ele>
        <time>2025-04-16T10:40:24Z</time>
      </trkpt>
      <trkpt lat="43.64426" lon="1.39313">
        <ele>126</ele>
        <time>2025-04-16T10:40:25Z</time>
      </trkpt>
      <trkpt lat="43.64423" lon="1.39313">
        <ele>126</ele>
        <time>2025-04-16T10:40:26Z</time>
      </trkpt>
      <trkpt lat="43.64421" lon="1.39313">
        <ele>126</ele>
        <time>2025-04-16T10:40:27Z</time>
      </trkpt>
      <trkpt lat="43.64419" lon="1.39314">
        <ele>126</ele>
        <time>2025-04-16T10:40:28Z</time>
      </trkpt>
      <trkpt lat="43.64417" lon="1.39314">
        <ele>126</ele>
        <time>2025-04-16T10:40:29Z</time>
      </trkpt>
      <trkpt lat="43.64415" lon="1.39314">
        <ele>125</ele>
        <time>2025-04-16T10:40:30Z</time>
      </trkpt>
      <trkpt lat="43.64412" lon="1.39314">
        <ele>125</ele>
        <time>2025-04-16T10:40:31Z</time>
      </trkpt>
      <trkpt lat="43.6441" lon="1.39314">
        <ele>125</ele>
        <time>2025-04-16T10:40:32Z</time>
      </trkpt>
      <trkpt lat="43.64408" lon="1.39314">
        <ele>125</ele>
        <time>2025-04-16T10:40:33Z</time>
      </trkpt>
      <trkpt lat="43.64406" lon="1.39314">
        <ele>125</ele>
        <time>2025-04-16T10:40:34Z</time>
      </trkpt>
      <trkpt lat="43.64404" lon="1.39315">
        <ele>124</ele>
        <time>2025-04-16T10:40:35Z</time>
      </trkpt>
      <trkpt lat="43.64404" lon="1.39315">
        <ele>124</ele>
        <time>2025-04-16T10:40:36Z</time>
      </trkpt>
      <trkpt lat="43.64402" lon="1.39315">
        <ele>124</ele>
        <time>2025-04-16T10:40:37Z</time>
      </trkpt>
      <trkpt lat="43.64402" lon="1.39315">
        <ele>124</ele>
        <time>2025-04-16T10:40:38Z</time>
      </trkpt>
      <trkpt lat="43.64402" lon="1.39315">
        <ele>124</ele>
        <time>2025-04-16T10:40:39Z</time>
      </trkpt>
      <trkpt lat="43.64402" lon="1.39315">
        <ele>124</ele>
        <time>2025-04-16T10:40:40Z</time>
      </trkpt>
      <trkpt lat="43.64404" lon="1.39315">
        <ele>125</ele>
        <time>2025-04-16T10:40:41Z</time>
      </trkpt>
      <trkpt lat="43.64404" lon="1.39315">
        <ele>125</ele>
        <time>2025-04-16T10:40:42Z</time>
      </trkpt>
      <trkpt lat="43.64406" lon="1.39314">
        <ele>125</ele>
        <time>2025-04-16T10:40:43Z</time>
      </trkpt>
      <trkpt lat="43.64406" lon="1.39314">
        <ele>125</ele>
        <time>2025-04-16T10:40:44Z</time>
      </trkpt>
      <trkpt lat="43.64406" lon="1.39314">
        <ele>125</ele>
        <time>2025-04-16T10:40:45Z</time>
      </trkpt>
      <trkpt lat="43.64406" lon="1.39314">
        <ele>126</ele>
        <time>2025-04-16T10:40:46Z</time>
      </trkpt>
      <trkpt lat="43.64406" lon="1.39314">
        <ele>126</ele>
        <time>2025-04-16T10:40:47Z</time>
      </trkpt>
      <trkpt lat="43.64406" lon="1.39314">
        <ele>126</ele>
        <time>2025-04-16T10:40:48Z</time>
      </trkpt>
      <trkpt lat="43.64408" lon="1.39312">
        <ele>126</ele>
        <time>2025-04-16T10:40:49Z</time>
      </trkpt>
      <trkpt lat="43.64408" lon="1.39312">
        <ele>126</ele>
        <time>2025-04-16T10:40:50Z</time>
      </trkpt>
      <trkpt lat="43.64411" lon="1.39312">
        <ele>126</ele>
        <time>2025-04-16T10:40:51Z</time>
      </trkpt>
      <trkpt lat="43.64411" lon="1.39312">
        <ele>126</ele>
        <time>2025-04-16T10:40:52Z</time>
      </trkpt>
      <trkpt lat="43.64415" lon="1.39311">
        <ele>126</ele>
        <time>2025-04-16T10:40:53Z</time>
      </trkpt>
      <trkpt lat="43.64417" lon="1.3931">
        <ele>126</ele>
        <time>2025-04-16T10:40:54Z</time>
      </trkpt>
      <trkpt lat="43.64417" lon="1.3931">
        <ele>126</ele>
        <time>2025-04-16T10:40:55Z</time>
      </trkpt>
      <trkpt lat="43.6442" lon="1.39309">
        <ele>125</ele>
        <time>2025-04-16T10:40:56Z</time>
      </trkpt>
      <trkpt lat="43.64423" lon="1.39308">
        <ele>124</ele>
        <time>2025-04-16T10:40:57Z</time>
      </trkpt>
      <trkpt lat="43.64427" lon="1.39307">
        <ele>124</ele>
        <time>2025-04-16T10:40:58Z</time>
      </trkpt>
      <trkpt lat="43.6443" lon="1.39307">
        <ele>125</ele>
        <time>2025-04-16T10:40:59Z</time>
      </trkpt>
      <trkpt lat="43.64434" lon="1.39307">
        <ele>125</ele>
        <time>2025-04-16T10:41:00Z</time>
      </trkpt>
      <trkpt lat="43.64438" lon="1.39307">
        <ele>125</ele>
        <time>2025-04-16T10:41:01Z</time>
      </trkpt>
      <trkpt lat="43.64441" lon="1.39307">
        <ele>125</ele>
        <time>2025-04-16T10:41:02Z</time>
      </trkpt>
      <trkpt lat="43.64444" lon="1.39307">
        <ele>125</ele>
        <time>2025-04-16T10:41:03Z</time>
      </trkpt>
      <trkpt lat="43.64446" lon="1.39306">
        <ele>125</ele>
        <time>2025-04-16T10:41:04Z</time>
      </trkpt>
      <trkpt lat="43.64446" lon="1.39306">
        <ele>125</ele>
        <time>2025-04-16T10:41:05Z</time>
      </trkpt>
      <trkpt lat="43.64452" lon="1.39298">
        <ele>126</ele>
        <time>2025-04-16T10:41:06Z</time>
      </trkpt>
      <trkpt lat="43.64453" lon="1.39296">
        <ele>126</ele>
        <time>2025-04-16T10:41:07Z</time>
      </trkpt>
      <trkpt lat="43.64452" lon="1.39291">
        <ele>126</ele>
        <time>2025-04-16T10:41:08Z</time>
      </trkpt>
      <trkpt lat="43.64451" lon="1.39286">
        <ele>126</ele>
        <time>2025-04-16T10:41:09Z</time>
      </trkpt>
      <trkpt lat="43.64451" lon="1.39281">
        <ele>127</ele>
        <time>2025-04-16T10:41:10Z</time>
      </trkpt>
      <trkpt lat="43.6445" lon="1.39276">
        <ele>127</ele>
        <time>2025-04-16T10:41:11Z</time>
      </trkpt>
      <trkpt lat="43.64449" lon="1.3927">
        <ele>126</ele>
        <time>2025-04-16T10:41:12Z</time>
      </trkpt>
      <trkpt lat="43.64448" lon="1.39265">
        <ele>126</ele>
        <time>2025-04-16T10:41:13Z</time>
      </trkpt>
      <trkpt lat="43.64446" lon="1.3926">
        <ele>126</ele>
        <time>2025-04-16T10:41:14Z</time>
      </trkpt>
      <trkpt lat="43.64444" lon="1.39255">
        <ele>126</ele>
        <time>2025-04-16T10:41:15Z</time>
      </trkpt>
      <trkpt lat="43.64441" lon="1.3925">
        <ele>126</ele>
        <time>2025-04-16T10:41:16Z</time>
      </trkpt>
      <trkpt lat="43.64439" lon="1.39245">
        <ele>126</ele>
        <time>2025-04-16T10:41:17Z</time>
      </trkpt>
      <trkpt lat="43.64437" lon="1.39241">
        <ele>126</ele>
        <time>2025-04-16T10:41:18Z</time>
      </trkpt>
      <trkpt lat="43.64434" lon="1.39236">
        <ele>127</ele>
        <time>2025-04-16T10:41:19Z</time>
      </trkpt>
      <trkpt lat="43.64432" lon="1.39231">
        <ele>127</ele>
        <time>2025-04-16T10:41:20Z</time>
      </trkpt>
      <trkpt lat="43.6443" lon="1.39227">
        <ele>127</ele>
        <time>2025-04-16T10:41:21Z</time>
      </trkpt>
      <trkpt lat="43.64427" lon="1.39222">
        <ele>127</ele>
        <time>2025-04-16T10:41:22Z</time>
      </trkpt>
      <trkpt lat="43.64425" lon="1.39218">
        <ele>127</ele>
        <time>2025-04-16T10:41:23Z</time>
      </trkpt>
      <trkpt lat="43.64423" lon="1.39213">
        <ele>127</ele>
        <time>2025-04-16T10:41:24Z</time>
      </trkpt>
      <trkpt lat="43.6442" lon="1.39209">
        <ele>127</ele>
        <time>2025-04-16T10:41:25Z</time>
      </trkpt>
      <trkpt lat="43.64418" lon="1.39206">
        <ele>127</ele>
        <time>2025-04-16T10:41:26Z</time>
      </trkpt>
      <trkpt lat="43.64417" lon="1.39201">
        <ele>127</ele>
        <time>2025-04-16T10:41:27Z</time>
      </trkpt>
      <trkpt lat="43.64415" lon="1.39197">
        <ele>127</ele>
        <time>2025-04-16T10:41:28Z</time>
      </trkpt>
      <trkpt lat="43.64413" lon="1.39192">
        <ele>128</ele>
        <time>2025-04-16T10:41:29Z</time>
      </trkpt>
      <trkpt lat="43.64412" lon="1.39188">
        <ele>129</ele>
        <time>2025-04-16T10:41:30Z</time>
      </trkpt>
      <trkpt lat="43.6441" lon="1.39183">
        <ele>129</ele>
        <time>2025-04-16T10:41:31Z</time>
      </trkpt>
      <trkpt lat="43.6441" lon="1.39179">
        <ele>130</ele>
        <time>2025-04-16T10:41:32Z</time>
      </trkpt>
      <trkpt lat="43.6441" lon="1.39174">
        <ele>130</ele>
        <time>2025-04-16T10:41:33Z</time>
      </trkpt>
      <trkpt lat="43.64409" lon="1.39169">
        <ele>131</ele>
        <time>2025-04-16T10:41:34Z</time>
      </trkpt>
      <trkpt lat="43.6441" lon="1.39163">
        <ele>131</ele>
        <time>2025-04-16T10:41:35Z</time>
      </trkpt>
      <trkpt lat="43.6441" lon="1.39158">
        <ele>131</ele>
        <time>2025-04-16T10:41:36Z</time>
      </trkpt>
      <trkpt lat="43.6441" lon="1.39153">
        <ele>131</ele>
        <time>2025-04-16T10:41:37Z</time>
      </trkpt>
      <trkpt lat="43.64411" lon="1.39149">
        <ele>131</ele>
        <time>2025-04-16T10:41:38Z</time>
      </trkpt>
      <trkpt lat="43.64412" lon="1.39144">
        <ele>131</ele>
        <time>2025-04-16T10:41:39Z</time>
      </trkpt>
      <trkpt lat="43.64412" lon="1.3914">
        <ele>132</ele>
        <time>2025-04-16T10:41:40Z</time>
      </trkpt>
      <trkpt lat="43.64414" lon="1.39136">
        <ele>133</ele>
        <time>2025-04-16T10:41:41Z</time>
      </trkpt>
      <trkpt lat="43.64415" lon="1.39132">
        <ele>133</ele>
        <time>2025-04-16T10:41:42Z</time>
      </trkpt>
      <trkpt lat="43.64416" lon="1.39128">
        <ele>134</ele>
        <time>2025-04-16T10:41:43Z</time>
      </trkpt>
      <trkpt lat="43.64418" lon="1.39123">
        <ele>134</ele>
        <time>2025-04-16T10:41:44Z</time>
      </trkpt>
      <trkpt lat="43.64419" lon="1.3912">
        <ele>135</ele>
        <time>2025-04-16T10:41:45Z</time>
      </trkpt>
      <trkpt lat="43.64419" lon="1.3912">
        <ele>135</ele>
        <time>2025-04-16T10:41:46Z</time>
      </trkpt>
      <trkpt lat="43.64419" lon="1.3912">
        <ele>136</ele>
        <time>2025-04-16T10:41:47Z</time>
      </trkpt>
      <trkpt lat="43.64419" lon="1.3912">
        <ele>137</ele>
        <time>2025-04-16T10:41:48Z</time>
      </trkpt>
      <trkpt lat="43.64419" lon="1.3912">
        <ele>137</ele>
        <time>2025-04-16T10:41:49Z</time>
      </trkpt>
      <trkpt lat="43.64419" lon="1.3912">
        <ele>137</ele>
        <time>2025-04-16T10:41:50Z</time>
      </trkpt>
      <trkpt lat="43.64419" lon="1.39123">
        <ele>136</ele>
        <time>2025-04-16T10:41:51Z</time>
      </trkpt>
      <trkpt lat="43.64419" lon="1.39126">
        <ele>136</ele>
        <time>2025-04-16T10:41:52Z</time>
      </trkpt>
      <trkpt lat="43.64419" lon="1.39126">
        <ele>136</ele>
        <time>2025-04-16T10:41:53Z</time>
      </trkpt>
      <trkpt lat="43.64418" lon="1.39128">
        <ele>136</ele>
        <time>2025-04-16T10:41:54Z</time>
      </trkpt>
      <trkpt lat="43.64418" lon="1.39131">
        <ele>136</ele>
        <time>2025-04-16T10:41:55Z</time>
      </trkpt>
      <trkpt lat="43.64418" lon="1.39134">
        <ele>136</ele>
        <time>2025-04-16T10:41:56Z</time>
      </trkpt>
      <trkpt lat="43.64418" lon="1.39136">
        <ele>135</ele>
        <time>2025-04-16T10:41:57Z</time>
      </trkpt>
      <trkpt lat="43.64417" lon="1.39139">
        <ele>135</ele>
        <time>2025-04-16T10:41:58Z</time>
      </trkpt>
      <trkpt lat="43.64415" lon="1.39146">
        <ele>134</ele>
        <time>2025-04-16T10:41:59Z</time>
      </trkpt>
      <trkpt lat="43.64415" lon="1.39148">
        <ele>134</ele>
        <time>2025-04-16T10:42:00Z</time>
      </trkpt>
      <trkpt lat="43.64414" lon="1.39151">
        <ele>134</ele>
        <time>2025-04-16T10:42:01Z</time>
      </trkpt>
      <trkpt lat="43.64413" lon="1.39154">
        <ele>134</ele>
        <time>2025-04-16T10:42:02Z</time>
      </trkpt>
      <trkpt lat="43.64413" lon="1.39157">
        <ele>134</ele>
        <time>2025-04-16T10:42:03Z</time>
      </trkpt>
      <trkpt lat="43.64413" lon="1.3916">
        <ele>134</ele>
        <time>2025-04-16T10:42:04Z</time>
      </trkpt>
      <trkpt lat="43.64412" lon="1.39163">
        <ele>134</ele>
        <time>2025-04-16T10:42:05Z</time>
      </trkpt>
      <trkpt lat="43.64412" lon="1.39166">
        <ele>134</ele>
        <time>2025-04-16T10:42:06Z</time>
      </trkpt>
      <trkpt lat="43.64412" lon="1.39169">
        <ele>133</ele>
        <time>2025-04-16T10:42:07Z</time>
      </trkpt>
      <trkpt lat="43.64412" lon="1.39172">
        <ele>133</ele>
        <time>2025-04-16T10:42:08Z</time>
      </trkpt>
      <trkpt lat="43.64411" lon="1.39175">
        <ele>132</ele>
        <time>2025-04-16T10:42:09Z</time>
      </trkpt>
      <trkpt lat="43.64412" lon="1.39177">
        <ele>132</ele>
        <time>2025-04-16T10:42:10Z</time>
      </trkpt>
      <trkpt lat="43.64412" lon="1.3918">
        <ele>132</ele>
        <time>2025-04-16T10:42:11Z</time>
      </trkpt>
      <trkpt lat="43.64413" lon="1.39183">
        <ele>132</ele>
        <time>2025-04-16T10:42:12Z</time>
      </trkpt>
      <trkpt lat="43.64413" lon="1.39186">
        <ele>132</ele>
        <time>2025-04-16T10:42:13Z</time>
      </trkpt>
      <trkpt lat="43.64414" lon="1.39188">
        <ele>131</ele>
        <time>2025-04-16T10:42:14Z</time>
      </trkpt>
      <trkpt lat="43.64415" lon="1.39191">
        <ele>130</ele>
        <time>2025-04-16T10:42:15Z</time>
      </trkpt>
      <trkpt lat="43.64415" lon="1.39193">
        <ele>130</ele>
        <time>2025-04-16T10:42:16Z</time>
      </trkpt>
      <trkpt lat="43.64417" lon="1.39195">
        <ele>130</ele>
        <time>2025-04-16T10:42:17Z</time>
      </trkpt>
      <trkpt lat="43.64417" lon="1.39198">
        <ele>130</ele>
        <time>2025-04-16T10:42:18Z</time>
      </trkpt>
      <trkpt lat="43.64418" lon="1.392">
        <ele>130</ele>
        <time>2025-04-16T10:42:19Z</time>
      </trkpt>
      <trkpt lat="43.64418" lon="1.392">
        <ele>130</ele>
        <time>2025-04-16T10:42:20Z</time>
      </trkpt>
      <trkpt lat="43.6442" lon="1.39205">
        <ele>130</ele>
        <time>2025-04-16T10:42:21Z</time>
      </trkpt>
      <trkpt lat="43.64421" lon="1.39208">
        <ele>130</ele>
        <time>2025-04-16T10:42:22Z</time>
      </trkpt>
      <trkpt lat="43.64422" lon="1.3921">
        <ele>130</ele>
        <time>2025-04-16T10:42:23Z</time>
      </trkpt>
      <trkpt lat="43.64424" lon="1.39211">
        <ele>130</ele>
        <time>2025-04-16T10:42:24Z</time>
      </trkpt>
      <trkpt lat="43.64426" lon="1.39213">
        <ele>130</ele>
        <time>2025-04-16T10:42:25Z</time>
      </trkpt>
      <trkpt lat="43.64428" lon="1.39215">
        <ele>129</ele>
        <time>2025-04-16T10:42:26Z</time>
      </trkpt>
      <trkpt lat="43.64429" lon="1.39218">
        <ele>129</ele>
        <time>2025-04-16T10:42:27Z</time>
      </trkpt>
      <trkpt lat="43.64429" lon="1.39218">
        <ele>129</ele>
        <time>2025-04-16T10:42:28Z</time>
      </trkpt>
      <trkpt lat="43.64431" lon="1.39223">
        <ele>128</ele>
        <time>2025-04-16T10:42:29Z</time>
      </trkpt>
      <trkpt lat="43.64433" lon="1.39225">
        <ele>128</ele>
        <time>2025-04-16T10:42:30Z</time>
      </trkpt>
      <trkpt lat="43.64434" lon="1.39227">
        <ele>128</ele>
        <time>2025-04-16T10:42:31Z</time>
      </trkpt>
      <trkpt lat="43.64435" lon="1.39229">
        <ele>128</ele>
        <time>2025-04-16T10:42:32Z</time>
      </trkpt>
      <trkpt lat="43.64437" lon="1.39231">
        <ele>128</ele>
        <time>2025-04-16T10:42:33Z</time>
      </trkpt>
      <trkpt lat="43.64438" lon="1.39234">
        <ele>127</ele>
        <time>2025-04-16T10:42:34Z</time>
      </trkpt>
      <trkpt lat="43.64439" lon="1.39236">
        <ele>127</ele>
        <time>2025-04-16T10:42:35Z</time>
      </trkpt>
      <trkpt lat="43.64441" lon="1.39239">
        <ele>127</ele>
        <time>2025-04-16T10:42:36Z</time>
      </trkpt>
      <trkpt lat="43.64442" lon="1.39241">
        <ele>127</ele>
        <time>2025-04-16T10:42:37Z</time>
      </trkpt>
      <trkpt lat="43.64443" lon="1.39244">
        <ele>126</ele>
        <time>2025-04-16T10:42:38Z</time>
      </trkpt>
      <trkpt lat="43.64445" lon="1.39247">
        <ele>126</ele>
        <time>2025-04-16T10:42:39Z</time>
      </trkpt>
      <trkpt lat="43.64446" lon="1.39251">
        <ele>126</ele>
        <time>2025-04-16T10:42:40Z</time>
      </trkpt>
      <trkpt lat="43.64448" lon="1.39253">
        <ele>126</ele>
        <time>2025-04-16T10:42:41Z</time>
      </trkpt>
      <trkpt lat="43.6445" lon="1.39256">
        <ele>126</ele>
        <time>2025-04-16T10:42:42Z</time>
      </trkpt>
      <trkpt lat="43.64451" lon="1.39259">
        <ele>126</ele>
        <time>2025-04-16T10:42:43Z</time>
      </trkpt>
      <trkpt lat="43.64452" lon="1.39261">
        <ele>126</ele>
        <time>2025-04-16T10:42:44Z</time>
      </trkpt>
      <trkpt lat="43.64453" lon="1.39265">
        <ele>126</ele>
        <time>2025-04-16T10:42:45Z</time>
      </trkpt>
      <trkpt lat="43.64453" lon="1.39268">
        <ele>126</ele>
        <time>2025-04-16T10:42:46Z</time>
      </trkpt>
      <trkpt lat="43.64454" lon="1.39271">
        <ele>127</ele>
        <time>2025-04-16T10:42:47Z</time>
      </trkpt>
      <trkpt lat="43.64454" lon="1.39274">
        <ele>127</ele>
        <time>2025-04-16T10:42:48Z</time>
      </trkpt>
      <trkpt lat="43.64455" lon="1.39277">
        <ele>127</ele>
        <time>2025-04-16T10:42:49Z</time>
      </trkpt>
      <trkpt lat="43.64455" lon="1.3928">
        <ele>127</ele>
        <time>2025-04-16T10:42:50Z</time>
      </trkpt>
      <trkpt lat="43.64456" lon="1.39283">
        <ele>127</ele>
        <time>2025-04-16T10:42:51Z</time>
      </trkpt>
      <trkpt lat="43.64456" lon="1.39286">
        <ele>126</ele>
        <time>2025-04-16T10:42:52Z</time>
      </trkpt>
      <trkpt lat="43.64456" lon="1.39289">
        <ele>126</ele>
        <time>2025-04-16T10:42:53Z</time>
      </trkpt>
      <trkpt lat="43.64457" lon="1.39292">
        <ele>126</ele>
        <time>2025-04-16T10:42:54Z</time>
      </trkpt>
      <trkpt lat="43.64458" lon="1.39295">
        <ele>126</ele>
        <time>2025-04-16T10:42:55Z</time>
      </trkpt>
      <trkpt lat="43.64459" lon="1.39297">
        <ele>126</ele>
        <time>2025-04-16T10:42:56Z</time>
      </trkpt>
      <trkpt lat="43.6446" lon="1.39301">
        <ele>126</ele>
        <time>2025-04-16T10:42:57Z</time>
      </trkpt>
      <trkpt lat="43.64459" lon="1.39304">
        <ele>126</ele>
        <time>2025-04-16T10:42:58Z</time>
      </trkpt>
      <trkpt lat="43.64459" lon="1.39307">
        <ele>126</ele>
        <time>2025-04-16T10:42:59Z</time>
      </trkpt>
      <trkpt lat="43.64456" lon="1.3931">
        <ele>126</ele>
        <time>2025-04-16T10:43:00Z</time>
      </trkpt>
      <trkpt lat="43.64453" lon="1.39311">
        <ele>126</ele>
        <time>2025-04-16T10:43:01Z</time>
      </trkpt>
      <trkpt lat="43.64451" lon="1.39313">
        <ele>126</ele>
        <time>2025-04-16T10:43:02Z</time>
      </trkpt>
      <trkpt lat="43.64449" lon="1.39313">
        <ele>126</ele>
        <time>2025-04-16T10:43:03Z</time>
      </trkpt>
      <trkpt lat="43.64447" lon="1.39313">
        <ele>126</ele>
        <time>2025-04-16T10:43:04Z</time>
      </trkpt>
      <trkpt lat="43.64444" lon="1.39313">
        <ele>125</ele>
        <time>2025-04-16T10:43:05Z</time>
      </trkpt>
      <trkpt lat="43.64444" lon="1.39313">
        <ele>125</ele>
        <time>2025-04-16T10:43:06Z</time>
      </trkpt>
      <trkpt lat="43.64437" lon="1.39314">
        <ele>125</ele>
        <time>2025-04-16T10:43:07Z</time>
      </trkpt>
      <trkpt lat="43.64435" lon="1.39314">
        <ele>125</ele>
        <time>2025-04-16T10:43:08Z</time>
      </trkpt>
      <trkpt lat="43.64432" lon="1.39314">
        <ele>125</ele>
        <time>2025-04-16T10:43:09Z</time>
      </trkpt>
      <trkpt lat="43.6443" lon="1.39314">
        <ele>125</ele>
        <time>2025-04-16T10:43:10Z</time>
      </trkpt>
      <trkpt lat="43.64427" lon="1.39314">
        <ele>125</ele>
        <time>2025-04-16T10:43:11Z</time>
      </trkpt>
      <trkpt lat="43.64424" lon="1.39314">
        <ele>125</ele>
        <time>2025-04-16T10:43:12Z</time>
      </trkpt>
      <trkpt lat="43.64422" lon="1.39314">
        <ele>125</ele>
        <time>2025-04-16T10:43:13Z</time>
      </trkpt>
      <trkpt lat="43.6442" lon="1.39314">
        <ele>125</ele>
        <time>2025-04-16T10:43:14Z</time>
      </trkpt>
      <trkpt lat="43.64417" lon="1.39314">
        <ele>125</ele>
        <time>2025-04-16T10:43:15Z</time>
      </trkpt>
      <trkpt lat="43.64415" lon="1.39315">
        <ele>124</ele>
        <time>2025-04-16T10:43:16Z</time>
      </trkpt>
      <trkpt lat="43.64413" lon="1.39315">
        <ele>124</ele>
        <time>2025-04-16T10:43:17Z</time>
      </trkpt>
      <trkpt lat="43.6441" lon="1.39315">
        <ele>124</ele>
        <time>2025-04-16T10:43:18Z</time>
      </trkpt>
      <trkpt lat="43.64408" lon="1.39315">
        <ele>124</ele>
        <time>2025-04-16T10:43:19Z</time>
      </trkpt>
      <trkpt lat="43.64406" lon="1.39314">
        <ele>124</ele>
        <time>2025-04-16T10:43:20Z</time>
      </trkpt>
      <trkpt lat="43.64406" lon="1.39314">
        <ele>124</ele>
        <time>2025-04-16T10:43:21Z</time>
      </trkpt>
      <trkpt lat="43.64403" lon="1.39314">
        <ele>123</ele>
        <time>2025-04-16T10:43:22Z</time>
      </trkpt>
      <trkpt lat="43.64403" lon="1.39314">
        <ele>123</ele>
        <time>2025-04-16T10:43:23Z</time>
      </trkpt>
      <trkpt lat="43.64401" lon="1.39316">
        <ele>123</ele>
        <time>2025-04-16T10:43:24Z</time>
      </trkpt>
      <trkpt lat="43.64401" lon="1.39316">
        <ele>123</ele>
        <time>2025-04-16T10:43:25Z</time>
      </trkpt>
      <trkpt lat="43.64401" lon="1.39316">
        <ele>123</ele>
        <time>2025-04-16T10:43:26Z</time>
      </trkpt>
      <trkpt lat="43.64404" lon="1.39315">
        <ele>123</ele>
        <time>2025-04-16T10:43:27Z</time>
      </trkpt>
      <trkpt lat="43.64404" lon="1.39315">
        <ele>124</ele>
        <time>2025-04-16T10:43:28Z</time>
      </trkpt>
      <trkpt lat="43.64408" lon="1.39314">
        <ele>124</ele>
        <time>2025-04-16T10:43:29Z</time>
      </trkpt>
      <trkpt lat="43.64411" lon="1.39313">
        <ele>124</ele>
        <time>2025-04-16T10:43:30Z</time>
      </trkpt>
      <trkpt lat="43.64414" lon="1.39312">
        <ele>123</ele>
        <time>2025-04-16T10:43:31Z</time>
      </trkpt>
      <trkpt lat="43.64418" lon="1.3931">
        <ele>123</ele>
        <time>2025-04-16T10:43:32Z</time>
      </trkpt>
      <trkpt lat="43.64422" lon="1.3931">
        <ele>123</ele>
        <time>2025-04-16T10:43:33Z</time>
      </trkpt>
      <trkpt lat="43.64425" lon="1.39308">
        <ele>123</ele>
        <time>2025-04-16T10:43:34Z</time>
      </trkpt>
      <trkpt lat="43.6443" lon="1.39308">
        <ele>123</ele>
        <time>2025-04-16T10:43:35Z</time>
      </trkpt>
      <trkpt lat="43.64433" lon="1.39307">
        <ele>123</ele>
        <time>2025-04-16T10:43:36Z</time>
      </trkpt>
      <trkpt lat="43.64437" lon="1.39306">
        <ele>123</ele>
        <time>2025-04-16T10:43:37Z</time>
      </trkpt>
      <trkpt lat="43.6444" lon="1.39306">
        <ele>123</ele>
        <time>2025-04-16T10:43:38Z</time>
      </trkpt>
      <trkpt lat="43.64444" lon="1.39306">
        <ele>124</ele>
        <time>2025-04-16T10:43:39Z</time>
      </trkpt>
      <trkpt lat="43.64444" lon="1.39306">
        <ele>124</ele>
        <time>2025-04-16T10:43:40Z</time>
      </trkpt>
      <trkpt lat="43.64446" lon="1.39303">
        <ele>125</ele>
        <time>2025-04-16T10:43:41Z</time>
      </trkpt>
      <trkpt lat="43.64449" lon="1.393">
        <ele>125</ele>
        <time>2025-04-16T10:43:42Z</time>
      </trkpt>
      <trkpt lat="43.64451" lon="1.39297">
        <ele>125</ele>
        <time>2025-04-16T10:43:43Z</time>
      </trkpt>
      <trkpt lat="43.64454" lon="1.39294">
        <ele>126</ele>
        <time>2025-04-16T10:43:44Z</time>
      </trkpt>
      <trkpt lat="43.64454" lon="1.39289">
        <ele>126</ele>
        <time>2025-04-16T10:43:45Z</time>
      </trkpt>
      <trkpt lat="43.64454" lon="1.39284">
        <ele>126</ele>
        <time>2025-04-16T10:43:46Z</time>
      </trkpt>
      <trkpt lat="43.64452" lon="1.39279">
        <ele>126</ele>
        <time>2025-04-16T10:43:47Z</time>
      </trkpt>
      <trkpt lat="43.64451" lon="1.39274">
        <ele>126</ele>
        <time>2025-04-16T10:43:48Z</time>
      </trkpt>
      <trkpt lat="43.64449" lon="1.39269">
        <ele>126</ele>
        <time>2025-04-16T10:43:49Z</time>
      </trkpt>
      <trkpt lat="43.64447" lon="1.39264">
        <ele>126</ele>
        <time>2025-04-16T10:43:50Z</time>
      </trkpt>
      <trkpt lat="43.64445" lon="1.39258">
        <ele>126</ele>
        <time>2025-04-16T10:43:51Z</time>
      </trkpt>
      <trkpt lat="43.64443" lon="1.39254">
        <ele>126</ele>
        <time>2025-04-16T10:43:52Z</time>
      </trkpt>
      <trkpt lat="43.64441" lon="1.39249">
        <ele>126</ele>
        <time>2025-04-16T10:43:53Z</time>
      </trkpt>
      <trkpt lat="43.64438" lon="1.39244">
        <ele>125</ele>
        <time>2025-04-16T10:43:54Z</time>
      </trkpt>
      <trkpt lat="43.64435" lon="1.3924">
        <ele>125</ele>
        <time>2025-04-16T10:43:55Z</time>
      </trkpt>
      <trkpt lat="43.64433" lon="1.39235">
        <ele>126</ele>
        <time>2025-04-16T10:43:56Z</time>
      </trkpt>
      <trkpt lat="43.6443" lon="1.3923">
        <ele>126</ele>
        <time>2025-04-16T10:43:57Z</time>
      </trkpt>
      <trkpt lat="43.64427" lon="1.39225">
        <ele>126</ele>
        <time>2025-04-16T10:43:58Z</time>
      </trkpt>
      <trkpt lat="43.64425" lon="1.3922">
        <ele>127</ele>
        <time>2025-04-16T10:43:59Z</time>
      </trkpt>
      <trkpt lat="43.64423" lon="1.39215">
        <ele>127</ele>
        <time>2025-04-16T10:44:00Z</time>
      </trkpt>
      <trkpt lat="43.6442" lon="1.39211">
        <ele>127</ele>
        <time>2025-04-16T10:44:01Z</time>
      </trkpt>
      <trkpt lat="43.64419" lon="1.39205">
        <ele>127</ele>
        <time>2025-04-16T10:44:02Z</time>
      </trkpt>
      <trkpt lat="43.64416" lon="1.39201">
        <ele>128</ele>
        <time>2025-04-16T10:44:03Z</time>
      </trkpt>
      <trkpt lat="43.64414" lon="1.39197">
        <ele>128</ele>
        <time>2025-04-16T10:44:04Z</time>
      </trkpt>
      <trkpt lat="43.64412" lon="1.39193">
        <ele>129</ele>
        <time>2025-04-16T10:44:05Z</time>
      </trkpt>
      <trkpt lat="43.64411" lon="1.39188">
        <ele>129</ele>
        <time>2025-04-16T10:44:06Z</time>
      </trkpt>
      <trkpt lat="43.64409" lon="1.39184">
        <ele>129</ele>
        <time>2025-04-16T10:44:07Z</time>
      </trkpt>
      <trkpt lat="43.64409" lon="1.39179">
        <ele>130</ele>
        <time>2025-04-16T10:44:08Z</time>
      </trkpt>
      <trkpt lat="43.64408" lon="1.39173">
        <ele>130</ele>
        <time>2025-04-16T10:44:09Z</time>
      </trkpt>
      <trkpt lat="43.64408" lon="1.39168">
        <ele>130</ele>
        <time>2025-04-16T10:44:10Z</time>
      </trkpt>
      <trkpt lat="43.64408" lon="1.39164">
        <ele>130</ele>
        <time>2025-04-16T10:44:11Z</time>
      </trkpt>
      <trkpt lat="43.64408" lon="1.39159">
        <ele>130</ele>
        <time>2025-04-16T10:44:12Z</time>
      </trkpt>
      <trkpt lat="43.64408" lon="1.39154">
        <ele>131</ele>
        <time>2025-04-16T10:44:13Z</time>
      </trkpt>
      <trkpt lat="43.64409" lon="1.3915">
        <ele>132</ele>
        <time>2025-04-16T10:44:14Z</time>
      </trkpt>
      <trkpt lat="43.6441" lon="1.39146">
        <ele>133</ele>
        <time>2025-04-16T10:44:15Z</time>
      </trkpt>
      <trkpt lat="43.6441" lon="1.39146">
        <ele>133</ele>
        <time>2025-04-16T10:44:16Z</time>
      </trkpt>
      <trkpt lat="43.64412" lon="1.3914">
        <ele>133</ele>
        <time>2025-04-16T10:44:17Z</time>
      </trkpt>
      <trkpt lat="43.64413" lon="1.39134">
        <ele>134</ele>
        <time>2025-04-16T10:44:18Z</time>
      </trkpt>
      <trkpt lat="43.64414" lon="1.39129">
        <ele>134</ele>
        <time>2025-04-16T10:44:19Z</time>
      </trkpt>
      <trkpt lat="43.64416" lon="1.39125">
        <ele>134</ele>
        <time>2025-04-16T10:44:20Z</time>
      </trkpt>
      <trkpt lat="43.64416" lon="1.39121">
        <ele>135</ele>
        <time>2025-04-16T10:44:21Z</time>
      </trkpt>
      <trkpt lat="43.64417" lon="1.39117">
        <ele>135</ele>
        <time>2025-04-16T10:44:22Z</time>
      </trkpt>
      <trkpt lat="43.64417" lon="1.39117">
        <ele>135</ele>
        <time>2025-04-16T10:44:23Z</time>
      </trkpt>
      <trkpt lat="43.64417" lon="1.39117">
        <ele>136</ele>
        <time>2025-04-16T10:44:24Z</time>
      </trkpt>
      <trkpt lat="43.64417" lon="1.39117">
        <ele>137</ele>
        <time>2025-04-16T10:44:25Z</time>
      </trkpt>
      <trkpt lat="43.64417" lon="1.39117">
        <ele>137</ele>
        <time>2025-04-16T10:44:26Z</time>
      </trkpt>
      <trkpt lat="43.64417" lon="1.39121">
        <ele>137</ele>
        <time>2025-04-16T10:44:27Z</time>
      </trkpt>
      <trkpt lat="43.64417" lon="1.39121">
        <ele>136</ele>
        <time>2025-04-16T10:44:28Z</time>
      </trkpt>
      <trkpt lat="43.64417" lon="1.39126">
        <ele>136</ele>
        <time>2025-04-16T10:44:29Z</time>
      </trkpt>
      <trkpt lat="43.64417" lon="1.39129">
        <ele>136</ele>
        <time>2025-04-16T10:44:30Z</time>
      </trkpt>
      <trkpt lat="43.64417" lon="1.39131">
        <ele>136</ele>
        <time>2025-04-16T10:44:31Z</time>
      </trkpt>
      <trkpt lat="43.64416" lon="1.39134">
        <ele>135</ele>
        <time>2025-04-16T10:44:32Z</time>
      </trkpt>
      <trkpt lat="43.64416" lon="1.39134">
        <ele>134</ele>
        <time>2025-04-16T10:44:33Z</time>
      </trkpt>
      <trkpt lat="43.64415" lon="1.39141">
        <ele>134</ele>
        <time>2025-04-16T10:44:34Z</time>
      </trkpt>
      <trkpt lat="43.64415" lon="1.39142">
        <ele>134</ele>
        <time>2025-04-16T10:44:35Z</time>
      </trkpt>
      <trkpt lat="43.64415" lon="1.39145">
        <ele>134</ele>
        <time>2025-04-16T10:44:36Z</time>
      </trkpt>
      <trkpt lat="43.64414" lon="1.39148">
        <ele>134</ele>
        <time>2025-04-16T10:44:37Z</time>
      </trkpt>
      <trkpt lat="43.64413" lon="1.39152">
        <ele>134</ele>
        <time>2025-04-16T10:44:38Z</time>
      </trkpt>
      <trkpt lat="43.64412" lon="1.39156">
        <ele>134</ele>
        <time>2025-04-16T10:44:39Z</time>
      </trkpt>
      <trkpt lat="43.64412" lon="1.39159">
        <ele>134</ele>
        <time>2025-04-16T10:44:40Z</time>
      </trkpt>
      <trkpt lat="43.64411" lon="1.39162">
        <ele>134</ele>
        <time>2025-04-16T10:44:41Z</time>
      </trkpt>
      <trkpt lat="43.64411" lon="1.39164">
        <ele>134</ele>
        <time>2025-04-16T10:44:42Z</time>
      </trkpt>
      <trkpt lat="43.6441" lon="1.39167">
        <ele>134</ele>
        <time>2025-04-16T10:44:43Z</time>
      </trkpt>
      <trkpt lat="43.6441" lon="1.3917">
        <ele>134</ele>
        <time>2025-04-16T10:44:44Z</time>
      </trkpt>
      <trkpt lat="43.6441" lon="1.39173">
        <ele>133</ele>
        <time>2025-04-16T10:44:45Z</time>
      </trkpt>
      <trkpt lat="43.6441" lon="1.39176">
        <ele>132</ele>
        <time>2025-04-16T10:44:46Z</time>
      </trkpt>
      <trkpt lat="43.64411" lon="1.39178">
        <ele>132</ele>
        <time>2025-04-16T10:44:47Z</time>
      </trkpt>
      <trkpt lat="43.64411" lon="1.39181">
        <ele>132</ele>
        <time>2025-04-16T10:44:48Z</time>
      </trkpt>
      <trkpt lat="43.64411" lon="1.39184">
        <ele>132</ele>
        <time>2025-04-16T10:44:49Z</time>
      </trkpt>
      <trkpt lat="43.64412" lon="1.39187">
        <ele>131</ele>
        <time>2025-04-16T10:44:50Z</time>
      </trkpt>
      <trkpt lat="43.64413" lon="1.39189">
        <ele>131</ele>
        <time>2025-04-16T10:44:51Z</time>
      </trkpt>
      <trkpt lat="43.64413" lon="1.39189">
        <ele>131</ele>
        <time>2025-04-16T10:44:52Z</time>
      </trkpt>
      <trkpt lat="43.64415" lon="1.39194">
        <ele>131</ele>
        <time>2025-04-16T10:44:53Z</time>
      </trkpt>
      <trkpt lat="43.64416" lon="1.39196">
        <ele>130</ele>
        <time>2025-04-16T10:44:54Z</time>
      </trkpt>
      <trkpt lat="43.64417" lon="1.39198">
        <ele>130</ele>
        <time>2025-04-16T10:44:55Z</time>
      </trkpt>
      <trkpt lat="43.64418" lon="1.392">
        <ele>130</ele>
        <time>2025-04-16T10:44:56Z</time>
      </trkpt>
      <trkpt lat="43.64419" lon="1.39203">
        <ele>129</ele>
        <time>2025-04-16T10:44:57Z</time>
      </trkpt>
      <trkpt lat="43.6442" lon="1.39205">
        <ele>129</ele>
        <time>2025-04-16T10:44:58Z</time>
      </trkpt>
      <trkpt lat="43.64421" lon="1.39207">
        <ele>129</ele>
        <time>2025-04-16T10:44:59Z</time>
      </trkpt>
      <trkpt lat="43.64422" lon="1.3921">
        <ele>129</ele>
        <time>2025-04-16T10:45:00Z</time>
      </trkpt>
      <trkpt lat="43.64424" lon="1.39212">
        <ele>128</ele>
        <time>2025-04-16T10:45:01Z</time>
      </trkpt>
      <trkpt lat="43.64426" lon="1.39214">
        <ele>128</ele>
        <time>2025-04-16T10:45:02Z</time>
      </trkpt>
      <trkpt lat="43.64427" lon="1.39216">
        <ele>128</ele>
        <time>2025-04-16T10:45:03Z</time>
      </trkpt>
      <trkpt lat="43.64429" lon="1.39218">
        <ele>128</ele>
        <time>2025-04-16T10:45:04Z</time>
      </trkpt>
      <trkpt lat="43.6443" lon="1.3922">
        <ele>128</ele>
        <time>2025-04-16T10:45:05Z</time>
      </trkpt>
      <trkpt lat="43.64431" lon="1.39223">
        <ele>128</ele>
        <time>2025-04-16T10:45:06Z</time>
      </trkpt>
      <trkpt lat="43.64433" lon="1.39225">
        <ele>128</ele>
        <time>2025-04-16T10:45:07Z</time>
      </trkpt>
      <trkpt lat="43.64434" lon="1.39228">
        <ele>128</ele>
        <time>2025-04-16T10:45:08Z</time>
      </trkpt>
      <trkpt lat="43.64435" lon="1.3923">
        <ele>128</ele>
        <time>2025-04-16T10:45:09Z</time>
      </trkpt>
      <trkpt lat="43.64437" lon="1.39233">
        <ele>128</ele>
        <time>2025-04-16T10:45:10Z</time>
      </trkpt>
      <trkpt lat="43.64438" lon="1.39235">
        <ele>127</ele>
        <time>2025-04-16T10:45:11Z</time>
      </trkpt>
      <trkpt lat="43.6444" lon="1.39238">
        <ele>127</ele>
        <time>2025-04-16T10:45:12Z</time>
      </trkpt>
      <trkpt lat="43.64441" lon="1.3924">
        <ele>127</ele>
        <time>2025-04-16T10:45:13Z</time>
      </trkpt>
      <trkpt lat="43.64443" lon="1.39242">
        <ele>126</ele>
        <time>2025-04-16T10:45:14Z</time>
      </trkpt>
      <trkpt lat="43.64444" lon="1.39245">
        <ele>127</ele>
        <time>2025-04-16T10:45:15Z</time>
      </trkpt>
      <trkpt lat="43.64445" lon="1.39247">
        <ele>127</ele>
        <time>2025-04-16T10:45:16Z</time>
      </trkpt>
      <trkpt lat="43.64446" lon="1.3925">
        <ele>127</ele>
        <time>2025-04-16T10:45:17Z</time>
      </trkpt>
      <trkpt lat="43.64447" lon="1.39253">
        <ele>127</ele>
        <time>2025-04-16T10:45:18Z</time>
      </trkpt>
      <trkpt lat="43.64448" lon="1.39255">
        <ele>128</ele>
        <time>2025-04-16T10:45:19Z</time>
      </trkpt>
      <trkpt lat="43.64449" lon="1.39258">
        <ele>128</ele>
        <time>2025-04-16T10:45:20Z</time>
      </trkpt>
      <trkpt lat="43.6445" lon="1.3926">
        <ele>128</ele>
        <time>2025-04-16T10:45:21Z</time>
      </trkpt>
      <trkpt lat="43.64451" lon="1.39263">
        <ele>127</ele>
        <time>2025-04-16T10:45:22Z</time>
      </trkpt>
      <trkpt lat="43.64451" lon="1.39266">
        <ele>127</ele>
        <time>2025-04-16T10:45:23Z</time>
      </trkpt>
      <trkpt lat="43.64452" lon="1.39269">
        <ele>127</ele>
        <time>2025-04-16T10:45:24Z</time>
      </trkpt>
      <trkpt lat="43.64452" lon="1.39272">
        <ele>127</ele>
        <time>2025-04-16T10:45:25Z</time>
      </trkpt>
      <trkpt lat="43.64453" lon="1.39275">
        <ele>127</ele>
        <time>2025-04-16T10:45:26Z</time>
      </trkpt>
      <trkpt lat="43.64455" lon="1.39277">
        <ele>127</ele>
        <time>2025-04-16T10:45:27Z</time>
      </trkpt>
      <trkpt lat="43.64456" lon="1.39281">
        <ele>127</ele>
        <time>2025-04-16T10:45:28Z</time>
      </trkpt>
      <trkpt lat="43.64456" lon="1.39283">
        <ele>127</ele>
        <time>2025-04-16T10:45:29Z</time>
      </trkpt>
      <trkpt lat="43.64457" lon="1.39287">
        <ele>127</ele>
        <time>2025-04-16T10:45:30Z</time>
      </trkpt>
      <trkpt lat="43.64457" lon="1.3929">
        <ele>127</ele>
        <time>2025-04-16T10:45:31Z</time>
      </trkpt>
      <trkpt lat="43.64458" lon="1.39293">
        <ele>127</ele>
        <time>2025-04-16T10:45:32Z</time>
      </trkpt>
      <trkpt lat="43.64458" lon="1.39295">
        <ele>127</ele>
        <time>2025-04-16T10:45:33Z</time>
      </trkpt>
      <trkpt lat="43.64458" lon="1.39298">
        <ele>127</ele>
        <time>2025-04-16T10:45:34Z</time>
      </trkpt>
      <trkpt lat="43.64458" lon="1.39298">
        <ele>127</ele>
        <time>2025-04-16T10:45:35Z</time>
      </trkpt>
      <trkpt lat="43.64457" lon="1.39308">
        <ele>127</ele>
        <time>2025-04-16T10:45:36Z</time>
      </trkpt>
      <trkpt lat="43.64457" lon="1.39309">
        <ele>127</ele>
        <time>2025-04-16T10:45:37Z</time>
      </trkpt>
      <trkpt lat="43.64455" lon="1.39311">
        <ele>127</ele>
        <time>2025-04-16T10:45:38Z</time>
      </trkpt>
      <trkpt lat="43.64453" lon="1.39313">
        <ele>127</ele>
        <time>2025-04-16T10:45:39Z</time>
      </trkpt>
      <trkpt lat="43.64451" lon="1.39314">
        <ele>127</ele>
        <time>2025-04-16T10:45:40Z</time>
      </trkpt>
      <trkpt lat="43.64448" lon="1.39314">
        <ele>127</ele>
        <time>2025-04-16T10:45:41Z</time>
      </trkpt>
      <trkpt lat="43.64446" lon="1.39315">
        <ele>127</ele>
        <time>2025-04-16T10:45:42Z</time>
      </trkpt>
      <trkpt lat="43.64443" lon="1.39315">
        <ele>127</ele>
        <time>2025-04-16T10:45:43Z</time>
      </trkpt>
      <trkpt lat="43.64443" lon="1.39315">
        <ele>126</ele>
        <time>2025-04-16T10:45:44Z</time>
      </trkpt>
      <trkpt lat="43.64438" lon="1.39315">
        <ele>126</ele>
        <time>2025-04-16T10:45:45Z</time>
      </trkpt>
      <trkpt lat="43.64434" lon="1.39314">
        <ele>126</ele>
        <time>2025-04-16T10:45:46Z</time>
      </trkpt>
      <trkpt lat="43.6443" lon="1.39314">
        <ele>126</ele>
        <time>2025-04-16T10:45:47Z</time>
      </trkpt>
      <trkpt lat="43.64427" lon="1.39314">
        <ele>126</ele>
        <time>2025-04-16T10:45:48Z</time>
      </trkpt>
      <trkpt lat="43.64424" lon="1.39314">
        <ele>125</ele>
        <time>2025-04-16T10:45:49Z</time>
      </trkpt>
      <trkpt lat="43.64422" lon="1.39315">
        <ele>125</ele>
        <time>2025-04-16T10:45:50Z</time>
      </trkpt>
      <trkpt lat="43.64419" lon="1.39315">
        <ele>125</ele>
        <time>2025-04-16T10:45:51Z</time>
      </trkpt>
      <trkpt lat="43.64417" lon="1.39315">
        <ele>124</ele>
        <time>2025-04-16T10:45:52Z</time>
      </trkpt>
      <trkpt lat="43.64415" lon="1.39316">
        <ele>124</ele>
        <time>2025-04-16T10:45:53Z</time>
      </trkpt>
      <trkpt lat="43.64413" lon="1.39316">
        <ele>124</ele>
        <time>2025-04-16T10:45:54Z</time>
      </trkpt>
      <trkpt lat="43.6441" lon="1.39316">
        <ele>124</ele>
        <time>2025-04-16T10:45:55Z</time>
      </trkpt>
      <trkpt lat="43.64408" lon="1.39316">
        <ele>124</ele>
        <time>2025-04-16T10:45:56Z</time>
      </trkpt>
      <trkpt lat="43.64408" lon="1.39316">
        <ele>124</ele>
        <time>2025-04-16T10:45:57Z</time>
      </trkpt>
      <trkpt lat="43.64405" lon="1.39316">
        <ele>124</ele>
        <time>2025-04-16T10:45:58Z</time>
      </trkpt>
      <trkpt lat="43.64405" lon="1.39316">
        <ele>124</ele>
        <time>2025-04-16T10:45:59Z</time>
      </trkpt>
      <trkpt lat="43.64402" lon="1.39315">
        <ele>124</ele>
        <time>2025-04-16T10:46:00Z</time>
      </trkpt>
      <trkpt lat="43.64402" lon="1.39315">
        <ele>124</ele>
        <time>2025-04-16T10:46:01Z</time>
      </trkpt>
      <trkpt lat="43.64402" lon="1.39315">
        <ele>124</ele>
        <time>2025-04-16T10:46:02Z</time>
      </trkpt>
      <trkpt lat="43.64402" lon="1.39315">
        <ele>124</ele>
        <time>2025-04-16T10:46:03Z</time>
      </trkpt>
      <trkpt lat="43.64402" lon="1.39315">
        <ele>124</ele>
        <time>2025-04-16T10:46:04Z</time>
      </trkpt>
      <trkpt lat="43.64404" lon="1.39314">
        <ele>125</ele>
        <time>2025-04-16T10:46:05Z</time>
      </trkpt>
      <trkpt lat="43.64407" lon="1.39314">
        <ele>125</ele>
        <time>2025-04-16T10:46:06Z</time>
      </trkpt>
      <trkpt lat="43.6441" lon="1.39313">
        <ele>125</ele>
        <time>2025-04-16T10:46:07Z</time>
      </trkpt>
      <trkpt lat="43.64413" lon="1.39312">
        <ele>124</ele>
        <time>2025-04-16T10:46:08Z</time>
      </trkpt>
      <trkpt lat="43.64417" lon="1.39311">
        <ele>124</ele>
        <time>2025-04-16T10:46:09Z</time>
      </trkpt>
      <trkpt lat="43.6442" lon="1.3931">
        <ele>124</ele>
        <time>2025-04-16T10:46:10Z</time>
      </trkpt>
      <trkpt lat="43.64425" lon="1.39309">
        <ele>124</ele>
        <time>2025-04-16T10:46:11Z</time>
      </trkpt>
      <trkpt lat="43.64428" lon="1.39308">
        <ele>124</ele>
        <time>2025-04-16T10:46:12Z</time>
      </trkpt>
      <trkpt lat="43.64432" lon="1.39307">
        <ele>124</ele>
        <time>2025-04-16T10:46:13Z</time>
      </trkpt>
      <trkpt lat="43.64436" lon="1.39307">
        <ele>124</ele>
        <time>2025-04-16T10:46:14Z</time>
      </trkpt>
      <trkpt lat="43.64439" lon="1.39306">
        <ele>125</ele>
        <time>2025-04-16T10:46:15Z</time>
      </trkpt>
      <trkpt lat="43.64442" lon="1.39306">
        <ele>125</ele>
        <time>2025-04-16T10:46:16Z</time>
      </trkpt>
      <trkpt lat="43.64444" lon="1.39306">
        <ele>125</ele>
        <time>2025-04-16T10:46:17Z</time>
      </trkpt>
      <trkpt lat="43.64444" lon="1.39306">
        <ele>126</ele>
        <time>2025-04-16T10:46:18Z</time>
      </trkpt>
      <trkpt lat="43.64447" lon="1.39302">
        <ele>126</ele>
        <time>2025-04-16T10:46:19Z</time>
      </trkpt>
      <trkpt lat="43.6445" lon="1.39299">
        <ele>127</ele>
        <time>2025-04-16T10:46:20Z</time>
      </trkpt>
      <trkpt lat="43.64452" lon="1.39295">
        <ele>127</ele>
        <time>2025-04-16T10:46:21Z</time>
      </trkpt>
      <trkpt lat="43.64452" lon="1.3929">
        <ele>127</ele>
        <time>2025-04-16T10:46:22Z</time>
      </trkpt>
      <trkpt lat="43.64451" lon="1.39285">
        <ele>127</ele>
        <time>2025-04-16T10:46:23Z</time>
      </trkpt>
      <trkpt lat="43.6445" lon="1.3928">
        <ele>127</ele>
        <time>2025-04-16T10:46:24Z</time>
      </trkpt>
      <trkpt lat="43.64449" lon="1.39275">
        <ele>127</ele>
        <time>2025-04-16T10:46:25Z</time>
      </trkpt>
      <trkpt lat="43.64447" lon="1.3927">
        <ele>127</ele>
        <time>2025-04-16T10:46:26Z</time>
      </trkpt>
      <trkpt lat="43.64446" lon="1.39265">
        <ele>128</ele>
        <time>2025-04-16T10:46:27Z</time>
      </trkpt>
      <trkpt lat="43.64445" lon="1.3926">
        <ele>128</ele>
        <time>2025-04-16T10:46:28Z</time>
      </trkpt>
      <trkpt lat="43.64443" lon="1.39256">
        <ele>128</ele>
        <time>2025-04-16T10:46:29Z</time>
      </trkpt>
      <trkpt lat="43.64442" lon="1.39251">
        <ele>128</ele>
        <time>2025-04-16T10:46:30Z</time>
      </trkpt>
      <trkpt lat="43.6444" lon="1.39247">
        <ele>127</ele>
        <time>2025-04-16T10:46:31Z</time>
      </trkpt>
      <trkpt lat="43.64438" lon="1.39242">
        <ele>127</ele>
        <time>2025-04-16T10:46:32Z</time>
      </trkpt>
      <trkpt lat="43.64436" lon="1.39238">
        <ele>127</ele>
        <time>2025-04-16T10:46:33Z</time>
      </trkpt>
      <trkpt lat="43.64434" lon="1.39233">
        <ele>128</ele>
        <time>2025-04-16T10:46:34Z</time>
      </trkpt>
      <trkpt lat="43.64434" lon="1.39233">
        <ele>128</ele>
        <time>2025-04-16T10:46:35Z</time>
      </trkpt>
      <trkpt lat="43.64428" lon="1.39222">
        <ele>128</ele>
        <time>2025-04-16T10:46:36Z</time>
      </trkpt>
      <trkpt lat="43.64427" lon="1.3922">
        <ele>128</ele>
        <time>2025-04-16T10:46:37Z</time>
      </trkpt>
      <trkpt lat="43.64424" lon="1.39216">
        <ele>127</ele>
        <time>2025-04-16T10:46:38Z</time>
      </trkpt>
      <trkpt lat="43.64422" lon="1.39211">
        <ele>127</ele>
        <time>2025-04-16T10:46:39Z</time>
      </trkpt>
      <trkpt lat="43.64422" lon="1.39211">
        <ele>127</ele>
        <time>2025-04-16T10:46:40Z</time>
      </trkpt>
      <trkpt lat="43.64419" lon="1.39205">
        <ele>128</ele>
        <time>2025-04-16T10:46:41Z</time>
      </trkpt>
      <trkpt lat="43.64417" lon="1.392">
        <ele>128</ele>
        <time>2025-04-16T10:46:42Z</time>
      </trkpt>
      <trkpt lat="43.64415" lon="1.39194">
        <ele>128</ele>
        <time>2025-04-16T10:46:43Z</time>
      </trkpt>
      <trkpt lat="43.64413" lon="1.39189">
        <ele>128</ele>
        <time>2025-04-16T10:46:44Z</time>
      </trkpt>
      <trkpt lat="43.64412" lon="1.39185">
        <ele>129</ele>
        <time>2025-04-16T10:46:45Z</time>
      </trkpt>
      <trkpt lat="43.64411" lon="1.3918">
        <ele>129</ele>
        <time>2025-04-16T10:46:46Z</time>
      </trkpt>
      <trkpt lat="43.6441" lon="1.39175">
        <ele>129</ele>
        <time>2025-04-16T10:46:47Z</time>
      </trkpt>
      <trkpt lat="43.6441" lon="1.3917">
        <ele>130</ele>
        <time>2025-04-16T10:46:48Z</time>
      </trkpt>
      <trkpt lat="43.64409" lon="1.39165">
        <ele>131</ele>
        <time>2025-04-16T10:46:49Z</time>
      </trkpt>
      <trkpt lat="43.64409" lon="1.3916">
        <ele>132</ele>
        <time>2025-04-16T10:46:50Z</time>
      </trkpt>
      <trkpt lat="43.64409" lon="1.39156">
        <ele>132</ele>
        <time>2025-04-16T10:46:51Z</time>
      </trkpt>
      <trkpt lat="43.64409" lon="1.39152">
        <ele>133</ele>
        <time>2025-04-16T10:46:52Z</time>
      </trkpt>
      <trkpt lat="43.6441" lon="1.39148">
        <ele>133</ele>
        <time>2025-04-16T10:46:53Z</time>
      </trkpt>
      <trkpt lat="43.64412" lon="1.39144">
        <ele>133</ele>
        <time>2025-04-16T10:46:54Z</time>
      </trkpt>
      <trkpt lat="43.64412" lon="1.3914">
        <ele>133</ele>
        <time>2025-04-16T10:46:55Z</time>
      </trkpt>
      <trkpt lat="43.64412" lon="1.3914">
        <ele>133</ele>
        <time>2025-04-16T10:46:56Z</time>
      </trkpt>
      <trkpt lat="43.64415" lon="1.3913">
        <ele>134</ele>
        <time>2025-04-16T10:46:57Z</time>
      </trkpt>
      <trkpt lat="43.64415" lon="1.39127">
        <ele>134</ele>
        <time>2025-04-16T10:46:58Z</time>
      </trkpt>
      <trkpt lat="43.64415" lon="1.39127">
        <ele>135</ele>
        <time>2025-04-16T10:46:59Z</time>
      </trkpt>
      <trkpt lat="43.64418" lon="1.3912">
        <ele>135</ele>
        <time>2025-04-16T10:47:00Z</time>
      </trkpt>
      <trkpt lat="43.64418" lon="1.3912">
        <ele>136</ele>
        <time>2025-04-16T10:47:01Z</time>
      </trkpt>
      <trkpt lat="43.64418" lon="1.3912">
        <ele>137</ele>
        <time>2025-04-16T10:47:02Z</time>
      </trkpt>
      <trkpt lat="43.64418" lon="1.3912">
        <ele>138</ele>
        <time>2025-04-16T10:47:03Z</time>
      </trkpt>
      <trkpt lat="43.64418" lon="1.3912">
        <ele>138</ele>
        <time>2025-04-16T10:47:04Z</time>
      </trkpt>
      <trkpt lat="43.64417" lon="1.39124">
        <ele>137</ele>
        <time>2025-04-16T10:47:05Z</time>
      </trkpt>
      <trkpt lat="43.64417" lon="1.39126">
        <ele>137</ele>
        <time>2025-04-16T10:47:06Z</time>
      </trkpt>
      <trkpt lat="43.64417" lon="1.39126">
        <ele>137</ele>
        <time>2025-04-16T10:47:07Z</time>
      </trkpt>
      <trkpt lat="43.64416" lon="1.39131">
        <ele>136</ele>
        <time>2025-04-16T10:47:08Z</time>
      </trkpt>
      <trkpt lat="43.64416" lon="1.39131">
        <ele>136</ele>
        <time>2025-04-16T10:47:09Z</time>
      </trkpt>
      <trkpt lat="43.64416" lon="1.39135">
        <ele>136</ele>
        <time>2025-04-16T10:47:10Z</time>
      </trkpt>
      <trkpt lat="43.64415" lon="1.39137">
        <ele>136</ele>
        <time>2025-04-16T10:47:11Z</time>
      </trkpt>
      <trkpt lat="43.64415" lon="1.3914">
        <ele>135</ele>
        <time>2025-04-16T10:47:12Z</time>
      </trkpt>
      <trkpt lat="43.64415" lon="1.39143">
        <ele>134</ele>
        <time>2025-04-16T10:47:13Z</time>
      </trkpt>
      <trkpt lat="43.64414" lon="1.39145">
        <ele>134</ele>
        <time>2025-04-16T10:47:14Z</time>
      </trkpt>
      <trkpt lat="43.64413" lon="1.39148">
        <ele>134</ele>
        <time>2025-04-16T10:47:15Z</time>
      </trkpt>
      <trkpt lat="43.64412" lon="1.39151">
        <ele>134</ele>
        <time>2025-04-16T10:47:16Z</time>
      </trkpt>
      <trkpt lat="43.64412" lon="1.39154">
        <ele>134</ele>
        <time>2025-04-16T10:47:17Z</time>
      </trkpt>
      <trkpt lat="43.64411" lon="1.39156">
        <ele>133</ele>
        <time>2025-04-16T10:47:18Z</time>
      </trkpt>
      <trkpt lat="43.64411" lon="1.39159">
        <ele>133</ele>
        <time>2025-04-16T10:47:19Z</time>
      </trkpt>
      <trkpt lat="43.6441" lon="1.39162">
        <ele>133</ele>
        <time>2025-04-16T10:47:20Z</time>
      </trkpt>
      <trkpt lat="43.6441" lon="1.39164">
        <ele>133</ele>
        <time>2025-04-16T10:47:21Z</time>
      </trkpt>
      <trkpt lat="43.6441" lon="1.39164">
        <ele>133</ele>
        <time>2025-04-16T10:47:22Z</time>
      </trkpt>
      <trkpt lat="43.6441" lon="1.39169">
        <ele>133</ele>
        <time>2025-04-16T10:47:23Z</time>
      </trkpt>
      <trkpt lat="43.6441" lon="1.39169">
        <ele>132</ele>
        <time>2025-04-16T10:47:24Z</time>
      </trkpt>
      <trkpt lat="43.64411" lon="1.39174">
        <ele>132</ele>
        <time>2025-04-16T10:47:25Z</time>
      </trkpt>
      <trkpt lat="43.64411" lon="1.39177">
        <ele>132</ele>
        <time>2025-04-16T10:47:26Z</time>
      </trkpt>
      <trkpt lat="43.64411" lon="1.39179">
        <ele>132</ele>
        <time>2025-04-16T10:47:27Z</time>
      </trkpt>
      <trkpt lat="43.64411" lon="1.39182">
        <ele>132</ele>
        <time>2025-04-16T10:47:28Z</time>
      </trkpt>
      <trkpt lat="43.64411" lon="1.39185">
        <ele>132</ele>
        <time>2025-04-16T10:47:29Z</time>
      </trkpt>
      <trkpt lat="43.64411" lon="1.39185">
        <ele>131</ele>
        <time>2025-04-16T10:47:30Z</time>
      </trkpt>
      <trkpt lat="43.64412" lon="1.3919">
        <ele>131</ele>
        <time>2025-04-16T10:47:31Z</time>
      </trkpt>
      <trkpt lat="43.64413" lon="1.39192">
        <ele>131</ele>
        <time>2025-04-16T10:47:32Z</time>
      </trkpt>
      <trkpt lat="43.64414" lon="1.39194">
        <ele>131</ele>
        <time>2025-04-16T10:47:33Z</time>
      </trkpt>
      <trkpt lat="43.64414" lon="1.39194">
        <ele>131</ele>
        <time>2025-04-16T10:47:34Z</time>
      </trkpt>
      <trkpt lat="43.64416" lon="1.392">
        <ele>131</ele>
        <time>2025-04-16T10:47:35Z</time>
      </trkpt>
      <trkpt lat="43.64417" lon="1.39201">
        <ele>130</ele>
        <time>2025-04-16T10:47:36Z</time>
      </trkpt>
      <trkpt lat="43.64419" lon="1.39203">
        <ele>130</ele>
        <time>2025-04-16T10:47:37Z</time>
      </trkpt>
      <trkpt lat="43.64419" lon="1.39203">
        <ele>130</ele>
        <time>2025-04-16T10:47:38Z</time>
      </trkpt>
      <trkpt lat="43.64422" lon="1.39208">
        <ele>130</ele>
        <time>2025-04-16T10:47:39Z</time>
      </trkpt>
      <trkpt lat="43.64423" lon="1.39209">
        <ele>130</ele>
        <time>2025-04-16T10:47:40Z</time>
      </trkpt>
      <trkpt lat="43.64425" lon="1.39211">
        <ele>129</ele>
        <time>2025-04-16T10:47:41Z</time>
      </trkpt>
      <trkpt lat="43.64426" lon="1.39214">
        <ele>129</ele>
        <time>2025-04-16T10:47:42Z</time>
      </trkpt>
      <trkpt lat="43.64428" lon="1.39216">
        <ele>128</ele>
        <time>2025-04-16T10:47:43Z</time>
      </trkpt>
      <trkpt lat="43.64429" lon="1.39218">
        <ele>128</ele>
        <time>2025-04-16T10:47:44Z</time>
      </trkpt>
      <trkpt lat="43.64431" lon="1.3922">
        <ele>127</ele>
        <time>2025-04-16T10:47:45Z</time>
      </trkpt>
      <trkpt lat="43.64432" lon="1.39222">
        <ele>127</ele>
        <time>2025-04-16T10:47:46Z</time>
      </trkpt>
      <trkpt lat="43.64432" lon="1.39222">
        <ele>127</ele>
        <time>2025-04-16T10:47:47Z</time>
      </trkpt>
      <trkpt lat="43.64434" lon="1.39227">
        <ele>127</ele>
        <time>2025-04-16T10:47:48Z</time>
      </trkpt>
      <trkpt lat="43.64434" lon="1.3923">
        <ele>127</ele>
        <time>2025-04-16T10:47:49Z</time>
      </trkpt>
      <trkpt lat="43.64435" lon="1.39232">
        <ele>127</ele>
        <time>2025-04-16T10:47:50Z</time>
      </trkpt>
      <trkpt lat="43.64437" lon="1.39234">
        <ele>127</ele>
        <time>2025-04-16T10:47:51Z</time>
      </trkpt>
      <trkpt lat="43.64439" lon="1.39236">
        <ele>127</ele>
        <time>2025-04-16T10:47:52Z</time>
      </trkpt>
      <trkpt lat="43.6444" lon="1.39239">
        <ele>127</ele>
        <time>2025-04-16T10:47:53Z</time>
      </trkpt>
      <trkpt lat="43.64442" lon="1.39241">
        <ele>126</ele>
        <time>2025-04-16T10:47:54Z</time>
      </trkpt>
      <trkpt lat="43.64443" lon="1.39244">
        <ele>126</ele>
        <time>2025-04-16T10:47:55Z</time>
      </trkpt>
      <trkpt lat="43.64444" lon="1.39247">
        <ele>126</ele>
        <time>2025-04-16T10:47:56Z</time>
      </trkpt>
      <trkpt lat="43.64445" lon="1.39249">
        <ele>126</ele>
        <time>2025-04-16T10:47:57Z</time>
      </trkpt>
      <trkpt lat="43.64447" lon="1.39252">
        <ele>126</ele>
        <time>2025-04-16T10:47:58Z</time>
      </trkpt>
      <trkpt lat="43.64448" lon="1.39255">
        <ele>126</ele>
        <time>2025-04-16T10:47:59Z</time>
      </trkpt>
      <trkpt lat="43.64449" lon="1.39257">
        <ele>126</ele>
        <time>2025-04-16T10:48:00Z</time>
      </trkpt>
      <trkpt lat="43.64451" lon="1.3926">
        <ele>126</ele>
        <time>2025-04-16T10:48:01Z</time>
      </trkpt>
      <trkpt lat="43.64452" lon="1.39263">
        <ele>126</ele>
        <time>2025-04-16T10:48:02Z</time>
      </trkpt>
      <trkpt lat="43.64453" lon="1.39266">
        <ele>126</ele>
        <time>2025-04-16T10:48:03Z</time>
      </trkpt>
      <trkpt lat="43.64454" lon="1.39269">
        <ele>126</ele>
        <time>2025-04-16T10:48:04Z</time>
      </trkpt>
      <trkpt lat="43.64454" lon="1.39272">
        <ele>126</ele>
        <time>2025-04-16T10:48:05Z</time>
      </trkpt>
      <trkpt lat="43.64455" lon="1.39275">
        <ele>126</ele>
        <time>2025-04-16T10:48:06Z</time>
      </trkpt>
      <trkpt lat="43.64456" lon="1.39278">
        <ele>126</ele>
        <time>2025-04-16T10:48:07Z</time>
      </trkpt>
      <trkpt lat="43.64456" lon="1.39281">
        <ele>126</ele>
        <time>2025-04-16T10:48:08Z</time>
      </trkpt>
      <trkpt lat="43.64457" lon="1.39284">
        <ele>126</ele>
        <time>2025-04-16T10:48:09Z</time>
      </trkpt>
      <trkpt lat="43.64458" lon="1.39288">
        <ele>126</ele>
        <time>2025-04-16T10:48:10Z</time>
      </trkpt>
      <trkpt lat="43.64458" lon="1.3929">
        <ele>126</ele>
        <time>2025-04-16T10:48:11Z</time>
      </trkpt>
      <trkpt lat="43.64459" lon="1.39293">
        <ele>126</ele>
        <time>2025-04-16T10:48:12Z</time>
      </trkpt>
      <trkpt lat="43.6446" lon="1.39296">
        <ele>126</ele>
        <time>2025-04-16T10:48:13Z</time>
      </trkpt>
      <trkpt lat="43.6446" lon="1.393">
        <ele>126</ele>
        <time>2025-04-16T10:48:14Z</time>
      </trkpt>
      <trkpt lat="43.6446" lon="1.39303">
        <ele>126</ele>
        <time>2025-04-16T10:48:15Z</time>
      </trkpt>
      <trkpt lat="43.64459" lon="1.39307">
        <ele>126</ele>
        <time>2025-04-16T10:48:16Z</time>
      </trkpt>
      <trkpt lat="43.64458" lon="1.39309">
        <ele>126</ele>
        <time>2025-04-16T10:48:17Z</time>
      </trkpt>
      <trkpt lat="43.64455" lon="1.39311">
        <ele>126</ele>
        <time>2025-04-16T10:48:18Z</time>
      </trkpt>
      <trkpt lat="43.64453" lon="1.39312">
        <ele>126</ele>
        <time>2025-04-16T10:48:19Z</time>
      </trkpt>
      <trkpt lat="43.64451" lon="1.39314">
        <ele>125</ele>
        <time>2025-04-16T10:48:20Z</time>
      </trkpt>
      <trkpt lat="43.64448" lon="1.39314">
        <ele>125</ele>
        <time>2025-04-16T10:48:21Z</time>
      </trkpt>
      <trkpt lat="43.64445" lon="1.39314">
        <ele>125</ele>
        <time>2025-04-16T10:48:22Z</time>
      </trkpt>
      <trkpt lat="43.64443" lon="1.39314">
        <ele>125</ele>
        <time>2025-04-16T10:48:23Z</time>
      </trkpt>
      <trkpt lat="43.6444" lon="1.39314">
        <ele>125</ele>
        <time>2025-04-16T10:48:24Z</time>
      </trkpt>
      <trkpt lat="43.64437" lon="1.39313">
        <ele>125</ele>
        <time>2025-04-16T10:48:25Z</time>
      </trkpt>
      <trkpt lat="43.64434" lon="1.39314">
        <ele>125</ele>
        <time>2025-04-16T10:48:26Z</time>
      </trkpt>
      <trkpt lat="43.64431" lon="1.39313">
        <ele>125</ele>
        <time>2025-04-16T10:48:27Z</time>
      </trkpt>
      <trkpt lat="43.64428" lon="1.39313">
        <ele>125</ele>
        <time>2025-04-16T10:48:28Z</time>
      </trkpt>
      <trkpt lat="43.64426" lon="1.39313">
        <ele>125</ele>
        <time>2025-04-16T10:48:29Z</time>
      </trkpt>
      <trkpt lat="43.64424" lon="1.39313">
        <ele>125</ele>
        <time>2025-04-16T10:48:30Z</time>
      </trkpt>
      <trkpt lat="43.64421" lon="1.39314">
        <ele>125</ele>
        <time>2025-04-16T10:48:31Z</time>
      </trkpt>
      <trkpt lat="43.64419" lon="1.39314">
        <ele>125</ele>
        <time>2025-04-16T10:48:32Z</time>
      </trkpt>
      <trkpt lat="43.64416" lon="1.39315">
        <ele>125</ele>
        <time>2025-04-16T10:48:33Z</time>
      </trkpt>
      <trkpt lat="43.64414" lon="1.39315">
        <ele>124</ele>
        <time>2025-04-16T10:48:34Z</time>
      </trkpt>
      <trkpt lat="43.64412" lon="1.39316">
        <ele>124</ele>
        <time>2025-04-16T10:48:35Z</time>
      </trkpt>
      <trkpt lat="43.6441" lon="1.39315">
        <ele>124</ele>
        <time>2025-04-16T10:48:36Z</time>
      </trkpt>
      <trkpt lat="43.64408" lon="1.39315">
        <ele>124</ele>
        <time>2025-04-16T10:48:37Z</time>
      </trkpt>
      <trkpt lat="43.64405" lon="1.39315">
        <ele>124</ele>
        <time>2025-04-16T10:48:38Z</time>
      </trkpt>
      <trkpt lat="43.64404" lon="1.39314">
        <ele>124</ele>
        <time>2025-04-16T10:48:39Z</time>
      </trkpt>
      <trkpt lat="43.64404" lon="1.39314">
        <ele>124</ele>
        <time>2025-04-16T10:48:40Z</time>
      </trkpt>
      <trkpt lat="43.64402" lon="1.39315">
        <ele>124</ele>
        <time>2025-04-16T10:48:41Z</time>
      </trkpt>
      <trkpt lat="43.64402" lon="1.39315">
        <ele>124</ele>
        <time>2025-04-16T10:48:42Z</time>
      </trkpt>
      <trkpt lat="43.64402" lon="1.39315">
        <ele>124</ele>
        <time>2025-04-16T10:48:43Z</time>
      </trkpt>
      <trkpt lat="43.64404" lon="1.39314">
        <ele>124</ele>
        <time>2025-04-16T10:48:44Z</time>
      </trkpt>
      <trkpt lat="43.64406" lon="1.39313">
        <ele>124</ele>
        <time>2025-04-16T10:48:45Z</time>
      </trkpt>
      <trkpt lat="43.64408" lon="1.39313">
        <ele>124</ele>
        <time>2025-04-16T10:48:46Z</time>
      </trkpt>
      <trkpt lat="43.64411" lon="1.39312">
        <ele>124</ele>
        <time>2025-04-16T10:48:47Z</time>
      </trkpt>
      <trkpt lat="43.64415" lon="1.39311">
        <ele>124</ele>
        <time>2025-04-16T10:48:48Z</time>
      </trkpt>
      <trkpt lat="43.64419" lon="1.3931">
        <ele>124</ele>
        <time>2025-04-16T10:48:49Z</time>
      </trkpt>
      <trkpt lat="43.64424" lon="1.39309">
        <ele>124</ele>
        <time>2025-04-16T10:48:50Z</time>
      </trkpt>
      <trkpt lat="43.64428" lon="1.39308">
        <ele>124</ele>
        <time>2025-04-16T10:48:51Z</time>
      </trkpt>
      <trkpt lat="43.64433" lon="1.39307">
        <ele>124</ele>
        <time>2025-04-16T10:48:52Z</time>
      </trkpt>
      <trkpt lat="43.64437" lon="1.39307">
        <ele>124</ele>
        <time>2025-04-16T10:48:53Z</time>
      </trkpt>
      <trkpt lat="43.64442" lon="1.39306">
        <ele>125</ele>
        <time>2025-04-16T10:48:54Z</time>
      </trkpt>
      <trkpt lat="43.64442" lon="1.39306">
        <ele>125</ele>
        <time>2025-04-16T10:48:55Z</time>
      </trkpt>
      <trkpt lat="43.64445" lon="1.39305">
        <ele>125</ele>
        <time>2025-04-16T10:48:56Z</time>
      </trkpt>
      <trkpt lat="43.64448" lon="1.39305">
        <ele>125</ele>
        <time>2025-04-16T10:48:57Z</time>
      </trkpt>
      <trkpt lat="43.64451" lon="1.39304">
        <ele>126</ele>
        <time>2025-04-16T10:48:58Z</time>
      </trkpt>
      <trkpt lat="43.64454" lon="1.39294">
        <ele>126</ele>
        <time>2025-04-16T10:48:59Z</time>
      </trkpt>
      <trkpt lat="43.64454" lon="1.39292">
        <ele>126</ele>
        <time>2025-04-16T10:49:00Z</time>
      </trkpt>
      <trkpt lat="43.64453" lon="1.39287">
        <ele>126</ele>
        <time>2025-04-16T10:49:01Z</time>
      </trkpt>
      <trkpt lat="43.64452" lon="1.39282">
        <ele>126</ele>
        <time>2025-04-16T10:49:02Z</time>
      </trkpt>
      <trkpt lat="43.64451" lon="1.39276">
        <ele>126</ele>
        <time>2025-04-16T10:49:03Z</time>
      </trkpt>
      <trkpt lat="43.6445" lon="1.39271">
        <ele>126</ele>
        <time>2025-04-16T10:49:04Z</time>
      </trkpt>
      <trkpt lat="43.64449" lon="1.39266">
        <ele>126</ele>
        <time>2025-04-16T10:49:05Z</time>
      </trkpt>
      <trkpt lat="43.64448" lon="1.39261">
        <ele>126</ele>
        <time>2025-04-16T10:49:06Z</time>
      </trkpt>
      <trkpt lat="43.64446" lon="1.39255">
        <ele>126</ele>
        <time>2025-04-16T10:49:07Z</time>
      </trkpt>
      <trkpt lat="43.64444" lon="1.3925">
        <ele>126</ele>
        <time>2025-04-16T10:49:08Z</time>
      </trkpt>
      <trkpt lat="43.64442" lon="1.39246">
        <ele>126</ele>
        <time>2025-04-16T10:49:09Z</time>
      </trkpt>
      <trkpt lat="43.64439" lon="1.39241">
        <ele>126</ele>
        <time>2025-04-16T10:49:10Z</time>
      </trkpt>
      <trkpt lat="43.64437" lon="1.39236">
        <ele>126</ele>
        <time>2025-04-16T10:49:11Z</time>
      </trkpt>
      <trkpt lat="43.64437" lon="1.39236">
        <ele>126</ele>
        <time>2025-04-16T10:49:12Z</time>
      </trkpt>
      <trkpt lat="43.64434" lon="1.39232">
        <ele>126</ele>
        <time>2025-04-16T10:49:13Z</time>
      </trkpt>
      <trkpt lat="43.64431" lon="1.39228">
        <ele>126</ele>
        <time>2025-04-16T10:49:14Z</time>
      </trkpt>
      <trkpt lat="43.64428" lon="1.39223">
        <ele>127</ele>
        <time>2025-04-16T10:49:15Z</time>
      </trkpt>
      <trkpt lat="43.64425" lon="1.39218">
        <ele>127</ele>
        <time>2025-04-16T10:49:16Z</time>
      </trkpt>
      <trkpt lat="43.64422" lon="1.39212">
        <ele>127</ele>
        <time>2025-04-16T10:49:17Z</time>
      </trkpt>
      <trkpt lat="43.64419" lon="1.39206">
        <ele>127</ele>
        <time>2025-04-16T10:49:18Z</time>
      </trkpt>
      <trkpt lat="43.64417" lon="1.39202">
        <ele>127</ele>
        <time>2025-04-16T10:49:19Z</time>
      </trkpt>
      <trkpt lat="43.64415" lon="1.39197">
        <ele>128</ele>
        <time>2025-04-16T10:49:20Z</time>
      </trkpt>
      <trkpt lat="43.64414" lon="1.39193">
        <ele>128</ele>
        <time>2025-04-16T10:49:21Z</time>
      </trkpt>
      <trkpt lat="43.64413" lon="1.39188">
        <ele>129</ele>
        <time>2025-04-16T10:49:22Z</time>
      </trkpt>
      <trkpt lat="43.64412" lon="1.39183">
        <ele>129</ele>
        <time>2025-04-16T10:49:23Z</time>
      </trkpt>
      <trkpt lat="43.64411" lon="1.39178">
        <ele>130</ele>
        <time>2025-04-16T10:49:24Z</time>
      </trkpt>
      <trkpt lat="43.6441" lon="1.39172">
        <ele>130</ele>
        <time>2025-04-16T10:49:25Z</time>
      </trkpt>
      <trkpt lat="43.6441" lon="1.39167">
        <ele>130</ele>
        <time>2025-04-16T10:49:26Z</time>
      </trkpt>
      <trkpt lat="43.6441" lon="1.39162">
        <ele>131</ele>
        <time>2025-04-16T10:49:27Z</time>
      </trkpt>
      <trkpt lat="43.6441" lon="1.39157">
        <ele>131</ele>
        <time>2025-04-16T10:49:28Z</time>
      </trkpt>
      <trkpt lat="43.64411" lon="1.39152">
        <ele>132</ele>
        <time>2025-04-16T10:49:29Z</time>
      </trkpt>
      <trkpt lat="43.64411" lon="1.39147">
        <ele>132</ele>
        <time>2025-04-16T10:49:30Z</time>
      </trkpt>
      <trkpt lat="43.64412" lon="1.39142">
        <ele>132</ele>
        <time>2025-04-16T10:49:31Z</time>
      </trkpt>
      <trkpt lat="43.64412" lon="1.39138">
        <ele>133</ele>
        <time>2025-04-16T10:49:32Z</time>
      </trkpt>
      <trkpt lat="43.64413" lon="1.39134">
        <ele>133</ele>
        <time>2025-04-16T10:49:33Z</time>
      </trkpt>
      <trkpt lat="43.64415" lon="1.3913">
        <ele>133</ele>
        <time>2025-04-16T10:49:34Z</time>
      </trkpt>
      <trkpt lat="43.64416" lon="1.39125">
        <ele>133</ele>
        <time>2025-04-16T10:49:35Z</time>
      </trkpt>
      <trkpt lat="43.64418" lon="1.39121">
        <ele>134</ele>
        <time>2025-04-16T10:49:36Z</time>
      </trkpt>
      <trkpt lat="43.64419" lon="1.39117">
        <ele>135</ele>
        <time>2025-04-16T10:49:37Z</time>
      </trkpt>
      <trkpt lat="43.64419" lon="1.39117">
        <ele>136</ele>
        <time>2025-04-16T10:49:38Z</time>
      </trkpt>
      <trkpt lat="43.64419" lon="1.39114">
        <ele>136</ele>
        <time>2025-04-16T10:49:39Z</time>
      </trkpt>
      <trkpt lat="43.64419" lon="1.39114">
        <ele>136</ele>
        <time>2025-04-16T10:49:40Z</time>
      </trkpt>
      <trkpt lat="43.64419" lon="1.39112">
        <ele>136</ele>
        <time>2025-04-16T10:49:41Z</time>
      </trkpt>
      <trkpt lat="43.64419" lon="1.39112">
        <ele>136</ele>
        <time>2025-04-16T10:49:42Z</time>
      </trkpt>
      <trkpt lat="43.6442" lon="1.39109">
        <ele>136</ele>
        <time>2025-04-16T10:49:43Z</time>
      </trkpt>
      <trkpt lat="43.6442" lon="1.39109">
        <ele>136</ele>
        <time>2025-04-16T10:49:44Z</time>
      </trkpt>
      <trkpt lat="43.64422" lon="1.39107">
        <ele>136</ele>
        <time>2025-04-16T10:49:45Z</time>
      </trkpt>
      <trkpt lat="43.64422" lon="1.39107">
        <ele>137</ele>
        <time>2025-04-16T10:49:46Z</time>
      </trkpt>
      <trkpt lat="43.64424" lon="1.39103">
        <ele>137</ele>
        <time>2025-04-16T10:49:47Z</time>
      </trkpt>
      <trkpt lat="43.64424" lon="1.39103">
        <ele>137</ele>
        <time>2025-04-16T10:49:48Z</time>
      </trkpt>
      <trkpt lat="43.64426" lon="1.391">
        <ele>137</ele>
        <time>2025-04-16T10:49:49Z</time>
      </trkpt>
      <trkpt lat="43.64426" lon="1.391">
        <ele>138</ele>
        <time>2025-04-16T10:49:50Z</time>
      </trkpt>
      <trkpt lat="43.64429" lon="1.39097">
        <ele>138</ele>
        <time>2025-04-16T10:49:51Z</time>
      </trkpt>
      <trkpt lat="43.64429" lon="1.39097">
        <ele>138</ele>
        <time>2025-04-16T10:49:52Z</time>
      </trkpt>
      <trkpt lat="43.6443" lon="1.39094">
        <ele>138</ele>
        <time>2025-04-16T10:49:53Z</time>
      </trkpt>
      <trkpt lat="43.6443" lon="1.39094">
        <ele>138</ele>
        <time>2025-04-16T10:49:54Z</time>
      </trkpt>
      <trkpt lat="43.64432" lon="1.39092">
        <ele>138</ele>
        <time>2025-04-16T10:49:55Z</time>
      </trkpt>
      <trkpt lat="43.64432" lon="1.39092">
        <ele>138</ele>
        <time>2025-04-16T10:49:56Z</time>
      </trkpt>
      <trkpt lat="43.64433" lon="1.39089">
        <ele>138</ele>
        <time>2025-04-16T10:49:57Z</time>
      </trkpt>
      <trkpt lat="43.64433" lon="1.39089">
        <ele>138</ele>
        <time>2025-04-16T10:49:58Z</time>
      </trkpt>
      <trkpt lat="43.64434" lon="1.39088">
        <ele>138</ele>
        <time>2025-04-16T10:49:59Z</time>
      </trkpt>
    </trkseg>
  </trk>
</gpx>